Provisional Data: Mill Creek near Lancaster, PA


Please select a monitoring station.
Please select start date.
Please select start date.

Toggle Unit: C/F Toggle Unit: C/F
Sample Time Temperature (C) Temperature (F) Specific Conductivity (mS/cm) pH   Turbidity (NTU+) DO (mg/L)
10/17/2022 12:00:00 AM 13.68 56.624 0.981 8.01 20.96 8.51
10/17/2022 12:15:00 AM 13.67 56.606 0.982 8 20.99 8.5
10/17/2022 12:30:00 AM 13.65 56.57 0.982 8 24.13 8.49
10/17/2022 12:45:00 AM 13.65 56.57 0.983 8 22.86 8.48
10/17/2022 1:00:00 AM 13.64 56.552 0.984 8 23.15 8.42
10/17/2022 1:15:00 AM 13.62 56.516 0.982 8 23.84 8.43
10/17/2022 1:30:00 AM 13.61 56.498 0.985 7.99 20.87 8.37
10/17/2022 1:45:00 AM 13.6 56.48 0.981 7.98 21.32 8.26
10/17/2022 2:00:00 AM 13.59 56.462 0.984 7.98 20.38 8.32
10/17/2022 2:15:00 AM 13.58 56.444 0.984 7.97 20.92 8.29
10/17/2022 2:30:00 AM 13.56 56.408 0.985 7.97 21.23 8.27
10/17/2022 2:45:00 AM 13.54 56.372 0.985 7.97 20.68 8.3
10/17/2022 3:00:00 AM 13.52 56.336 0.986 7.97 23.6 8.25
10/17/2022 3:15:00 AM 13.5 56.3 0.989 7.97 21.67 8.3
10/17/2022 3:30:00 AM 13.48 56.264 0.989 7.96 20.88 8.21
10/17/2022 3:45:00 AM 13.46 56.228 0.99 7.96 20.53 8.2
10/17/2022 4:00:00 AM 13.43 56.174 0.99 7.96 20.69 8.22
10/17/2022 4:15:00 AM 13.4 56.12 0.99 7.95 21.02 8.16
10/17/2022 4:30:00 AM 13.37 56.066 0.99 7.95 20.81 8.22
10/17/2022 4:45:00 AM 13.34 56.012 0.991 7.95 21.17 8.28
10/17/2022 5:00:00 AM 13.32 55.976 0.991 7.95 21.93 8.2
10/17/2022 5:15:00 AM 13.32 55.976 0.991 7.94 21.6 8.14
10/17/2022 5:30:00 AM 13.31 55.958 0.992 7.94 21.83 8.2
10/17/2022 5:45:00 AM 13.29 55.922 0.992 7.94 21.2 8.12
10/17/2022 6:00:00 AM 13.27 55.886 0.992 7.94 21.11 8.18
10/17/2022 6:15:00 AM 13.24 55.832 0.992 7.93 21.01 8.14
10/17/2022 6:30:00 AM 13.22 55.796 0.992 7.92 20.86 8.06
10/17/2022 6:45:00 AM 13.19 55.742 0.992 7.92 20.54 8.04
10/17/2022 7:00:00 AM 13.16 55.688 0.992 7.92 20.52 8.11
10/17/2022 7:15:00 AM 13.14 55.652 0.992 7.91 21.32 8.09
10/17/2022 7:30:00 AM 13.13 55.634 0.992 7.91 20.2 8.11
10/17/2022 7:45:00 AM 13.1 55.58 0.992 7.91 21.88 8.11
10/17/2022 8:00:00 AM 13.09 55.562 0.992 7.9 21.52 8.1
10/17/2022 8:15:00 AM 13.08 55.544 0.992 7.9 20.75 8.13
10/17/2022 8:30:00 AM 13.08 55.544 0.991 7.9 21.22 8.17
10/17/2022 8:45:00 AM 13.09 55.562 0.991 7.9 22.8 8.22
10/17/2022 9:00:00 AM 13.11 55.598 0.991 7.9 22.94 8.28
10/17/2022 9:15:00 AM 13.11 55.598 0.991 7.9 23.93 8.36
10/17/2022 9:30:00 AM 13.13 55.634 0.991 7.9 22.71 8.4
10/17/2022 9:45:00 AM 13.16 55.688 0.99 7.9 21.66 8.47
10/17/2022 10:00:00 AM 13.2 55.76 0.99 7.91 20.86 8.66
10/17/2022 10:15:00 AM 13.24 55.832 0.989 7.91 25.07 8.73
10/17/2022 10:30:00 AM 13.27 55.886 0.988 7.92 21.21 8.92
10/17/2022 10:45:00 AM 13.33 55.994 0.987 7.93 21.12 9.15
10/17/2022 11:00:00 AM 13.38 56.084 0.987 7.95 21.04 9.37
10/17/2022 11:15:00 AM 13.45 56.21 0.986 7.95 21.45 9.43
10/17/2022 11:30:00 AM 13.51 56.318 0.986 7.97 24.31 9.66
10/17/2022 11:45:00 AM 13.61 56.498 0.986 7.97 24.43 9.8
10/17/2022 12:00:00 PM 13.72 56.696 0.986 7.97 22.27 9.84
10/17/2022 12:15:00 PM 13.85 56.93 0.986 7.98 21.63 10.1
10/17/2022 12:30:00 PM 13.99 57.182 0.985 7.99 22.79 10.33
10/17/2022 12:45:00 PM 14.1 57.38 0.984 8.01 23.7 10.4
10/17/2022 1:00:00 PM 14.09 57.362 0.984 8.02 21.46 10.42
10/17/2022 1:15:00 PM 14.06 57.308 0.985 8.03 22.33 10.27
10/17/2022 1:30:00 PM 14.03 57.254 0.985 8.02 21.27 10.08
10/17/2022 1:45:00 PM 14.03 57.254 0.985 8.02 21.09 9.93
10/17/2022 2:00:00 PM 14.1 57.38 0.984 8.02 21.68 10.02
10/17/2022 2:15:00 PM 14.17 57.506 0.984 8.03 21.15 10.25
10/17/2022 2:30:00 PM 14.26 57.668 0.983 8.06 21.28 10.7
10/17/2022 2:45:00 PM 14.32 57.776 0.983 8.08 23.06 10.89
10/17/2022 3:00:00 PM 14.32 57.776 0.983 8.08 23.28 10.82
10/17/2022 3:15:00 PM 14.32 57.776 0.983 8.09 21.86 10.59
10/17/2022 3:30:00 PM 14.32 57.776 0.983 8.09 21.59 10.43
10/17/2022 3:45:00 PM 14.34 57.812 0.983 8.09 21.31 10.36
10/17/2022 4:00:00 PM 14.39 57.902 0.983 8.1 21.86 10.56
10/17/2022 4:15:00 PM 14.42 57.956 0.983 8.11 21.48 10.6
10/17/2022 4:30:00 PM 14.43 57.974 0.983 8.1 21.9 10.58
10/17/2022 4:45:00 PM 14.43 57.974 0.983 8.1 22.84 10.32
10/17/2022 5:00:00 PM 14.45 58.01 0.983 8.11 27.13 10.28
10/17/2022 5:15:00 PM 14.44 57.992 0.983 8.11 22.31 10.19
10/17/2022 5:30:00 PM 14.44 57.992 0.983 8.11 22.18 10.09
10/17/2022 5:45:00 PM 14.44 57.992 0.983 8.11 21.76 9.98
10/17/2022 6:00:00 PM 14.44 57.992 0.984 8.1 23.31 9.79
10/17/2022 6:15:00 PM 14.42 57.956 0.984 8.1 21.95 9.63
10/17/2022 6:30:00 PM 14.4 57.92 0.984 8.1 21.56 9.52
10/17/2022 6:45:00 PM 14.37 57.866 0.982 8.09 27.1 9.43
10/17/2022 7:00:00 PM 14.35 57.83 0.984 8.09 23.68 9.4
10/17/2022 7:15:00 PM 14.33 57.794 0.984 8.09 22.94 9.36
10/17/2022 7:30:00 PM 14.32 57.776 0.985 8.08 23.53 9.18
10/17/2022 7:45:00 PM 14.29 57.722 0.985 8.08 24.09 9.1
10/17/2022 8:00:00 PM 14.25 57.65 0.985 8.08 22.92 9.07
10/17/2022 8:15:00 PM 14.2 57.56 0.986 8.08 22.93 9.05
10/17/2022 8:30:00 PM 14.17 57.506 0.986 8.06 24.12 8.88
10/17/2022 8:45:00 PM 14.14 57.452 0.986 8.06 24.17 8.78
10/17/2022 9:00:00 PM 14.09 57.362 0.987 8.06 24.48 8.69
10/17/2022 9:15:00 PM 14.05 57.29 0.987 8.05 23.69 8.6
10/17/2022 9:30:00 PM 14 57.2 0.987 8.04 23.8 8.53
10/17/2022 9:45:00 PM 13.97 57.146 0.988 8.04 23.2 8.5
10/17/2022 10:00:00 PM 13.95 57.11 0.988 8.03 23.24 8.38
10/17/2022 10:15:00 PM 13.92 57.056 0.989 8.02 23.4 8.32
10/17/2022 10:30:00 PM 13.89 57.002 0.989 8.01 23.45 8.21
10/17/2022 10:45:00 PM 13.86 56.948 0.989 8.01 23.26 8.15
10/17/2022 11:00:00 PM 13.83 56.894 0.99 8.01 23.21 8.13
10/17/2022 11:15:00 PM 13.78 56.804 0.99 8 23.58 8.04
10/17/2022 11:30:00 PM 13.74 56.732 0.99 7.99 25.48 7.99
10/17/2022 11:45:00 PM 13.7 56.66 0.99 7.99 24.94 8.03
10/18/2022 12:00:00 AM 13.65 56.57 0.99 7.99 24.82 8.01
10/18/2022 12:15:00 AM 13.59 56.462 0.99 7.99 24.37 8.06
10/18/2022 12:30:00 AM 13.53 56.354 0.99 7.98 24.34 8.13
10/18/2022 12:45:00 AM 13.47 56.246 0.991 7.98 24.37 8.14
10/18/2022 1:00:00 AM 13.42 56.156 0.991 7.98 24.32 8.09
10/18/2022 1:15:00 AM 13.38 56.084 0.99 7.97 24.91 8.07
10/18/2022 1:30:00 AM 13.32 55.976 0.99 7.97 24.7 8.09
10/18/2022 1:45:00 AM 13.27 55.886 0.99 7.96 24.69 8.1
10/18/2022 2:00:00 AM 13.23 55.814 0.99 7.96 24.96 8.07
10/18/2022 2:15:00 AM 13.19 55.742 0.99 7.95 24.53 8.08
10/18/2022 2:30:00 AM 13.16 55.688 0.99 7.95 24.63 8.04
10/18/2022 2:45:00 AM 13.12 55.616 0.99 7.95 24.04 8
10/18/2022 3:00:00 AM 13.07 55.526 0.99 7.94 24.26 8.02
10/18/2022 3:15:00 AM 13.04 55.472 0.99 7.94 25.16 8.03
10/18/2022 3:30:00 AM 12.99 55.382 0.989 7.94 24.24 8.01
10/18/2022 3:45:00 AM 12.94 55.292 0.99 7.94 24.41 8.06
10/18/2022 4:00:00 AM 12.88 55.184 0.989 7.93 24.73 8.09
10/18/2022 4:15:00 AM 12.82 55.076 0.989 7.93 24.91 8.11
10/18/2022 4:30:00 AM 12.74 54.932 0.988 7.93 24.73 8.1
10/18/2022 4:45:00 AM 12.67 54.806 0.988 7.93 25.51 8.14
10/18/2022 5:00:00 AM 12.6 54.68 0.988 7.93 25.16 8.14
10/18/2022 5:15:00 AM 12.53 54.554 0.987 7.93 24.65 8.16
10/18/2022 5:30:00 AM 12.45 54.41 0.987 7.93 24.73 8.16
10/18/2022 5:45:00 AM 12.36 54.248 0.987 7.93 24.38 8.22
10/18/2022 6:00:00 AM 12.32 54.176 0.987 7.92 24.19 8.22
10/18/2022 6:15:00 AM 12.26 54.068 0.986 7.92 24.68 8.21
10/18/2022 6:30:00 AM 12.21 53.978 0.986 7.91 28.22 8.11
10/18/2022 6:45:00 AM 12.13 53.834 0.985 7.92 25.4 8.17
10/18/2022 7:00:00 AM 12.04 53.672 0.984 7.92 25.34 8.27
10/18/2022 7:15:00 AM 11.98 53.564 0.984 7.92 25.66 8.24
10/18/2022 7:30:00 AM 11.86 53.348 0.984 7.91 26.1 8.28
10/18/2022 7:45:00 AM 11.79 53.222 0.983 7.91 26.09 8.33
10/18/2022 8:00:00 AM 11.72 53.096 0.983 7.91 25.79 8.33
10/18/2022 8:15:00 AM 11.65 52.97 0.983 7.9 26.5 7.6
10/18/2022 8:30:00 AM 11.61 52.898 0.982 7.9 26.42 8.35
10/18/2022 8:45:00 AM 11.56 52.808 0.981 7.9 25.79 8.41
10/18/2022 9:00:00 AM 11.5 52.7 0.981 7.9 26.21 8.48
10/18/2022 9:15:00 AM 11.47 52.646 0.979 7.9 25.88 8.56
10/18/2022 9:30:00 AM 11.4 52.52 0.979 7.9 26.31 8.71
10/18/2022 9:45:00 AM 11.37 52.466 0.977 7.89 26.14 8.79
10/18/2022 10:00:00 AM 11.33 52.394 0.977 7.89 27.46 8.9
10/18/2022 10:15:00 AM 11.28 52.304 0.978 7.89 25.98 8.99
10/18/2022 10:30:00 AM 11.27 52.286 0.976 7.89 25.96 9.06
10/18/2022 10:45:00 AM 11.34 52.412 0.974 7.89 26.79 9.24
10/18/2022 11:00:00 AM 11.38 52.484 0.974 7.9 28.25 9.33
10/18/2022 11:15:00 AM 11.44 52.592 0.973 7.91 27.71 9.55
10/18/2022 11:30:00 AM 11.59 52.862 0.972 7.92 27.11 9.8
10/18/2022 11:45:00 AM 11.74 53.132 0.971 7.94 27.04 10.09
10/18/2022 12:00:00 PM 11.88 53.384 0.971 7.93 26.48 10.25
10/18/2022 12:15:00 PM 12.06 53.708 0.97 7.94 27.26 10.45
10/18/2022 12:30:00 PM 12.19 53.942 0.969 7.93 29.45 10.53
10/18/2022 12:45:00 PM 12.24 54.032 0.968 7.95 26.76 10.67
10/18/2022 1:00:00 PM 12.32 54.176 0.968 7.97 29.95 10.67
10/18/2022 1:15:00 PM 12.37 54.266 0.967 7.98 27.22 10.66
10/18/2022 1:30:00 PM 12.42 54.356 0.966 7.99 27.03 10.74
10/18/2022 1:45:00 PM 12.42 54.356 0.966 8 27.17 10.76
10/18/2022 2:00:00 PM 12.42 54.356 0.965 8.01 27.06 10.91
10/18/2022 2:15:00 PM 12.46 54.428 0.964 8.02 27.47 11.02
10/18/2022 2:30:00 PM 12.49 54.482 0.964 8.03 27.23 11.12
10/18/2022 2:45:00 PM 12.47 54.446 0.963 8.04 26.73 11.13
10/18/2022 3:00:00 PM 12.46 54.428 0.962 8.05 27.97 11.16
10/18/2022 3:15:00 PM 12.45 54.41 0.962 8.05 26.8 11.12
10/18/2022 3:30:00 PM 12.47 54.446 0.961 8.06 26.4 11.13
10/18/2022 3:45:00 PM 12.46 54.428 0.96 8.06 27.54 11.18
10/18/2022 4:00:00 PM 12.43 54.374 0.96 8.06 26.05 11.11
10/18/2022 4:15:00 PM 12.39 54.302 0.959 8.07 25.99 11.11
10/18/2022 4:30:00 PM 12.34 54.212 0.959 8.07 26.09 11
10/18/2022 4:45:00 PM 12.35 54.23 0.959 8.07 26.29 10.93
10/18/2022 5:00:00 PM 12.34 54.212 0.958 8.07 26.2 10.89
10/18/2022 5:15:00 PM 12.33 54.194 0.957 8.08 27.06 10.93
10/18/2022 5:30:00 PM 12.32 54.176 0.957 8.08 26.51 10.91
10/18/2022 5:45:00 PM 12.3 54.14 0.956 8.08 30.35 10.8
10/18/2022 6:00:00 PM 12.26 54.068 0.956 8.08 27.22 10.68
10/18/2022 6:15:00 PM 12.24 54.032 0.956 8.08 27.19 10.52
10/18/2022 6:30:00 PM 12.2 53.96 0.955 8.07 30.29 10.39
10/18/2022 6:45:00 PM 12.17 53.906 0.955 8.08 29.68 10.33
10/18/2022 7:00:00 PM 12.15 53.87 0.955 8.08 27.67 10.25
10/18/2022 7:15:00 PM 12.13 53.834 0.955 8.08 26.75 10.2
10/18/2022 7:30:00 PM 12.1 53.78 0.955 8.07 27.48 10.11
10/18/2022 7:45:00 PM 12.08 53.744 0.954 8.07 27.01 10.04
10/18/2022 8:00:00 PM 12.04 53.672 0.955 8.06 33.89 9.89
10/18/2022 8:15:00 PM 12.01 53.618 0.955 8.06 30.39 9.88
10/18/2022 8:30:00 PM 11.98 53.564 0.955 8.06 28.11 9.83
10/18/2022 8:45:00 PM 11.95 53.51 0.955 8.06 27.93 9.8
10/18/2022 9:00:00 PM 11.9 53.42 0.955 8.05 28.83 9.7
10/18/2022 9:15:00 PM 11.88 53.384 0.956 8.04 29.04 9.6
10/18/2022 9:30:00 PM 11.83 53.294 0.956 8.04 28.71 9.55
10/18/2022 9:45:00 PM 11.78 53.204 0.956 8.04 29.04 9.51
10/18/2022 10:00:00 PM 11.74 53.132 0.957 8.03 28.54 9.45
10/18/2022 10:15:00 PM 11.68 53.024 0.957 8.03 28.58 9.44
10/18/2022 10:30:00 PM 11.64 52.952 0.957 8.03 29.09 9.37
10/18/2022 10:45:00 PM 11.58 52.844 0.958 8.02 29.45 9.3
10/18/2022 11:00:00 PM 11.54 52.772 0.958 8.01 28.62 9.26
10/18/2022 11:15:00 PM 11.49 52.682 0.959 8.01 29.58 9.17
10/18/2022 11:30:00 PM 11.45 52.61 0.959 8.01 28.93 9.13
10/18/2022 11:45:00 PM 11.41 52.538 0.96 8 29.61 9.08
10/19/2022 12:00:00 AM 11.36 52.448 0.961 8 29.71 9.07
10/19/2022 12:15:00 AM 11.31 52.358 0.962 7.99 31.13 9.03
10/19/2022 12:30:00 AM 11.27 52.286 0.962 7.99 30.45 8.99
10/19/2022 12:45:00 AM 11.23 52.214 0.962 7.98 30.34 9
10/19/2022 1:00:00 AM 11.17 52.106 0.962 7.98 30.03 9.01
10/19/2022 1:15:00 AM 11.11 51.998 0.964 7.98 30.26 9
10/19/2022 1:30:00 AM 11.05 51.89 0.964 7.97 30.43 8.98
10/19/2022 1:45:00 AM 11.01 51.818 0.964 7.97 30.22 8.95
10/19/2022 2:00:00 AM 10.96 51.728 0.965 7.96 30.3 8.97
10/19/2022 2:15:00 AM 10.88 51.584 0.965 7.96 30.78 8.95
10/19/2022 2:30:00 AM 10.84 51.512 0.966 7.96 30.28 8.97
10/19/2022 2:45:00 AM 10.8 51.44 0.966 7.95 30.91 8.96
10/19/2022 3:00:00 AM 10.75 51.35 0.966 7.95 30.14 8.95
10/19/2022 3:15:00 AM 10.7 51.26 0.967 7.94 30.43 8.95
10/19/2022 3:30:00 AM 10.62 51.116 0.967 7.94 31.72 8.97
10/19/2022 3:45:00 AM 10.58 51.044 0.967 7.94 34.05 8.92
10/19/2022 4:00:00 AM 10.52 50.936 0.968 7.93 30.25 8.94
10/19/2022 4:15:00 AM 10.46 50.828 0.968 7.93 30.35 8.93
10/19/2022 4:30:00 AM 10.4 50.72 0.968 7.93 30.1 8.97
10/19/2022 4:45:00 AM 10.34 50.612 0.969 7.92 30.32 8.97
10/19/2022 5:00:00 AM 10.28 50.504 0.97 7.92 32.25 8.97
10/19/2022 5:15:00 AM 10.23 50.414 0.969 7.92 33.38 8.98
10/19/2022 5:30:00 AM 10.14 50.252 0.969 7.91 32.79 9.02
10/19/2022 5:45:00 AM 10.12 50.216 0.969 7.91 32.31 9.06
10/19/2022 6:00:00 AM 10.11 50.198 0.969 7.9 32.64 9.08
10/19/2022 6:15:00 AM 10.08 50.144 0.969 7.9 34.49 9.09
10/19/2022 6:30:00 AM 10.05 50.09 0.969 7.89 32.79 9.12
10/19/2022 6:45:00 AM 10.01 50.018 0.969 7.88 32.38 9.11
10/19/2022 7:00:00 AM 9.99 49.982 0.969 7.88 33.37 9.1
10/19/2022 7:15:00 AM 9.96 49.928 0.969 7.87 44.41 9.06
10/19/2022 7:30:00 AM 9.87 49.766 0.97 7.87 32.72 9.08
10/19/2022 7:45:00 AM 9.87 49.766 0.968 7.87 34.14 9.09
10/19/2022 8:00:00 AM 9.87 49.766 0.967 7.87 31.09 9.13
10/19/2022 8:15:00 AM 9.8 49.64 0.969 7.86 40.98 9.11
10/19/2022 8:30:00 AM 9.79 49.622 0.968 7.86 32.31 9.22
10/19/2022 8:45:00 AM 9.83 49.694 0.968 7.86 31.27 9.31
10/19/2022 9:00:00 AM 9.84 49.712 0.967 7.86 31.01 9.44
10/19/2022 9:15:00 AM 9.79 49.622 0.967 7.86 31.35 9.58
10/19/2022 9:30:00 AM 9.8 49.64 0.966 7.87 30.96 9.59
10/19/2022 9:45:00 AM 9.78 49.604 0.966 7.86 30.95 9.62
10/19/2022 10:00:00 AM 9.82 49.676 0.965 7.86 32.11 9.72
10/19/2022 10:15:00 AM 9.83 49.694 0.964 7.87 31.07 9.83
10/19/2022 10:30:00 AM 9.85 49.73 0.963 7.88 32.42 10.01
10/19/2022 10:45:00 AM 9.85 49.73 0.963 7.88 30.86 10.06
10/19/2022 11:00:00 AM 9.91 49.838 0.962 7.88 31.18 10.13
10/19/2022 11:15:00 AM 9.98 49.964 0.961 7.88 31.06 10.24
10/19/2022 11:30:00 AM 10.11 50.198 0.961 7.89 30.73 10.4
10/19/2022 11:45:00 AM 10.28 50.504 0.959 7.91 31.64 10.77
10/19/2022 12:00:00 PM 10.42 50.756 0.958 7.92 31.53 10.79
10/19/2022 12:15:00 PM 10.45 50.81 0.957 7.93 33.76 10.94
10/19/2022 12:30:00 PM 10.5 50.9 0.956 7.93 33.23 11
10/19/2022 12:45:00 PM 10.49 50.882 0.953 7.95 31.63 11.18
10/19/2022 1:00:00 PM 10.45 50.81 0.952 7.96 32.06 11.31
10/19/2022 1:15:00 PM 10.47 50.846 0.951 7.97 32.07 11.38
10/19/2022 1:30:00 PM 10.52 50.936 0.949 7.98 32.15 11.49
10/19/2022 1:45:00 PM 10.57 51.026 0.948 7.99 32.18 11.6
10/19/2022 2:00:00 PM 10.72 51.296 0.947 8 31.91 11.94
10/19/2022 2:15:00 PM 10.8 51.44 0.946 8.02 31.77 12.05
10/19/2022 2:30:00 PM 10.83 51.494 0.944 8.03 32.18 12.15
10/19/2022 2:45:00 PM 10.85 51.53 0.944 8.04 31.56 12.21
10/19/2022 3:00:00 PM 10.78 51.404 0.943 8.04 30.09 12.1
10/19/2022 3:15:00 PM 10.76 51.368 0.942 8.03 30.72 12.01
10/19/2022 3:30:00 PM 10.78 51.404 0.941 8.05 31.21 12.05
10/19/2022 3:45:00 PM 10.79 51.422 0.94 8.05 31.02 12.13
10/19/2022 4:00:00 PM 10.8 51.44 0.939 8.06 31.48 11.89
10/19/2022 4:15:00 PM 10.81 51.458 0.939 8.07 30.55 12.1
10/19/2022 4:30:00 PM 10.83 51.494 0.939 8.07 30.38 12.05
10/19/2022 4:45:00 PM 10.82 51.476 0.938 8.07 31.98 12
10/19/2022 5:00:00 PM 10.81 51.458 0.938 8.07 30.32 11.96
10/19/2022 5:15:00 PM 10.81 51.458 0.938 8.06 31.01 11.76
10/19/2022 5:30:00 PM 10.8 51.44 0.937 8.07 30.24 11.73
10/19/2022 5:45:00 PM 10.79 51.422 0.937 8.06 29.94 11.64
10/19/2022 6:00:00 PM 10.82 51.476 0.937 8.05 30.2 11.43
10/19/2022 6:15:00 PM 10.82 51.476 0.937 8.04 30.1 11.31
10/19/2022 6:30:00 PM 10.74 51.332 0.937 8.05 30.53 11.23
10/19/2022 6:45:00 PM 10.7 51.26 0.937 8.05 29.81 11.2
10/19/2022 7:00:00 PM 10.69 51.242 0.937 8.05 30.2 11.08
10/19/2022 7:15:00 PM 10.66 51.188 0.937 8.04 30.44 10.91
10/19/2022 7:30:00 PM 10.64 51.152 0.937 8.04 30.55 10.82
10/19/2022 7:45:00 PM 10.59 51.062 0.938 8.03 29.94 10.74
10/19/2022 8:00:00 PM 10.55 50.99 0.938 8.03 30.37 10.62
10/19/2022 8:15:00 PM 10.57 51.026 0.939 8.02 30.21 10.46
10/19/2022 8:30:00 PM 10.51 50.918 0.939 8.01 30.37 10.35
10/19/2022 8:45:00 PM 10.46 50.828 0.94 8.01 30.38 10.34
10/19/2022 9:00:00 PM 10.44 50.792 0.94 8.01 30.46 10.24
10/19/2022 9:15:00 PM 10.36 50.648 0.941 8.01 30.31 10.23
10/19/2022 9:30:00 PM 10.32 50.576 0.941 8.01 30.31 10.18
10/19/2022 9:45:00 PM 10.3 50.54 0.942 8 30.34 10.14
10/19/2022 10:00:00 PM 10.31 50.558 0.942 7.99 30.49 10.03
10/19/2022 10:15:00 PM 10.24 50.432 0.943 7.99 30.37 9.94
10/19/2022 10:30:00 PM 10.17 50.306 0.944 7.99 30.03 9.99
10/19/2022 10:45:00 PM 10.15 50.27 0.944 7.99 30.9 9.93
10/19/2022 11:00:00 PM 10.1 50.18 0.944 7.98 30.15 9.89
10/19/2022 11:15:00 PM 10.1 50.18 0.945 7.97 30.26 9.83
10/19/2022 11:30:00 PM 10.1 50.18 0.945 7.97 30.24 9.72
10/19/2022 11:45:00 PM 10.11 50.198 0.946 7.96 30.04 9.67
10/20/2022 12:00:00 AM 10.09 50.162 0.947 7.95 30.54 9.6
10/20/2022 12:15:00 AM 10.07 50.126 0.947 7.95 30.26 9.55
10/20/2022 12:30:00 AM 10.02 50.036 0.948 7.94 30.45 9.5
10/20/2022 12:45:00 AM 9.93 49.874 0.948 7.95 31.18 9.53
10/20/2022 1:00:00 AM 9.99 49.982 0.949 7.94 30.68 9.52
10/20/2022 1:15:00 AM 9.94 49.892 0.95 7.93 30.13 9.41
10/20/2022 1:30:00 AM 9.91 49.838 0.95 7.93 30.32 9.36
10/20/2022 1:45:00 AM 9.92 49.856 0.95 7.92 30.83 9.26
10/20/2022 2:00:00 AM 9.84 49.712 0.951 7.91 33.51 9.33
10/20/2022 2:15:00 AM 9.83 49.694 0.952 7.91 34.83 9.26
10/20/2022 2:30:00 AM 9.84 49.712 0.953 7.9 31.49 9.23
10/20/2022 2:45:00 AM 9.87 49.766 0.952 7.9 31.14 9.17
10/20/2022 3:00:00 AM 9.78 49.604 0.953 7.9 30.84 9.23
10/20/2022 3:15:00 AM 9.7 49.46 0.953 7.9 32.36 9.25
10/20/2022 3:30:00 AM 9.67 49.406 0.954 7.9 31.89 9.26
10/20/2022 3:45:00 AM 9.67 49.406 0.953 7.89 31.02 9.23
10/20/2022 4:00:00 AM 9.56 49.208 0.954 7.88 31.41 9.21
10/20/2022 4:15:00 AM 9.53 49.154 0.955 7.88 31.2 9.22
10/20/2022 4:30:00 AM 9.51 49.118 0.955 7.87 31.21 9.18
10/20/2022 4:45:00 AM 9.47 49.046 0.955 7.87 30.94 9.19
10/20/2022 5:00:00 AM 9.43 48.974 0.955 7.86 31.12 9.17
10/20/2022 5:15:00 AM 9.45 49.01 0.955 7.91 31.19 9.2
10/20/2022 5:30:00 AM 9.37 48.866 0.956 7.89 31.45 9.21
10/20/2022 5:45:00 AM 9.32 48.776 0.956 7.89 31.28 9.23
10/20/2022 6:00:00 AM 9.33 48.794 0.954 7.9 31.19 9.22
10/20/2022 6:15:00 AM 9.26 48.668 0.955 7.9 31.5 9.24
10/20/2022 6:30:00 AM 9.19 48.542 0.955 7.9 32.5 9.27
10/20/2022 6:45:00 AM 9.19 48.542 0.954 7.9 31.44 9.23
10/20/2022 7:00:00 AM 9.08 48.344 0.955 7.89 31.59 9.25
10/20/2022 7:15:00 AM 9.05 48.29 0.954 7.88 31.59 9.28
10/20/2022 7:30:00 AM 8.98 48.164 0.954 7.89 30.91 9.26
10/20/2022 7:45:00 AM 8.97 48.146 0.953 7.89 32.59 9.32
10/20/2022 8:00:00 AM 8.98 48.164 0.951 7.89 31.65 9.35
10/20/2022 8:15:00 AM 8.88 47.984 0.951 7.89 31.9 9.42
10/20/2022 8:30:00 AM 8.83 47.894 0.951 7.89 31.19 9.5
10/20/2022 8:45:00 AM 8.83 47.894 0.951 7.9 31.78 9.5
10/20/2022 9:00:00 AM 8.83 47.894 0.951 7.91 31.22 9.57
10/20/2022 9:15:00 AM 8.8 47.84 0.949 7.9 31.07 9.63
10/20/2022 9:30:00 AM 8.68 47.624 0.951 7.89 31.56 9.65
10/20/2022 9:45:00 AM 8.71 47.678 0.948 7.87 31.63 9.68
10/20/2022 10:00:00 AM 8.74 47.732 0.948 7.86 31.31 9.71
10/20/2022 10:15:00 AM 8.74 47.732 0.948 7.85 30.91 9.89
10/20/2022 10:30:00 AM 8.74 47.732 0.947 7.84 32.52 9.87
10/20/2022 10:45:00 AM 8.83 47.894 0.945 7.82 32.61 9.8
10/20/2022 11:00:00 AM 8.85 47.93 0.945 7.82 33.06 9.95
10/20/2022 11:15:00 AM 8.95 48.11 0.943 7.81 33.6 10.16
10/20/2022 11:30:00 AM 9.07 48.326 0.942 7.81 33.52 10.27
10/20/2022 11:45:00 AM 9.24 48.632 0.941 7.82 34.92 10.46
10/20/2022 12:00:00 PM 9.44 48.992 0.939 7.82 34.8 10.62
10/20/2022 12:15:00 PM 9.67 49.406 0.937 7.84 37.9 10.79
10/20/2022 12:30:00 PM 9.82 49.676 0.937 7.84 36.94 10.88
10/20/2022 12:45:00 PM 9.95 49.91 0.936 7.86 36.42 11.03
10/20/2022 1:00:00 PM 10.04 50.072 0.935 7.88 35.66 11.18
10/20/2022 1:15:00 PM 10.13 50.234 0.935 7.89 36.41 11.37
10/20/2022 1:30:00 PM 10.23 50.414 0.933 7.9 38.15 11.45
10/20/2022 1:45:00 PM 10.31 50.558 0.932 7.92 37.21 11.52
10/20/2022 2:00:00 PM 10.37 50.666 0.931 7.92 38.41 11.5
10/20/2022 2:15:00 PM 10.43 50.774 0.93 7.93 37.29 11.5
10/20/2022 2:30:00 PM 10.48 50.864 0.929 7.94 36.47 11.57
10/20/2022 2:45:00 PM 10.52 50.936 0.928 7.94 36.51 11.65
10/20/2022 3:00:00 PM 10.55 50.99 0.927 7.95 37.95 11.6
10/20/2022 3:15:00 PM 10.58 51.044 0.926 7.96 38.19 11.61
10/20/2022 3:30:00 PM 10.59 51.062 0.925 7.97 37.73 11.64
10/20/2022 3:45:00 PM 10.6 51.08 0.924 7.97 39.95 11.64
10/20/2022 4:00:00 PM 10.59 51.062 0.923 7.97 39.54 11.62
10/20/2022 4:15:00 PM 10.6 51.08 0.921 7.97 40.97 11.64
10/20/2022 4:30:00 PM 10.59 51.062 0.92 7.98 39.17 11.65
10/20/2022 4:45:00 PM 10.58 51.044 0.919 7.98 40.38 11.55
10/20/2022 5:00:00 PM 10.55 50.99 0.917 7.98 39.94 11.52
10/20/2022 5:15:00 PM 10.54 50.972 0.916 7.98 40.69 11.42
10/20/2022 5:30:00 PM 10.53 50.954 0.915 7.98 40.04 11.3
10/20/2022 5:45:00 PM 10.53 50.954 0.915 7.98 40.72 11.23
10/20/2022 6:00:00 PM 10.52 50.936 0.914 7.98 40.59 11.07
10/20/2022 6:15:00 PM 10.52 50.936 0.913 7.98 40.64 10.95
10/20/2022 6:30:00 PM 10.51 50.918 0.911 7.99 42.44 10.94
10/20/2022 6:45:00 PM 10.49 50.882 0.909 8 40.86 10.9
10/20/2022 7:00:00 PM 10.48 50.864 0.909 8 40.48 10.75
10/20/2022 7:15:00 PM 10.45 50.81 0.907 8 41.1 10.66
10/20/2022 7:30:00 PM 10.42 50.756 0.907 8 40.35 10.66
10/20/2022 7:45:00 PM 10.41 50.738 0.906 8.01 40.81 10.62
10/20/2022 8:00:00 PM 10.38 50.684 0.905 8.01 40.25 10.54
10/20/2022 8:15:00 PM 10.36 50.648 0.904 8.01 39.5 10.45
10/20/2022 8:30:00 PM 10.33 50.594 0.904 8 41.55 10.39
10/20/2022 8:45:00 PM 10.3 50.54 0.903 8 41.2 10.31
10/20/2022 9:00:00 PM 10.29 50.522 0.902 8 40.31 10.2
10/20/2022 9:15:00 PM 10.24 50.432 0.902 7.99 39.03 10.13
10/20/2022 9:30:00 PM 10.21 50.378 0.901 7.98 39.51 9.99
10/20/2022 9:45:00 PM 10.16 50.288 0.901 7.98 41.16 9.95
10/20/2022 10:00:00 PM 10.12 50.216 0.9 7.98 39.87 9.91
10/20/2022 10:15:00 PM 10.09 50.162 0.9 7.97 41.16 9.84
10/20/2022 10:30:00 PM 10.05 50.09 0.899 7.96 40.7 9.76
10/20/2022 10:45:00 PM 10.01 50.018 0.898 7.97 42.35 9.76
10/20/2022 11:00:00 PM 9.96 49.928 0.898 7.96 40.69 9.69
10/20/2022 11:15:00 PM 9.93 49.874 0.897 7.95 42.31 9.65
10/20/2022 11:30:00 PM 9.89 49.802 0.897 7.95 39.69 9.65
10/20/2022 11:45:00 PM 9.85 49.73 0.896 7.94 40.46 9.6
10/21/2022 12:00:00 AM 9.83 49.694 0.896 7.93 41.76 9.59
10/21/2022 12:15:00 AM 9.8 49.64 0.895 7.93 40.6 9.53
10/21/2022 12:30:00 AM 9.79 49.622 0.895 7.92 41.16 9.49
10/21/2022 12:45:00 AM 9.74 49.532 0.896 7.91 41.26 9.45
10/21/2022 1:00:00 AM 9.76 49.568 0.896 7.9 39.96 9.37
10/21/2022 1:15:00 AM 9.73 49.514 0.896 7.89 38.51 9.32
10/21/2022 1:30:00 AM 9.69 49.442 0.896 7.89 38.88 9.34
10/21/2022 1:45:00 AM 9.68 49.424 0.895 7.88 38.53 9.32
10/21/2022 2:00:00 AM 9.62 49.316 0.896 7.88 40.5 9.33
10/21/2022 2:15:00 AM 9.58 49.244 0.896 7.87 42.72 9.32
10/21/2022 2:30:00 AM 9.55 49.19 0.896 7.87 38.91 9.28
10/21/2022 2:45:00 AM 9.47 49.046 0.897 7.87 38.82 9.38
10/21/2022 3:00:00 AM 9.45 49.01 0.896 7.88 39.12 9.38
10/21/2022 3:15:00 AM 9.38 48.884 0.897 7.88 39.88 9.4
10/21/2022 3:30:00 AM 9.34 48.812 0.897 7.87 40.19 9.41
10/21/2022 3:45:00 AM 9.31 48.758 0.898 7.87 43.57 9.41
10/21/2022 4:00:00 AM 9.28 48.704 0.898 7.87 40.11 9.4
10/21/2022 4:15:00 AM 9.23 48.614 0.898 7.87 39.64 9.41
10/21/2022 4:30:00 AM 9.16 48.488 0.898 7.87 40.79 9.45
10/21/2022 4:45:00 AM 9.15 48.47 0.898 7.86 40.33 9.44
10/21/2022 5:00:00 AM 9.07 48.326 0.899 7.86 39.4 9.44
10/21/2022 5:15:00 AM 9.05 48.29 0.9 7.86 39.69 9.45
10/21/2022 5:30:00 AM 9 48.2 0.9 7.85 41.69 9.45
10/21/2022 5:45:00 AM 8.97 48.146 0.901 7.85 40.01 9.43
10/21/2022 6:00:00 AM 8.89 48.002 0.902 7.84 39.8 9.44
10/21/2022 6:15:00 AM 8.88 47.984 0.902 7.85 42.52 9.45
10/21/2022 6:30:00 AM 8.82 47.876 0.9 7.84 41.06 9.41
10/21/2022 6:45:00 AM 8.74 47.732 0.901 7.84 39.56 9.49
10/21/2022 7:00:00 AM 8.72 47.696 0.902 7.83 39.57 9.48
10/21/2022 7:15:00 AM 8.69 47.642 0.902 7.83 40.07 9.51
10/21/2022 7:30:00 AM 8.63 47.534 0.903 7.82 42.13 9.51
10/21/2022 7:45:00 AM 8.56 47.408 0.905 7.82 40.99 9.54
10/21/2022 8:00:00 AM 8.5 47.3 0.905 7.82 44.77 9.54
10/21/2022 8:15:00 AM 8.41 47.138 0.907 7.81 41.31 9.58
10/21/2022 8:30:00 AM 8.41 47.138 0.907 7.81 40.03 9.58
10/21/2022 8:45:00 AM 8.37 47.066 0.907 7.81 41.18 9.65
10/21/2022 9:00:00 AM 8.36 47.048 0.907 7.81 42.01 9.07
10/21/2022 9:15:00 AM 8.41 47.138 0.905 7.81 41.97 9.52
10/21/2022 9:30:00 AM 8.37 47.066 0.906 7.8 42.26 9.59
10/21/2022 9:45:00 AM 8.38 47.084 0.906 7.79 41.82 9.44
10/21/2022 10:00:00 AM 8.38 47.084 0.906 7.79 38.9 9.38
10/21/2022 10:15:00 AM 8.38 47.084 0.906 7.78 40.17 9.53
10/21/2022 10:30:00 AM 8.4 47.12 0.906 7.78 40.22 9.78
10/21/2022 10:45:00 AM 8.42 47.156 0.907 7.78 39.48 10.17
10/21/2022 11:00:00 AM 8.5 47.3 0.906 7.78 41.3 10.2
10/21/2022 11:15:00 AM 8.63 47.534 0.906 7.77 43.72 10.33
10/21/2022 11:30:00 AM 8.78 47.804 0.905 7.77 42.65 10.67
10/21/2022 11:45:00 AM 8.98 48.164 0.905 7.78 43.69 10.96
10/21/2022 12:00:00 PM 9.22 48.596 0.904 7.79 41.35 11.14
10/21/2022 12:15:00 PM 9.43 48.974 0.904 7.79 41.24 11.33
10/21/2022 12:30:00 PM 9.61 49.298 0.904 7.77 41.07 11.39
10/21/2022 12:45:00 PM 9.72 49.496 0.904 7.79 39.09 11.53
10/21/2022 1:00:00 PM 9.83 49.694 0.903 7.79 39.81 11.54
10/21/2022 1:15:00 PM 9.96 49.928 0.902 7.82 39.97 11.81
10/21/2022 1:30:00 PM 10.04 50.072 0.902 7.83 39.58 11.88
10/21/2022 1:45:00 PM 10.12 50.216 0.902 7.82 39.57 11.95
10/21/2022 2:00:00 PM 10.19 50.342 0.902 7.83 40.16 11.87
10/21/2022 2:15:00 PM 10.27 50.486 0.902 7.85 38.52 11.96
10/21/2022 2:30:00 PM 10.34 50.612 0.903 7.77 39.26 12.02
10/21/2022 2:45:00 PM 10.38 50.684 0.903 7.32 38.03 12.06
10/21/2022 3:00:00 PM 10.44 50.792 0.903 7.1 38.09 11.99
10/21/2022 3:15:00 PM 10.47 50.846 0.903 7.38 40.66 11.98
10/21/2022 3:30:00 PM 10.5 50.9 0.903 7.48 36.27 12.16
10/21/2022 3:45:00 PM 10.52 50.936 0.903 7.62 37.35 12.17
10/21/2022 4:00:00 PM 10.53 50.954 0.904 7.3 37.66 12.17
10/21/2022 4:15:00 PM 10.53 50.954 0.904 7.38 37.65 12.12
10/21/2022 4:30:00 PM 10.53 50.954 0.904 7.38 39.2 12.05
10/21/2022 4:45:00 PM 10.51 50.918 0.904 7.4 36.21 11.98
10/21/2022 5:00:00 PM 10.51 50.918 0.905 7.54 38.22 11.9
10/21/2022 5:15:00 PM 10.51 50.918 0.905 7.5 41 11.78
10/21/2022 5:30:00 PM 10.51 50.918 0.905 7.59 37.78 11.64
10/21/2022 5:45:00 PM 10.51 50.918 0.906 7.61 37.21 11.62
10/21/2022 6:00:00 PM 10.51 50.918 0.906 7.7 37.05 11.52
10/21/2022 6:15:00 PM 10.51 50.918 0.907 7.75 37.76 11.44
10/21/2022 6:30:00 PM 10.49 50.882 0.907 7.79 36.98 11.3
10/21/2022 6:45:00 PM 10.48 50.864 0.908 7.81 38.73 11.16
10/21/2022 7:00:00 PM 10.46 50.828 0.909 7.84 41.25 11.08
10/21/2022 7:15:00 PM 10.46 50.828 0.909 7.86 41.08 11.03
10/21/2022 7:30:00 PM 10.44 50.792 0.91 7.84 35.8 10.97
10/21/2022 7:45:00 PM 10.44 50.792 0.911 7.81 36.78 10.89
10/21/2022 8:00:00 PM 10.42 50.756 0.912 7.82 39.53 10.8
10/21/2022 8:15:00 PM 10.42 50.756 0.913 7.82 39.3 10.71
10/21/2022 8:30:00 PM 10.4 50.72 0.914 7.84 35.88 10.65
10/21/2022 8:45:00 PM 10.38 50.684 0.915 7.86 36.99 10.58
10/21/2022 9:00:00 PM 10.36 50.648 0.916 7.87 38.67 10.52
10/21/2022 9:15:00 PM 10.32 50.576 0.917 7.87 37.51 10.39
10/21/2022 9:30:00 PM 10.3 50.54 0.918 7.87 36.97 10.3
10/21/2022 9:45:00 PM 10.24 50.432 0.919 7.87 37.13 10.25
10/21/2022 10:00:00 PM 10.17 50.306 0.921 7.88 35.78 10.24
10/21/2022 10:15:00 PM 10.15 50.27 0.923 7.88 37.47 10.11
10/21/2022 10:30:00 PM 10.1 50.18 0.924 7.88 41.06 10.11
10/21/2022 10:45:00 PM 10.07 50.126 0.924 7.88 41.65 10.01
10/21/2022 11:00:00 PM 10.03 50.054 0.927 7.88 40.63 9.92
10/21/2022 11:15:00 PM 10.02 50.036 0.927 7.87 39.3 9.88
10/21/2022 11:30:00 PM 10 50 0.928 7.87 37.6 9.83
10/21/2022 11:45:00 PM 9.95 49.91 0.93 7.86 44.09 9.81
10/22/2022 12:00:00 AM 9.92 49.856 0.931 7.86 40.23 9.76
10/22/2022 12:15:00 AM 9.88 49.784 0.932 7.85 37.9 9.7
10/22/2022 12:30:00 AM 9.82 49.676 0.934 7.84 36.83 9.7
10/22/2022 12:45:00 AM 9.79 49.622 0.935 7.85 37.85 9.65
10/22/2022 1:00:00 AM 9.73 49.514 0.937 7.85 39.65 9.63
10/22/2022 1:15:00 AM 9.69 49.442 0.938 7.83 39.82 9.61
10/22/2022 1:30:00 AM 9.65 49.37 0.94 7.83 39.85 9.6
10/22/2022 1:45:00 AM 9.61 49.298 0.942 7.73 41.47 9.59
10/22/2022 2:00:00 AM 9.56 49.208 0.944 7.77 39.62 9.54
10/22/2022 2:15:00 AM 9.54 49.172 0.945 7.78 39.32 9.56
10/22/2022 2:30:00 AM 9.51 49.118 0.946 7.78 38.63 9.56
10/22/2022 2:45:00 AM 9.46 49.028 0.948 7.79 39.62 9.56
10/22/2022 3:00:00 AM 9.41 48.938 0.95 7.79 41.6 9.54
10/22/2022 3:15:00 AM 9.37 48.866 0.951 7.79 38.42 9.54
10/22/2022 3:30:00 AM 9.31 48.758 0.953 7.79 39.85 9.56
10/22/2022 3:45:00 AM 9.28 48.704 0.955 7.79 39.71 9.53
10/22/2022 4:00:00 AM 9.23 48.614 0.956 7.79 40.68 9.54
10/22/2022 4:15:00 AM 9.16 48.488 0.958 7.79 40.52 9.56
10/22/2022 4:30:00 AM 9.14 48.452 0.959 7.79 40.07 9.55
10/22/2022 4:45:00 AM 9.1 48.38 0.961 7.79 42.38 9.55
10/22/2022 5:00:00 AM 9.02 48.236 0.963 7.79 40.77 9.58
10/22/2022 5:15:00 AM 8.99 48.182 0.965 7.79 40.7 9.58
10/22/2022 5:30:00 AM 8.95 48.11 0.967 7.79 41.94 9.6
10/22/2022 5:45:00 AM 8.91 48.038 0.969 7.79 40.24 9.59
10/22/2022 6:00:00 AM 8.86 47.948 0.971 7.78 39.69 9.62
10/22/2022 6:15:00 AM 8.81 47.858 0.972 7.78 38.78 9.61
10/22/2022 6:30:00 AM 8.75 47.75 0.973 7.78 38.54 9.64
10/22/2022 6:45:00 AM 8.75 47.75 0.975 7.78 40.09 9.62
10/22/2022 7:00:00 AM 8.73 47.714 0.976 7.78 39.49 9.64
10/22/2022 7:15:00 AM 8.65 47.57 0.978 7.77 39.84 9.65
10/22/2022 7:30:00 AM 8.63 47.534 0.979 7.77 39.99 8.41
10/22/2022 7:45:00 AM 8.6 47.48 0.98 7.77 40.97 9.53
10/22/2022 8:00:00 AM 8.54 47.372 0.981 7.76 41.39 9.67
10/22/2022 8:15:00 AM 8.49 47.282 0.983 7.76 42.4 9.71
10/22/2022 8:30:00 AM 8.46 47.228 0.984 7.76 45.72 9.71
10/22/2022 8:45:00 AM 8.41 47.138 0.986 7.75 41.48 9.78
10/22/2022 9:00:00 AM 8.38 47.084 0.988 7.75 39.65 9.79
10/22/2022 9:15:00 AM 8.36 47.048 0.989 7.75 39.61 9.9
10/22/2022 9:30:00 AM 8.36 47.048 0.989 7.74 39.45 9.93
10/22/2022 9:45:00 AM 8.38 47.084 0.99 7.74 38.44 9.97
10/22/2022 10:00:00 AM 8.38 47.084 0.991 7.73 39.21 10.11
10/22/2022 10:15:00 AM 8.41 47.138 0.992 7.73 38.91 10.15
10/22/2022 10:30:00 AM 8.46 47.228 0.993 7.72 39.11 10.32
10/22/2022 10:45:00 AM 8.52 47.336 0.994 7.72 39.95 10.47
10/22/2022 11:00:00 AM 8.63 47.534 0.994 7.72 39.17 10.64
10/22/2022 11:15:00 AM 8.78 47.804 0.995 7.68 42.16 10.79
10/22/2022 11:30:00 AM 8.98 48.164 0.995 7.68 38.76 11.03
10/22/2022 11:45:00 AM 9.19 48.542 0.995 7.68 38.93 11.25
10/22/2022 12:00:00 PM 9.42 48.956 0.995 7.68 37.68 11.44
10/22/2022 12:15:00 PM 9.66 49.388 0.996 7.68 38.26 11.63
10/22/2022 12:30:00 PM 9.83 49.694 0.996 7.68 40.88 11.72
10/22/2022 12:45:00 PM 9.94 49.892 0.997 7.69 40.24 11.89
10/22/2022 1:00:00 PM 10.07 50.126 0.997 7.71 39.82 11.98
10/22/2022 1:15:00 PM 10.19 50.342 0.997 7.73 39.18 12.11
10/22/2022 1:30:00 PM 10.29 50.522 0.998 7.75 38.84 12.18
10/22/2022 1:45:00 PM 10.38 50.684 0.998 7.77 41.69 12.19
10/22/2022 2:00:00 PM 10.47 50.846 0.999 7.78 50.66 12.27
10/22/2022 2:15:00 PM 10.56 51.008 1 7.8 44.3 12.36
10/22/2022 2:30:00 PM 10.63 51.134 1 7.81 44.72 12.42
10/22/2022 2:45:00 PM 10.69 51.242 1 7.82 44.42 12.42
10/22/2022 3:00:00 PM 10.75 51.35 1.001 7.83 40.94 12.44
10/22/2022 3:15:00 PM 10.76 51.368 1.001 7.84 33.86 12.35
10/22/2022 3:30:00 PM 10.81 51.458 1.001 7.85 53.78 12.25
10/22/2022 3:45:00 PM 10.85 51.53 1.002 7.85 28.28 12.27
10/22/2022 4:00:00 PM 10.87 51.566 1.002 7.86 4.18 12.24
10/22/2022 4:15:00 PM 10.88 51.584 1.002 7.87 5.84 12.17
10/22/2022 4:30:00 PM 10.89 51.602 1.003 7.88 3.94 12.1
10/22/2022 4:45:00 PM 10.89 51.602 1.003 7.88 2.53 12.06
10/22/2022 5:00:00 PM 10.89 51.602 1.003 7.89 1.92 11.99
10/22/2022 5:15:00 PM 10.89 51.602 1.004 7.89 2.08 11.89
10/22/2022 5:30:00 PM 10.91 51.638 1.004 7.9 2.89 11.81
10/22/2022 5:45:00 PM 10.93 51.674 1.004 7.92 2.1 11.76
10/22/2022 6:00:00 PM 10.94 51.692 1.004 7.93 2.04 11.7
10/22/2022 6:15:00 PM 10.94 51.692 1.005 7.94 1.72 11.6
10/22/2022 6:30:00 PM 10.94 51.692 1.005 7.95 2.11 11.47
10/22/2022 6:45:00 PM 10.93 51.674 1.006 7.96 2.34 11.32
10/22/2022 7:00:00 PM 10.93 51.674 1.006 7.96 2.36 11.19
10/22/2022 7:15:00 PM 10.92 51.656 1.006 7.96 2.2 11.07
10/22/2022 7:30:00 PM 10.91 51.638 1.007 7.97 2.11 10.98
10/22/2022 7:45:00 PM 10.91 51.638 1.007 7.97 2.04 10.88
10/22/2022 8:00:00 PM 10.91 51.638 1.007 7.97 1.88 10.8
10/22/2022 8:15:00 PM 10.89 51.602 1.008 7.97 1.88 10.71
10/22/2022 8:30:00 PM 10.89 51.602 1.008 7.97 2.5 10.63
10/22/2022 8:45:00 PM 10.88 51.584 1.008 7.97 1.87 10.55
10/22/2022 9:00:00 PM 10.86 51.548 1.009 7.97 1.7 10.47
10/22/2022 9:15:00 PM 10.84 51.512 1.009 7.96 2.38 10.39
10/22/2022 9:30:00 PM 10.82 51.476 1.009 7.96 1.77 10.3
10/22/2022 9:45:00 PM 10.8 51.44 1.01 7.96 1.71 10.19
10/22/2022 10:00:00 PM 10.77 51.386 1.01 7.95 2.31 10.12
10/22/2022 10:15:00 PM 10.75 51.35 1.01 7.95 1.46 10.03
10/22/2022 10:30:00 PM 10.73 51.314 1.011 7.94 1.41 9.95
10/22/2022 10:45:00 PM 10.7 51.26 1.011 7.93 1.53 9.87
10/22/2022 11:00:00 PM 10.68 51.224 1.012 7.93 4.09 9.81
10/22/2022 11:15:00 PM 10.65 51.17 1.011 7.92 2.01 9.73
10/22/2022 11:30:00 PM 10.63 51.134 1.012 7.92 1.87 9.68
10/22/2022 11:45:00 PM 10.6 51.08 1.011 7.91 1.54 9.63
10/23/2022 12:00:00 AM 10.57 51.026 1.012 7.91 6.43 9.59
10/23/2022 12:15:00 AM 10.53 50.954 1.012 7.9 1.77 9.54
10/23/2022 12:30:00 AM 10.51 50.918 1.013 7.9 1.56 9.5
10/23/2022 12:45:00 AM 10.47 50.846 1.013 7.89 2.16 9.46
10/23/2022 1:00:00 AM 10.45 50.81 1.013 7.89 1.58 9.43
10/23/2022 1:15:00 AM 10.41 50.738 1.013 7.88 1.56 9.38
10/23/2022 1:30:00 AM 10.38 50.684 1.013 7.88 2.12 9.37
10/23/2022 1:45:00 AM 10.35 50.63 1.014 7.88 1.76 9.34
10/23/2022 2:00:00 AM 10.31 50.558 1.014 7.87 1.8 9.32
10/23/2022 2:15:00 AM 10.29 50.522 1.014 7.87 2.04 9.3
10/23/2022 2:30:00 AM 10.24 50.432 1.014 7.86 2.69 9.28
10/23/2022 2:45:00 AM 10.21 50.378 1.015 7.86 1.48 9.25
10/23/2022 3:00:00 AM 10.16 50.288 1.015 7.86 1.89 9.26
10/23/2022 3:15:00 AM 10.13 50.234 1.015 7.85 1.49 9.25
10/23/2022 3:30:00 AM 10.1 50.18 1.016 7.85 1.66 9.24
10/23/2022 3:45:00 AM 10.07 50.126 1.016 7.85 1.59 9.24
10/23/2022 4:00:00 AM 10.03 50.054 1.016 7.84 1.68 9.24
10/23/2022 4:15:00 AM 9.99 49.982 1.016 7.84 1.96 9.23
10/23/2022 4:30:00 AM 9.95 49.91 1.017 7.83 1.53 9.24
10/23/2022 4:45:00 AM 9.92 49.856 1.017 7.83 1.39 9.21
10/23/2022 5:00:00 AM 9.89 49.802 1.017 7.82 2.04 9.22
10/23/2022 5:15:00 AM 9.85 49.73 1.018 7.82 1.37 9.22
10/23/2022 5:30:00 AM 9.81 49.658 1.018 7.82 1.83 9.21
10/23/2022 5:45:00 AM 9.77 49.586 1.018 7.82 1.71 9.21
10/23/2022 6:00:00 AM 9.74 49.532 1.019 7.81 2.01 9.21
10/23/2022 6:15:00 AM 9.69 49.442 1.019 7.8 1.96 9.24
10/23/2022 6:30:00 AM 9.68 49.424 1.02 7.8 2.33 9.24
10/23/2022 6:45:00 AM 9.66 49.388 1.02 7.8 1.65 9.23
10/23/2022 7:00:00 AM 9.65 49.37 1.02 7.79 2.12 9.24
10/23/2022 7:15:00 AM 9.62 49.316 1.021 7.78 1.73 9.25
10/23/2022 7:30:00 AM 9.6 49.28 1.021 7.77 1.83 9.23
10/23/2022 7:45:00 AM 9.59 49.262 1.021 7.77 2.01 9.27
10/23/2022 8:00:00 AM 9.58 49.244 1.022 7.77 1.75 9.22
10/23/2022 8:15:00 AM 9.57 49.226 1.022 7.76 1.51 9.3
10/23/2022 8:30:00 AM 9.57 49.226 1.022 7.76 1.87 9.33
10/23/2022 8:45:00 AM 9.55 49.19 1.023 7.76 1.75 9.39
10/23/2022 9:00:00 AM 9.55 49.19 1.023 7.76 1.94 9.47
10/23/2022 9:15:00 AM 9.56 49.208 1.023 7.75 3.37 9.53
10/23/2022 9:30:00 AM 9.57 49.226 1.024 7.75 4.68 9.54
10/23/2022 9:45:00 AM 9.59 49.262 1.023 7.75 3.8 9.69
10/23/2022 10:00:00 AM 9.62 49.316 1.023 7.75 2 9.84
10/23/2022 10:15:00 AM 9.64 49.352 1.024 7.76 2.47 9.99
10/23/2022 10:30:00 AM 9.69 49.442 1.024 7.75 1.67 10.03
10/23/2022 10:45:00 AM 9.73 49.514 1.024 7.75 2.04 10.18
10/23/2022 11:00:00 AM 9.8 49.64 1.024 7.76 1.9 10.34
10/23/2022 11:15:00 AM 9.86 49.748 1.024 7.76 3.09 10.54
10/23/2022 11:30:00 AM 9.93 49.874 1.024 7.77 2.66 10.76
10/23/2022 11:45:00 AM 9.99 49.982 1.024 7.78 2.36 10.94
10/23/2022 12:00:00 PM 10.05 50.09 1.024 7.78 3.69 11.08
10/23/2022 12:15:00 PM 10.1 50.18 1.023 7.79 2.33 11.23
10/23/2022 12:30:00 PM 10.15 50.27 1.023 7.8 3.04 11.34
10/23/2022 12:45:00 PM 10.18 50.324 1.023 7.81 7.31 11.4
10/23/2022 1:00:00 PM 10.21 50.378 1.023 7.82 4.04 11.48
10/23/2022 1:15:00 PM 10.25 50.45 1.023 7.83 2.42 11.43
10/23/2022 1:30:00 PM 10.3 50.54 1.023 7.84 2.14 11.46
10/23/2022 1:45:00 PM 10.36 50.648 1.023 7.84 2.1 11.56
10/23/2022 2:00:00 PM 10.44 50.792 1.022 7.85 2.05 11.79
10/23/2022 2:15:00 PM 10.54 50.972 1.022 7.87 1.66 11.93
10/23/2022 2:30:00 PM 10.6 51.08 1.021 7.89 1.41 12.16
10/23/2022 2:45:00 PM 10.67 51.206 1.021 7.9 5.54 12.26
10/23/2022 3:00:00 PM 10.72 51.296 1.02 7.91 2.02 12.36
10/23/2022 3:15:00 PM 10.78 51.404 1.02 7.92 1.66 12.43
10/23/2022 3:30:00 PM 10.83 51.494 1.02 7.93 1.85 12.42
10/23/2022 3:45:00 PM 10.87 51.566 1.02 7.94 1.83 12.45
10/23/2022 4:00:00 PM 10.89 51.602 1.02 7.94 1.44 12.42
10/23/2022 4:15:00 PM 10.93 51.674 1.019 7.96 2.6 12.35
10/23/2022 4:30:00 PM 10.94 51.692 1.019 7.97 2.59 12.27
10/23/2022 4:45:00 PM 10.97 51.746 1.019 7.97 2.76 12.23
10/23/2022 5:00:00 PM 11 51.8 1.018 7.98 1.7 12.18
10/23/2022 5:15:00 PM 11.01 51.818 1.018 7.99 1.53 12.09
10/23/2022 5:30:00 PM 11.02 51.836 1.017 7.99 2.01 11.99
10/23/2022 5:45:00 PM 11.04 51.872 1.016 7.99 3.41 11.82
10/23/2022 6:00:00 PM 11.04 51.872 1.015 7.99 1.75 11.7
10/23/2022 6:15:00 PM 11.05 51.89 1.014 7.99 2.54 11.54
10/23/2022 6:30:00 PM 11.06 51.908 1.016 7.99 7.95 11.42
10/23/2022 6:45:00 PM 11.07 51.926 1.015 7.99 2.86 11.32
10/23/2022 7:00:00 PM 11.08 51.944 1.014 7.98 2.47 11.15
10/23/2022 7:15:00 PM 11.09 51.962 1.011 7.98 1.94 11.04
10/23/2022 7:30:00 PM 11.11 51.998 1.007 7.98 1.98 10.89
10/23/2022 7:45:00 PM 11.12 52.016 1.003 7.97 1.85 10.74
10/23/2022 8:00:00 PM 11.13 52.034 1 7.97 2.18 10.62
10/23/2022 8:15:00 PM 11.14 52.052 1 7.96 7.67 10.51
10/23/2022 8:30:00 PM 11.15 52.07 1 7.96 2.65 10.38
10/23/2022 8:45:00 PM 11.16 52.088 0.997 7.95 2.1 10.28
10/23/2022 9:00:00 PM 11.17 52.106 0.995 7.95 2.93 10.19
10/23/2022 9:15:00 PM 11.19 52.142 0.993 7.95 2.24 10.08
10/23/2022 9:30:00 PM 11.2 52.16 0.993 7.94 3.18 10.02
10/23/2022 9:45:00 PM 11.21 52.178 0.994 7.94 1.83 9.9
10/23/2022 10:00:00 PM 11.22 52.196 0.994 7.93 1.66 9.8
10/23/2022 10:15:00 PM 11.24 52.232 0.993 7.93 8.8 9.68
10/23/2022 10:30:00 PM 11.25 52.25 0.993 7.92 2.04 9.58
10/23/2022 10:45:00 PM 11.26 52.268 0.992 7.91 1.38 9.51
10/23/2022 11:00:00 PM 11.28 52.304 0.991 7.91 2.28 9.4
10/23/2022 11:15:00 PM 11.3 52.34 0.987 7.9 2.15 9.3
10/23/2022 11:30:00 PM 11.32 52.376 0.981 7.89 3.44 9.24
10/23/2022 11:45:00 PM 11.34 52.412 0.975 7.88 5.04 9.18
10/24/2022 12:00:00 AM 11.38 52.484 0.928 7.87 11.85 9.12
10/24/2022 12:15:00 AM 11.41 52.538 0.881 7.85 18.84 9.16
10/24/2022 12:30:00 AM 11.38 52.484 0.824 7.84 19.57 9.15
10/24/2022 12:45:00 AM 11.3 52.34 0.715 7.82 16.34 9.2
10/24/2022 1:00:00 AM 11.36 52.448 0.737 7.79 17.46 9.21
10/24/2022 1:15:00 AM 11.38 52.484 0.766 7.8 31.85 9.17
10/24/2022 1:30:00 AM 11.47 52.646 0.798 7.81 21.75 9.18
10/24/2022 1:45:00 AM 11.48 52.664 0.788 7.81 30.44 9.23
10/24/2022 2:00:00 AM 11.56 52.808 0.828 7.82 20.42 9.17
10/24/2022 2:15:00 AM 11.68 53.024 0.871 7.82 14.57 9.06
10/24/2022 2:30:00 AM 11.81 53.258 0.874 7.83 12.82 9.08
10/24/2022 2:45:00 AM 11.89 53.402 0.869 7.82 13.21 9.07
10/24/2022 3:00:00 AM 11.95 53.51 0.844 7.8 14.19 9.04
10/24/2022 3:15:00 AM 12 53.6 0.798 7.78 22.19 8.99
10/24/2022 3:30:00 AM 12.05 53.69 0.734 7.76 45.1 8.91
10/24/2022 3:45:00 AM 12.09 53.762 0.686 7.72 53.22 8.84
10/24/2022 4:00:00 AM 12.13 53.834 0.635 7.7 61.92 8.83
10/24/2022 4:15:00 AM 12.15 53.87 0.603 7.68 55.68 8.78
10/24/2022 4:30:00 AM 12.15 53.87 0.591 7.66 57.78 8.73
10/24/2022 4:45:00 AM 12.16 53.888 0.582 7.65 41.46 8.74
10/24/2022 5:00:00 AM 12.14 53.852 0.586 7.65 40.68 8.77
10/24/2022 5:15:00 AM 12.11 53.798 0.601 7.65 42.89 8.78
10/24/2022 5:30:00 AM 12.07 53.726 0.621 7.65 47.94 8.81
10/24/2022 5:45:00 AM 12.03 53.654 0.643 7.65 32.97 8.79
10/24/2022 6:00:00 AM 11.99 53.582 0.664 7.64 32.78 8.73
10/24/2022 6:15:00 AM 11.95 53.51 0.682 7.65 27.84 8.75
10/24/2022 6:30:00 AM 11.91 53.438 0.695 7.64 30.13 8.76
10/24/2022 6:45:00 AM 11.89 53.402 0.705 7.65 22.34 8.75
10/24/2022 7:00:00 AM 11.86 53.348 0.712 7.65 24.25 8.73
10/24/2022 7:15:00 AM 11.85 53.33 0.716 7.66 19.56 8.73
10/24/2022 7:30:00 AM 11.83 53.294 0.717 7.65 18.92 8.73
10/24/2022 7:45:00 AM 11.83 53.294 0.717 7.66 21.22 8.75
10/24/2022 8:00:00 AM 11.83 53.294 0.717 7.65 22.94 8.73
10/24/2022 8:15:00 AM 11.83 53.294 0.719 7.66 22.2 8.75
10/24/2022 8:30:00 AM 11.84 53.312 0.721 7.66 14.19 8.74
10/24/2022 8:45:00 AM 11.85 53.33 0.725 7.66 12.79 8.76
10/24/2022 9:00:00 AM 11.86 53.348 0.73 7.67 15.66 8.73
10/24/2022 9:15:00 AM 11.88 53.384 0.737 7.67 12.05 8.75
10/24/2022 9:30:00 AM 11.91 53.438 0.742 7.68 12.18 8.84
10/24/2022 9:45:00 AM 11.94 53.492 0.748 7.68 12.53 8.91
10/24/2022 10:00:00 AM 11.97 53.546 0.752 7.69 11.26 8.94
10/24/2022 10:15:00 AM 12 53.6 0.754 7.69 9.02 8.99
10/24/2022 10:30:00 AM 12.02 53.636 0.755 7.7 9.29 9.02
10/24/2022 10:45:00 AM 12.06 53.708 0.756 7.71 10.07 9.07
10/24/2022 11:00:00 AM 12.11 53.798 0.756 7.72 9.25 9.15
10/24/2022 11:15:00 AM 12.16 53.888 0.757 7.72 8.94 9.2
10/24/2022 11:30:00 AM 12.21 53.978 0.759 7.74 9.9 9.27
10/24/2022 11:45:00 AM 12.25 54.05 0.762 7.74 8.96 9.32
10/24/2022 12:00:00 PM 12.29 54.122 0.765 7.75 10.21 9.33
10/24/2022 12:15:00 PM 12.33 54.194 0.77 7.75 8.08 9.35
10/24/2022 12:30:00 PM 12.37 54.266 0.775 7.76 7.73 9.4
10/24/2022 12:45:00 PM 12.41 54.338 0.781 7.77 8.6 9.44
10/24/2022 1:00:00 PM 12.44 54.392 0.787 7.77 8.32 9.46
10/24/2022 1:15:00 PM 12.48 54.464 0.792 7.78 7.54 9.47
10/24/2022 1:30:00 PM 12.51 54.518 0.797 7.78 7.74 9.49
10/24/2022 1:45:00 PM 12.54 54.572 0.8 7.79 8.53 9.47
10/24/2022 2:00:00 PM 12.56 54.608 0.802 7.79 6.71 9.42
10/24/2022 2:15:00 PM 12.59 54.662 0.805 7.79 8.26 9.49
10/24/2022 2:30:00 PM 12.62 54.716 0.804 7.79 15.51 9.5
10/24/2022 2:45:00 PM 12.66 54.788 0.803 7.79 6.19 9.51
10/24/2022 3:00:00 PM 12.69 54.842 0.801 7.79 18.81 9.5
10/24/2022 3:15:00 PM 12.72 54.896 0.797 7.8 6.3 9.55
10/24/2022 3:30:00 PM 12.75 54.95 0.792 7.79 5.63 9.48
10/24/2022 3:45:00 PM 12.77 54.986 0.787 7.79 5.41 9.47
10/24/2022 4:00:00 PM 12.79 55.022 0.782 7.79 5.25 9.46
10/24/2022 4:15:00 PM 12.81 55.058 0.777 7.78 9.6 9.37
10/24/2022 4:30:00 PM 12.83 55.094 0.773 7.78 8.79 9.39
10/24/2022 4:45:00 PM 12.84 55.112 0.77 7.78 12.77 9.34
10/24/2022 5:00:00 PM 12.85 55.13 0.766 7.77 6.48 9.29
10/24/2022 5:15:00 PM 12.86 55.148 0.766 7.77 6.47 9.27
10/24/2022 5:30:00 PM 12.87 55.166 0.765 7.77 6.34 9.21
10/24/2022 5:45:00 PM 12.87 55.166 0.765 7.77 6.81 9.16
10/24/2022 6:00:00 PM 12.87 55.166 0.767 7.76 6.6 9.12
10/24/2022 6:15:00 PM 12.86 55.148 0.771 7.76 6.39 9.04
10/24/2022 6:30:00 PM 12.86 55.148 0.774 7.75 7.42 8.99
10/24/2022 6:45:00 PM 12.86 55.148 0.777 7.74 6.53 8.91
10/24/2022 7:00:00 PM 12.85 55.13 0.781 7.74 8.1 8.88
10/24/2022 7:15:00 PM 12.85 55.13 0.785 7.74 7.99 8.86
10/24/2022 7:30:00 PM 12.85 55.13 0.789 7.74 14.44 8.8
10/24/2022 7:45:00 PM 12.84 55.112 0.794 7.73 7.38 8.75
10/24/2022 8:00:00 PM 12.84 55.112 0.798 7.73 8.36 8.73
10/24/2022 8:15:00 PM 12.83 55.094 0.803 7.73 6.52 8.72
10/24/2022 8:30:00 PM 12.83 55.094 0.807 7.72 7.17 8.69
10/24/2022 8:45:00 PM 12.83 55.094 0.811 7.72 5.9 8.67
10/24/2022 9:00:00 PM 12.83 55.094 0.815 7.72 8.59 8.64
10/24/2022 9:15:00 PM 12.83 55.094 0.819 7.71 7.3 8.57
10/24/2022 9:30:00 PM 12.83 55.094 0.823 7.71 7.33 8.56
10/24/2022 9:45:00 PM 12.82 55.076 0.826 7.71 8.72 8.54
10/24/2022 10:00:00 PM 12.82 55.076 0.829 7.71 7.91 8.53
10/24/2022 10:15:00 PM 12.82 55.076 0.831 7.71 7.67 8.5
10/24/2022 10:30:00 PM 12.82 55.076 0.834 7.71 7.35 8.46
10/24/2022 10:45:00 PM 12.82 55.076 0.836 7.71 9 8.47
10/24/2022 11:00:00 PM 12.82 55.076 0.838 7.71 12.31 8.46
10/24/2022 11:15:00 PM 12.83 55.094 0.84 7.71 6.98 8.44
10/24/2022 11:30:00 PM 12.83 55.094 0.842 7.72 7.06 8.43
10/24/2022 11:45:00 PM 12.83 55.094 0.844 7.71 8.41 8.4
10/25/2022 12:00:00 AM 12.84 55.112 0.847 7.71 8.46 8.4
10/25/2022 12:15:00 AM 12.84 55.112 0.849 7.71 6.33 8.36
10/25/2022 12:30:00 AM 12.85 55.13 0.85 7.71 7.53 8.37
10/25/2022 12:45:00 AM 12.85 55.13 0.852 7.71 6.91 8.36
10/25/2022 1:00:00 AM 12.86 55.148 0.854 7.72 5.86 8.31
10/25/2022 1:15:00 AM 12.87 55.166 0.855 7.72 5.57 8.31
10/25/2022 1:30:00 AM 12.87 55.166 0.856 7.71 9.54 8.26
10/25/2022 1:45:00 AM 12.88 55.184 0.857 7.72 7.33 8.26
10/25/2022 2:00:00 AM 12.88 55.184 0.857 7.72 6.65 8.24
10/25/2022 2:15:00 AM 12.89 55.202 0.858 7.72 5.4 8.21
10/25/2022 2:30:00 AM 12.9 55.22 0.858 7.71 7.55 8.2
10/25/2022 2:45:00 AM 12.9 55.22 0.858 7.71 5.77 8.18
10/25/2022 3:00:00 AM 12.91 55.238 0.858 7.71 7.15 8.16
10/25/2022 3:15:00 AM 12.92 55.256 0.857 7.7 6.91 8.13
10/25/2022 3:30:00 AM 12.92 55.256 0.857 7.7 8.32 8.11
10/25/2022 3:45:00 AM 12.93 55.274 0.856 7.7 5.34 8.07
10/25/2022 4:00:00 AM 12.93 55.274 0.855 7.7 7.38 8.08
10/25/2022 4:15:00 AM 12.94 55.292 0.854 7.69 5.78 8.06
10/25/2022 4:30:00 AM 12.94 55.292 0.853 7.69 6.35 8.04
10/25/2022 4:45:00 AM 12.95 55.31 0.852 7.69 5.82 8.02
10/25/2022 5:00:00 AM 12.95 55.31 0.85 7.69 7.62 7.98
10/25/2022 5:15:00 AM 12.96 55.328 0.849 7.68 7.47 7.95
10/25/2022 5:30:00 AM 12.96 55.328 0.848 7.68 5.89 8
10/25/2022 5:45:00 AM 12.97 55.346 0.846 7.68 6.24 7.99
10/25/2022 6:00:00 AM 12.97 55.346 0.845 7.68 5.63 7.95
10/25/2022 6:15:00 AM 12.98 55.364 0.844 7.68 5.71 7.9
10/25/2022 6:30:00 AM 12.98 55.364 0.842 7.68 6.32 7.91
10/25/2022 6:45:00 AM 12.99 55.382 0.841 7.67 5.64 7.89
10/25/2022 7:00:00 AM 12.99 55.382 0.84 7.67 7.48 7.92
10/25/2022 7:15:00 AM 12.99 55.382 0.839 7.67 6.79 7.89
10/25/2022 7:30:00 AM 13 55.4 0.839 7.67 7.96 7.85
10/25/2022 7:45:00 AM 13 55.4 0.838 7.66 8.35 7.87
10/25/2022 8:00:00 AM 13.01 55.418 0.838 7.66 7.78 7.86
10/25/2022 8:15:00 AM 13.01 55.418 0.838 7.66 7.94 7.81
10/25/2022 8:30:00 AM 13.02 55.436 0.838 7.66 8.03 7.85
10/25/2022 8:45:00 AM 13.04 55.472 0.839 7.65 7.61 7.9
10/25/2022 9:00:00 AM 13.05 55.49 0.839 7.66 6.38 7.95
10/25/2022 9:15:00 AM 13.08 55.544 0.84 7.66 7.36 8.02
10/25/2022 9:30:00 AM 13.1 55.58 0.84 7.66 6.31 8.01
10/25/2022 9:45:00 AM 13.12 55.616 0.842 7.67 7.31 8.08
10/25/2022 10:00:00 AM 13.15 55.67 0.843 7.67 8.98 8.19
10/25/2022 10:15:00 AM 13.19 55.742 0.845 7.68 8.02 8.21
10/25/2022 10:30:00 AM 13.22 55.796 0.846 7.68 7.51 8.38
10/25/2022 10:45:00 AM 13.26 55.868 0.848 7.69 6.59 8.45
10/25/2022 11:00:00 AM 13.32 55.976 0.852 7.69 10.21 8.57
10/25/2022 11:15:00 AM 13.34 56.012 0.853 7.7 7.45 8.6
10/25/2022 11:30:00 AM 13.41 56.138 0.856 7.71 9.77 8.8
10/25/2022 11:45:00 AM 13.45 56.21 0.858 7.72 8.88 8.83
10/25/2022 12:00:00 PM 13.48 56.264 0.86 7.73 7.28 8.96
10/25/2022 12:15:00 PM 13.5 56.3 0.864 7.74 11.47 9
10/25/2022 12:30:00 PM 13.53 56.354 0.866 7.74 8.91 8.96
10/25/2022 12:45:00 PM 13.57 56.426 0.869 7.75 9.36 9.07
10/25/2022 1:00:00 PM 13.62 56.516 0.871 7.76 8.58 9.15
10/25/2022 1:15:00 PM 13.69 56.642 0.874 7.78 8.95 9.29
10/25/2022 1:30:00 PM 13.73 56.714 0.877 7.78 7.08 9.43
10/25/2022 1:45:00 PM 13.79 56.822 0.879 7.8 9.26 9.45
10/25/2022 2:00:00 PM 13.83 56.894 0.882 7.8 6.73 9.54
10/25/2022 2:15:00 PM 13.87 56.966 0.886 7.82 6.58 9.63
10/25/2022 2:30:00 PM 13.91 57.038 0.888 7.83 8.81 9.64
10/25/2022 2:45:00 PM 13.94 57.092 0.891 7.83 6.04 9.64
10/25/2022 3:00:00 PM 13.96 57.128 0.892 7.84 6.78 9.61
10/25/2022 3:15:00 PM 13.98 57.164 0.894 7.85 9.95 9.61
10/25/2022 3:30:00 PM 14 57.2 0.897 7.85 6.16 9.6
10/25/2022 3:45:00 PM 14.01 57.218 0.9 7.85 7.46 9.56
10/25/2022 4:00:00 PM 14.04 57.272 0.902 7.85 6.64 9.52
10/25/2022 4:15:00 PM 14.07 57.326 0.904 7.86 9.71 9.55
10/25/2022 4:30:00 PM 14.09 57.362 0.906 7.87 7.99 9.51
10/25/2022 4:45:00 PM 14.12 57.416 0.908 7.87 6.43 9.48
10/25/2022 5:00:00 PM 14.14 57.452 0.91 7.87 10.11 9.41
10/25/2022 5:15:00 PM 14.15 57.47 0.912 7.87 7.27 9.41
10/25/2022 5:30:00 PM 14.16 57.488 0.913 7.87 6.91 9.26
10/25/2022 5:45:00 PM 14.15 57.47 0.915 7.87 10.03 9.18
10/25/2022 6:00:00 PM 14.15 57.47 0.918 7.87 7.16 9.05
10/25/2022 6:15:00 PM 14.14 57.452 0.919 7.86 6.02 8.93
10/25/2022 6:30:00 PM 14.14 57.452 0.92 7.86 6.92 8.88
10/25/2022 6:45:00 PM 14.13 57.434 0.921 7.86 6.5 8.78
10/25/2022 7:00:00 PM 14.13 57.434 0.923 7.86 7.56 8.75
10/25/2022 7:15:00 PM 14.13 57.434 0.924 7.85 6.45 8.68
10/25/2022 7:30:00 PM 14.13 57.434 0.925 7.85 7.11 8.61
10/25/2022 7:45:00 PM 14.13 57.434 0.926 7.85 6.02 8.56
10/25/2022 8:00:00 PM 14.13 57.434 0.926 7.84 5.67 8.4
10/25/2022 8:15:00 PM 14.13 57.434 0.927 7.84 8.43 8.36
10/25/2022 8:30:00 PM 14.13 57.434 0.928 7.83 6.43 8.25
10/25/2022 8:45:00 PM 14.13 57.434 0.928 7.83 6.24 8.29
10/25/2022 9:00:00 PM 14.13 57.434 0.929 7.83 7.92 8.25
10/25/2022 9:15:00 PM 14.13 57.434 0.929 7.83 7.52 8.19
10/25/2022 9:30:00 PM 14.14 57.452 0.93 7.82 8.69 8.11
10/25/2022 9:45:00 PM 14.14 57.452 0.93 7.82 8.15 8.07
10/25/2022 10:00:00 PM 14.14 57.452 0.93 7.82 5.88 8.02
10/25/2022 10:15:00 PM 14.13 57.434 0.93 7.82 8.45 8.02
10/25/2022 10:30:00 PM 14.13 57.434 0.93 7.82 6.9 7.98
10/25/2022 10:45:00 PM 14.13 57.434 0.93 7.81 6.08 7.94
10/25/2022 11:00:00 PM 14.13 57.434 0.93 7.81 6.39 7.85
10/25/2022 11:15:00 PM 14.13 57.434 0.93 7.81 8.92 7.83
10/25/2022 11:30:00 PM 14.13 57.434 0.929 7.8 7.77 7.81
10/25/2022 11:45:00 PM 14.13 57.434 0.929 7.8 11.14 7.79
10/26/2022 12:00:00 AM 14.12 57.416 0.928 7.79 7.1 7.77
10/26/2022 12:15:00 AM 14.12 57.416 0.927 7.79 6.35 7.77
10/26/2022 12:30:00 AM 14.12 57.416 0.926 7.79 6.27 7.71
10/26/2022 12:45:00 AM 14.12 57.416 0.924 7.79 7.99 7.7
10/26/2022 1:00:00 AM 14.12 57.416 0.923 7.79 7.89 7.7
10/26/2022 1:15:00 AM 14.11 57.398 0.921 7.78 7.56 7.69
10/26/2022 1:30:00 AM 14.11 57.398 0.92 7.78 7.11 7.7
10/26/2022 1:45:00 AM 14.11 57.398 0.918 7.78 6.69 7.68
10/26/2022 2:00:00 AM 14.11 57.398 0.917 7.78 8.03 7.64
10/26/2022 2:15:00 AM 14.1 57.38 0.915 7.78 12.26 7.59
10/26/2022 2:30:00 AM 14.1 57.38 0.913 7.77 7.11 7.59
10/26/2022 2:45:00 AM 14.09 57.362 0.911 7.77 13.04 7.57
10/26/2022 3:00:00 AM 14.09 57.362 0.908 7.77 7.21 7.57
10/26/2022 3:15:00 AM 14.08 57.344 0.906 7.76 9.09 7.51
10/26/2022 3:30:00 AM 14.08 57.344 0.903 7.76 10.29 7.48
10/26/2022 3:45:00 AM 14.08 57.344 0.901 7.76 9.95 7.44
10/26/2022 4:00:00 AM 14.07 57.326 0.898 7.76 9.49 7.49
10/26/2022 4:15:00 AM 14.07 57.326 0.895 7.75 12.34 7.44
10/26/2022 4:30:00 AM 14.06 57.308 0.892 7.75 12.01 7.43
10/26/2022 4:45:00 AM 14.05 57.29 0.89 7.75 9.64 7.44
10/26/2022 5:00:00 AM 14.05 57.29 0.886 7.74 11.13 7.42
10/26/2022 5:15:00 AM 14.05 57.29 0.884 7.74 8.06 7.43
10/26/2022 5:30:00 AM 14.04 57.272 0.881 7.74 8.08 7.37
10/26/2022 5:45:00 AM 14.04 57.272 0.876 7.74 12.63 7.4
10/26/2022 6:00:00 AM 14.03 57.254 0.872 7.74 12.09 7.42
10/26/2022 6:15:00 AM 14.03 57.254 0.868 7.74 9.73 7.39
10/26/2022 6:30:00 AM 14.02 57.236 0.865 7.73 11.2 7.42
10/26/2022 6:45:00 AM 14.02 57.236 0.862 7.73 11.88 7.39
10/26/2022 7:00:00 AM 14.02 57.236 0.859 7.73 11.34 7.36
10/26/2022 7:15:00 AM 14.01 57.218 0.855 7.72 10.74 7.32
10/26/2022 7:30:00 AM 14.01 57.218 0.851 7.72 9.07 7.4
10/26/2022 7:45:00 AM 14.01 57.218 0.848 7.72 10.56 7.35
10/26/2022 8:00:00 AM 14.01 57.218 0.845 7.72 10.63 7.26
10/26/2022 8:15:00 AM 14.01 57.218 0.841 7.72 11.57 7.37
10/26/2022 8:30:00 AM 14.02 57.236 0.837 7.71 10.87 7.33
10/26/2022 8:45:00 AM 14.04 57.272 0.834 7.72 8.67 7.37
10/26/2022 9:00:00 AM 14.04 57.272 0.831 7.73 7.82 7.48
10/26/2022 9:15:00 AM 14.05 57.29 0.829 7.73 9.69 7.55
10/26/2022 9:30:00 AM 14.06 57.308 0.826 7.73 7.31 7.63
10/26/2022 9:45:00 AM 14.08 57.344 0.822 7.73 7.89 7.7
10/26/2022 10:00:00 AM 14.1 57.38 0.821 7.74 8.06 7.77
10/26/2022 10:15:00 AM 14.12 57.416 0.817 7.74 7.39 7.87
10/26/2022 10:30:00 AM 14.16 57.488 0.815 7.74 8.62 7.95
10/26/2022 10:45:00 AM 14.21 57.578 0.813 7.74 7.95 8.01
10/26/2022 11:00:00 AM 14.27 57.686 0.81 7.76 7.25 8.2
10/26/2022 11:15:00 AM 14.32 57.776 0.808 7.76 7.83 8.29
10/26/2022 11:30:00 AM 14.37 57.866 0.807 7.77 7.29 8.4
10/26/2022 11:45:00 AM 14.48 58.064 0.805 7.77 8.23 8.51
10/26/2022 12:00:00 PM 14.56 58.208 0.804 7.78 8.26 8.67
10/26/2022 12:15:00 PM 14.67 58.406 0.802 7.8 17.02 8.78
10/26/2022 12:30:00 PM 14.78 58.604 0.801 7.81 9.84 8.88
10/26/2022 12:45:00 PM 14.88 58.784 0.801 7.82 14.69 9.08
10/26/2022 1:00:00 PM 14.92 58.856 0.801 7.83 13.07 9.15
10/26/2022 1:15:00 PM 14.95 58.91 0.8 7.83 14.86 9.19
10/26/2022 1:30:00 PM 14.98 58.964 0.8 7.85 9.53 9.33
10/26/2022 1:45:00 PM 15.03 59.054 0.8 7.86 9.42 9.42
10/26/2022 2:00:00 PM 15.09 59.162 0.8 7.86 10.69 9.47
10/26/2022 2:15:00 PM 15.12 59.216 0.8 7.88 8.73 9.5
10/26/2022 2:30:00 PM 15.12 59.216 0.801 7.88 15.06 9.44
10/26/2022 2:45:00 PM 15.14 59.252 0.801 7.88 13.62 9.43
10/26/2022 3:00:00 PM 15.17 59.306 0.802 7.89 9.38 9.42
10/26/2022 3:15:00 PM 15.23 59.414 0.802 7.89 9.36 9.49
10/26/2022 3:30:00 PM 15.27 59.486 0.803 7.91 10.68 9.61
10/26/2022 3:45:00 PM 15.32 59.576 0.803 7.92 8.18 9.65
10/26/2022 4:00:00 PM 15.35 59.63 0.804 7.94 11.63 9.69
10/26/2022 4:15:00 PM 15.36 59.648 0.805 7.94 8.07 9.64
10/26/2022 4:30:00 PM 15.36 59.648 0.806 7.94 8.47 9.54
10/26/2022 4:45:00 PM 15.36 59.648 0.807 7.93 14.22 9.45
10/26/2022 5:00:00 PM 15.37 59.666 0.807 7.93 8.85 9.27
10/26/2022 5:15:00 PM 15.37 59.666 0.809 7.93 18.26 9.26
10/26/2022 5:30:00 PM 15.37 59.666 0.81 7.93 9.66 9.22
10/26/2022 5:45:00 PM 15.36 59.648 0.811 7.92 8.21 9.12
10/26/2022 6:00:00 PM 15.34 59.612 0.812 7.92 10.78 9
10/26/2022 6:15:00 PM 15.31 59.558 0.813 7.92 8.23 8.87
10/26/2022 6:30:00 PM 15.28 59.504 0.814 7.92 8.23 8.64
10/26/2022 6:45:00 PM 15.25 59.45 0.816 7.9 10.26 8.55
10/26/2022 7:00:00 PM 15.23 59.414 0.817 7.9 10.52 8.48
10/26/2022 7:15:00 PM 15.21 59.378 0.818 7.89 14.53 8.38
10/26/2022 7:30:00 PM 15.2 59.36 0.819 7.89 9.88 8.34
10/26/2022 7:45:00 PM 15.18 59.324 0.82 7.88 11.81 8.26
10/26/2022 8:00:00 PM 15.17 59.306 0.822 7.87 14.71 8.17
10/26/2022 8:15:00 PM 15.15 59.27 0.823 7.87 14.52 8.12
10/26/2022 8:30:00 PM 15.13 59.234 0.824 7.87 11.48 8.05
10/26/2022 8:45:00 PM 15.11 59.198 0.825 7.86 10.61 7.99
10/26/2022 9:00:00 PM 15.1 59.18 0.826 7.86 9.85 7.92
10/26/2022 9:15:00 PM 15.08 59.144 0.827 7.85 10.54 7.84
10/26/2022 9:30:00 PM 15.07 59.126 0.828 7.84 9.88 7.78
10/26/2022 9:45:00 PM 15.06 59.108 0.829 7.84 8.64 7.73
10/26/2022 10:00:00 PM 15.04 59.072 0.83 7.84 8.69 7.68
10/26/2022 10:15:00 PM 15.01 59.018 0.83 7.84 8.22 7.65
10/26/2022 10:30:00 PM 14.97 58.946 0.831 7.84 8.53 7.59
10/26/2022 10:45:00 PM 14.93 58.874 0.832 7.83 8.51 7.55
10/26/2022 11:00:00 PM 14.9 58.82 0.833 7.83 10.72 7.52
10/26/2022 11:15:00 PM 14.88 58.784 0.833 7.83 10.7 7.5
10/26/2022 11:30:00 PM 14.85 58.73 0.834 7.83 10.49 7.43
10/26/2022 11:45:00 PM 14.82 58.676 0.835 7.82 11.36 7.4
10/27/2022 12:00:00 AM 14.78 58.604 0.835 7.81 28.64 7.33
10/27/2022 12:15:00 AM 14.75 58.55 0.836 7.81 15.68 7.32
10/27/2022 12:30:00 AM 14.72 58.496 0.836 7.8 14.49 7.3
10/27/2022 12:45:00 AM 14.69 58.442 0.837 7.8 13.61 7.31
10/27/2022 1:00:00 AM 14.64 58.352 0.838 7.8 18.35 7.32
10/27/2022 1:15:00 AM 14.6 58.28 0.838 7.8 13.07 7.28
10/27/2022 1:30:00 AM 14.57 58.226 0.838 7.8 13.5 7.26
10/27/2022 1:45:00 AM 14.52 58.136 0.839 7.8 11.98 7.27
10/27/2022 2:00:00 AM 14.48 58.064 0.839 7.8 11.88 7.28
10/27/2022 2:15:00 AM 14.44 57.992 0.84 7.8 11.93 7.26
10/27/2022 2:30:00 AM 14.39 57.902 0.84 7.79 11.49 7.25
10/27/2022 2:45:00 AM 14.34 57.812 0.841 7.79 14.01 7.23
10/27/2022 3:00:00 AM 14.3 57.74 0.841 7.79 12.63 7.25
10/27/2022 3:15:00 AM 14.25 57.65 0.841 7.79 13.13 7.28
10/27/2022 3:30:00 AM 14.2 57.56 0.841 7.79 12.61 7.31
10/27/2022 3:45:00 AM 14.15 57.47 0.841 7.79 14.16 7.31
10/27/2022 4:00:00 AM 14.13 57.434 0.841 7.79 12.53 7.3
10/27/2022 4:15:00 AM 14.11 57.398 0.841 7.79 12.61 7.33
10/27/2022 4:30:00 AM 14.09 57.362 0.841 7.78 13.22 7.29
10/27/2022 4:45:00 AM 14.06 57.308 0.841 7.78 12.68 7.28
10/27/2022 5:00:00 AM 14 57.2 0.841 7.78 12.91 7.33
10/27/2022 5:15:00 AM 13.96 57.128 0.841 7.78 13.2 7.35
10/27/2022 5:30:00 AM 13.91 57.038 0.841 7.78 13.16 7.32
10/27/2022 5:45:00 AM 13.87 56.966 0.841 7.78 12.25 7.36
10/27/2022 6:00:00 AM 13.82 56.876 0.841 7.77 14.2 7.35
10/27/2022 6:15:00 AM 13.78 56.804 0.84 7.77 13.52 7.39
10/27/2022 6:30:00 AM 13.74 56.732 0.84 7.77 13.61 7.37
10/27/2022 6:45:00 AM 13.71 56.678 0.84 7.77 14.35 7.37
10/27/2022 7:00:00 AM 13.69 56.642 0.84 7.77 12.67 7.39
10/27/2022 7:15:00 AM 13.68 56.624 0.839 7.76 13 7.39
10/27/2022 7:30:00 AM 13.65 56.57 0.839 7.77 12.3 7.5
10/27/2022 7:45:00 AM 13.63 56.534 0.839 7.77 14.08 7.45
10/27/2022 8:00:00 AM 13.6 56.48 0.838 7.77 14.31 7.49
10/27/2022 8:15:00 AM 13.58 56.444 0.837 7.77 15.29 7.48
10/27/2022 8:30:00 AM 13.56 56.408 0.837 7.77 18.41 7.53
10/27/2022 8:45:00 AM 13.54 56.372 0.837 7.77 11.9 7.61
10/27/2022 9:00:00 AM 13.54 56.372 0.837 7.77 12.42 7.64
10/27/2022 9:15:00 AM 13.54 56.372 0.837 7.77 12.42 7.84
10/27/2022 9:30:00 AM 13.52 56.336 0.837 7.78 13.01 7.93
10/27/2022 9:45:00 AM 13.5 56.3 0.836 7.78 12.91 7.98
10/27/2022 10:00:00 AM 13.45 56.21 0.836 7.79 12.09 7.99
10/27/2022 10:15:00 AM 13.41 56.138 0.835 7.79 11.17 8.07
10/27/2022 10:30:00 AM 13.4 56.12 0.835 7.79 12.23 8.1
10/27/2022 10:45:00 AM 13.44 56.192 0.835 7.8 11.96 8.25
10/27/2022 11:00:00 AM 13.5 56.3 0.834 7.81 11.46 8.42
10/27/2022 11:15:00 AM 13.59 56.462 0.834 7.81 11.52 8.48
10/27/2022 11:30:00 AM 13.77 56.786 0.833 7.82 14.04 8.63
10/27/2022 11:45:00 AM 13.92 57.056 0.833 7.82 10.81 8.94
10/27/2022 12:00:00 PM 14.12 57.416 0.832 7.83 19.93 8.98
10/27/2022 12:15:00 PM 14.26 57.668 0.832 7.84 13.4 9.19
10/27/2022 12:30:00 PM 14.38 57.884 0.833 7.86 11.37 9.35
10/27/2022 12:45:00 PM 14.44 57.992 0.832 7.87 12.28 9.43
10/27/2022 1:00:00 PM 14.52 58.136 0.832 7.89 12.3 9.5
10/27/2022 1:15:00 PM 14.57 58.226 0.832 7.89 11.88 9.54
10/27/2022 1:30:00 PM 14.61 58.298 0.832 7.89 26.48 9.59
10/27/2022 1:45:00 PM 14.64 58.352 0.832 7.9 13.89 9.67
10/27/2022 2:00:00 PM 14.67 58.406 0.831 7.92 25.91 9.77
10/27/2022 2:15:00 PM 14.71 58.478 0.831 7.94 13.07 9.8
10/27/2022 2:30:00 PM 14.72 58.496 0.831 7.94 12.47 9.86
10/27/2022 2:45:00 PM 14.74 58.532 0.831 7.94 12.76 9.8
10/27/2022 3:00:00 PM 14.76 58.568 0.831 7.94 17.14 9.84
10/27/2022 3:15:00 PM 14.75 58.55 0.831 7.95 13 9.85
10/27/2022 3:30:00 PM 14.74 58.532 0.831 7.95 12.9 9.83
10/27/2022 3:45:00 PM 14.73 58.514 0.831 7.95 14.68 9.77
10/27/2022 4:00:00 PM 14.71 58.478 0.831 7.95 14.26 9.73
10/27/2022 4:15:00 PM 14.69 58.442 0.83 7.96 21.46 9.73
10/27/2022 4:30:00 PM 14.66 58.388 0.83 7.95 13.94 9.67
10/27/2022 4:45:00 PM 14.63 58.334 0.83 7.95 13.6 9.59
10/27/2022 5:00:00 PM 14.6 58.28 0.83 7.95 14.28 9.46
10/27/2022 5:15:00 PM 14.58 58.244 0.83 7.95 16.51 9.36
10/27/2022 5:30:00 PM 14.55 58.19 0.83 7.95 17.31 9.27
10/27/2022 5:45:00 PM 14.54 58.172 0.83 7.95 14.49 9.2
10/27/2022 6:00:00 PM 14.52 58.136 0.829 7.95 14.14 9.11
10/27/2022 6:15:00 PM 14.48 58.064 0.829 7.95 14.94 9.04
10/27/2022 6:30:00 PM 14.45 58.01 0.829 7.94 14.18 8.95
10/27/2022 6:45:00 PM 14.42 57.956 0.83 7.94 15.06 8.84
10/27/2022 7:00:00 PM 14.38 57.884 0.829 7.93 14.47 8.77
10/27/2022 7:15:00 PM 14.33 57.794 0.829 7.93 15.03 8.64
10/27/2022 7:30:00 PM 14.27 57.686 0.829 7.93 15.38 8.65
10/27/2022 7:45:00 PM 14.23 57.614 0.829 7.93 14.72 8.54
10/27/2022 8:00:00 PM 14.18 57.524 0.829 7.93 14.68 8.51
10/27/2022 8:15:00 PM 14.13 57.434 0.829 7.93 14.81 8.46
10/27/2022 8:30:00 PM 14.07 57.326 0.829 7.93 14.33 8.41
10/27/2022 8:45:00 PM 14.01 57.218 0.829 7.92 19.11 8.32
10/27/2022 9:00:00 PM 13.95 57.11 0.829 7.92 15.02 8.32
10/27/2022 9:15:00 PM 13.88 56.984 0.829 7.92 15.64 8.29
10/27/2022 9:30:00 PM 13.83 56.894 0.829 7.91 15.4 8.24
10/27/2022 9:45:00 PM 13.77 56.786 0.829 7.9 15.63 8.17
10/27/2022 10:00:00 PM 13.7 56.66 0.829 7.89 15.99 8.07
10/27/2022 10:15:00 PM 13.62 56.516 0.829 7.89 15.62 8.06
10/27/2022 10:30:00 PM 13.56 56.408 0.829 7.88 15.67 7.95
10/27/2022 10:45:00 PM 13.49 56.282 0.829 7.87 16.07 7.98
10/27/2022 11:00:00 PM 13.41 56.138 0.829 7.86 15.55 7.92
10/27/2022 11:15:00 PM 13.34 56.012 0.83 7.86 15.41 7.93
10/27/2022 11:30:00 PM 13.28 55.904 0.83 7.86 15.7 7.91
10/27/2022 11:45:00 PM 13.2 55.76 0.83 7.86 15.78 7.89
10/28/2022 12:00:00 AM 13.13 55.634 0.83 7.85 15.89 7.85
10/28/2022 12:15:00 AM 13.05 55.49 0.831 7.85 14.95 7.92
10/28/2022 12:30:00 AM 12.99 55.382 0.831 7.85 14.96 7.85
10/28/2022 12:45:00 AM 12.93 55.274 0.832 7.84 17.82 7.88
10/28/2022 1:00:00 AM 12.86 55.148 0.832 7.84 16.12 7.85
10/28/2022 1:15:00 AM 12.79 55.022 0.832 7.84 15.97 7.86
10/28/2022 1:30:00 AM 12.73 54.914 0.833 7.84 15.21 7.82
10/28/2022 1:45:00 AM 12.67 54.806 0.833 7.83 16.82 7.86
10/28/2022 2:00:00 AM 12.61 54.698 0.834 7.83 16.92 7.83
10/28/2022 2:15:00 AM 12.54 54.572 0.835 7.83 15.73 7.85
10/28/2022 2:30:00 AM 12.47 54.446 0.836 7.83 14.7 7.8
10/28/2022 2:45:00 AM 12.4 54.32 0.837 7.83 14.49 7.85
10/28/2022 3:00:00 AM 12.32 54.176 0.838 7.82 14.95 7.9
10/28/2022 3:15:00 AM 12.25 54.05 0.838 7.82 16.1 7.9
10/28/2022 3:30:00 AM 12.2 53.96 0.839 7.82 15.17 7.97
10/28/2022 3:45:00 AM 12.1 53.78 0.841 7.82 15.26 7.9
10/28/2022 4:00:00 AM 12.03 53.654 0.841 7.82 14.71 7.94
10/28/2022 4:15:00 AM 11.96 53.528 0.842 7.82 16.4 7.95
10/28/2022 4:30:00 AM 11.9 53.42 0.843 7.81 15.12 8.02
10/28/2022 4:45:00 AM 11.83 53.294 0.844 7.81 14.72 8.04
10/28/2022 5:00:00 AM 11.77 53.186 0.846 7.81 15.47 8.01
10/28/2022 5:15:00 AM 11.67 53.006 0.847 7.81 14.84 8.09
10/28/2022 5:30:00 AM 11.59 52.862 0.848 7.81 14.45 8.11
10/28/2022 5:45:00 AM 11.54 52.772 0.85 7.81 15.09 8.13
10/28/2022 6:00:00 AM 11.47 52.646 0.851 7.81 17.21 8.16
10/28/2022 6:15:00 AM 11.41 52.538 0.852 7.81 21.75 8.18
10/28/2022 6:30:00 AM 11.36 52.448 0.853 7.8 16.62 8.2
10/28/2022 6:45:00 AM 11.29 52.322 0.854 7.8 16.82 8.22
10/28/2022 7:00:00 AM 11.21 52.178 0.857 7.8 16.16 8.22
10/28/2022 7:15:00 AM 11.18 52.124 0.857 7.8 15.91 8.16
10/28/2022 7:30:00 AM 11.1 51.98 0.858 7.79 16.95 8.09
10/28/2022 7:45:00 AM 11.05 51.89 0.859 7.79 16.66 8.16
10/28/2022 8:00:00 AM 10.97 51.746 0.861 7.79 15.56 8.22
10/28/2022 8:15:00 AM 10.91 51.638 0.862 7.78 15.53 8.27
10/28/2022 8:30:00 AM 10.88 51.584 0.864 7.78 18.98 8.35
10/28/2022 8:45:00 AM 10.84 51.512 0.864 7.78 18.58 8.43
10/28/2022 9:00:00 AM 10.77 51.386 0.866 7.78 18.3 8.46
10/28/2022 9:15:00 AM 10.74 51.332 0.868 7.78 18.76 8.57
10/28/2022 9:30:00 AM 10.73 51.314 0.869 7.77 19.65 8.63
10/28/2022 9:45:00 AM 10.73 51.314 0.87 7.7 18.81 8.71
10/28/2022 10:00:00 AM 10.74 51.332 0.872 7.08 19.21 8.88
10/28/2022 10:15:00 AM 10.78 51.404 0.873 7.59 18.24 9
10/28/2022 10:30:00 AM 10.82 51.476 0.874 7.69 18.06 9.08
10/28/2022 10:45:00 AM 10.87 51.566 0.874 7.69 18 9.21
10/28/2022 11:00:00 AM 10.95 51.71 0.876 7.68 18.37 9.33
10/28/2022 11:15:00 AM 11.02 51.836 0.876 7.28 18.05 9.71
10/28/2022 11:30:00 AM 11.13 52.034 0.877 7.48 17.85 9.79
10/28/2022 11:45:00 AM 11.22 52.196 0.879 7.57 18.29 9.89
10/28/2022 12:00:00 PM 11.31 52.358 0.88 7.63 17.73 10.13
10/28/2022 12:15:00 PM 11.38 52.484 0.881 7.67 17.55 10.25
10/28/2022 12:30:00 PM 11.45 52.61 0.882 7.7 16.79 10.46
10/28/2022 12:45:00 PM 11.51 52.718 0.883 7.72 17.67 10.51
10/28/2022 1:00:00 PM 11.59 52.862 0.884 7.75 17.83 10.7
10/28/2022 1:15:00 PM 11.68 53.024 0.885 7.77 18.3 10.81
10/28/2022 1:30:00 PM 11.75 53.15 0.886 7.79 18 10.95
10/28/2022 1:45:00 PM 11.8 53.24 0.887 7.8 18.71 11.02
10/28/2022 2:00:00 PM 11.86 53.348 0.888 7.82 19.42 10.99
10/28/2022 2:15:00 PM 11.92 53.456 0.889 7.83 18.41 11.33
10/28/2022 2:30:00 PM 11.97 53.546 0.89 7.84 17.82 11.34
10/28/2022 2:45:00 PM 12 53.6 0.892 7.84 18.18 11.46
10/28/2022 3:00:00 PM 12.04 53.672 0.893 7.85 18.15 11.47
10/28/2022 3:15:00 PM 12.08 53.744 0.894 7.87 17.67 11.47
10/28/2022 3:30:00 PM 12.11 53.798 0.895 7.88 17.57 11.54
10/28/2022 3:45:00 PM 12.14 53.852 0.895 7.89 18.19 11.48
10/28/2022 4:00:00 PM 12.18 53.924 0.896 7.9 17.85 11.5
10/28/2022 4:15:00 PM 12.2 53.96 0.897 7.92 18.16 11.53
10/28/2022 4:30:00 PM 12.2 53.96 0.899 7.92 17.9 11.43
10/28/2022 4:45:00 PM 12.2 53.96 0.899 7.93 17.55 11.38
10/28/2022 5:00:00 PM 12.22 53.996 0.9 7.93 17.57 11.32
10/28/2022 5:15:00 PM 12.21 53.978 0.901 7.94 17.57 11.22
10/28/2022 5:30:00 PM 12.19 53.942 0.902 7.96 18.1 11.12
10/28/2022 5:45:00 PM 12.17 53.906 0.902 7.96 16.79 11.06
10/28/2022 6:00:00 PM 12.14 53.852 0.903 7.97 17.06 10.94
10/28/2022 6:15:00 PM 12.12 53.816 0.904 7.97 17.42 10.78
10/28/2022 6:30:00 PM 12.1 53.78 0.905 7.97 16.94 10.66
10/28/2022 6:45:00 PM 12.07 53.726 0.905 7.97 18.14 10.58
10/28/2022 7:00:00 PM 12.02 53.636 0.906 7.98 17.08 10.49
10/28/2022 7:15:00 PM 11.99 53.582 0.907 7.98 17.69 10.41
10/28/2022 7:30:00 PM 11.97 53.546 0.907 7.98 17.74 10.33
10/28/2022 7:45:00 PM 11.94 53.492 0.907 7.98 17.83 10.24
10/28/2022 8:00:00 PM 11.88 53.384 0.908 7.98 17.8 10.13
10/28/2022 8:15:00 PM 11.85 53.33 0.909 7.98 17.59 10.04
10/28/2022 8:30:00 PM 11.82 53.276 0.909 7.98 17.72 9.95
10/28/2022 8:45:00 PM 11.77 53.186 0.909 7.97 17.68 9.86
10/28/2022 9:00:00 PM 11.74 53.132 0.91 7.97 17.81 9.76
10/28/2022 9:15:00 PM 11.7 53.06 0.91 7.95 18.29 9.69
10/28/2022 9:30:00 PM 11.67 53.006 0.911 7.93 18.01 9.61
10/28/2022 9:45:00 PM 11.65 52.97 0.911 7.93 18.66 9.53
10/28/2022 10:00:00 PM 11.59 52.862 0.912 7.93 18.61 9.44
10/28/2022 10:15:00 PM 11.56 52.808 0.912 7.93 18.48 9.38
10/28/2022 10:30:00 PM 11.52 52.736 0.912 7.92 18.35 9.29
10/28/2022 10:45:00 PM 11.48 52.664 0.912 7.91 18.43 9.21
10/28/2022 11:00:00 PM 11.42 52.556 0.913 7.91 17.73 9.18
10/28/2022 11:15:00 PM 11.38 52.484 0.913 7.9 17.73 9.14
10/28/2022 11:30:00 PM 11.35 52.43 0.913 7.9 19.11 9.07
10/28/2022 11:45:00 PM 11.28 52.304 0.914 7.9 17.07 9.07
10/29/2022 12:00:00 AM 11.24 52.232 0.914 7.89 17.2 9.04
10/29/2022 12:15:00 AM 11.19 52.142 0.914 7.89 17.48 9.01
10/29/2022 12:30:00 AM 11.14 52.052 0.914 7.88 17.44 8.99
10/29/2022 12:45:00 AM 11.08 51.944 0.914 7.88 17.33 8.99
10/29/2022 1:00:00 AM 11.05 51.89 0.914 7.87 17.67 8.94
10/29/2022 1:15:00 AM 10.99 51.782 0.914 7.87 27.63 8.93
10/29/2022 1:30:00 AM 10.95 51.71 0.914 7.87 17.65 8.95
10/29/2022 1:45:00 AM 10.9 51.62 0.914 7.87 17.31 8.92
10/29/2022 2:00:00 AM 10.87 51.566 0.914 7.86 18.02 8.92
10/29/2022 2:15:00 AM 10.82 51.476 0.914 7.86 17.23 8.89
10/29/2022 2:30:00 AM 10.75 51.35 0.914 7.85 18.08 8.87
10/29/2022 2:45:00 AM 10.71 51.278 0.914 7.85 17.43 8.87
10/29/2022 3:00:00 AM 10.66 51.188 0.914 7.85 17.64 8.9
10/29/2022 3:15:00 AM 10.61 51.098 0.914 7.85 17.71 8.87
10/29/2022 3:30:00 AM 10.55 50.99 0.914 7.84 17.42 8.88
10/29/2022 3:45:00 AM 10.51 50.918 0.914 7.83 17.71 8.78
10/29/2022 4:00:00 AM 10.42 50.756 0.915 7.83 17.81 8.79
10/29/2022 4:15:00 AM 10.39 50.702 0.914 7.82 17.7 8.81
10/29/2022 4:30:00 AM 10.33 50.594 0.915 7.82 19.93 8.84
10/29/2022 4:45:00 AM 10.29 50.522 0.914 7.82 18.64 8.83
10/29/2022 5:00:00 AM 10.2 50.36 0.915 7.81 17.81 8.85
10/29/2022 5:15:00 AM 10.16 50.288 0.914 7.81 17.85 8.85
10/29/2022 5:30:00 AM 10.08 50.144 0.915 7.81 18.08 8.87
10/29/2022 5:45:00 AM 10.04 50.072 0.915 7.8 18.51 8.89
10/29/2022 6:00:00 AM 9.97 49.946 0.915 7.8 18.47 8.9
10/29/2022 6:15:00 AM 9.92 49.856 0.915 7.8 18.14 8.93
10/29/2022 6:30:00 AM 9.87 49.766 0.915 7.8 18.31 8.94
10/29/2022 6:45:00 AM 9.79 49.622 0.916 7.79 17.9 8.98
10/29/2022 7:00:00 AM 9.76 49.568 0.915 7.79 18.05 8.99
10/29/2022 7:15:00 AM 9.68 49.424 0.916 7.79 26.63 8.96
10/29/2022 7:30:00 AM 9.63 49.334 0.916 7.79 17.34 8.99
10/29/2022 7:45:00 AM 9.58 49.244 0.916 7.78 18.55 9.02
10/29/2022 8:00:00 AM 9.53 49.154 0.916 7.78 20.1 9.02
10/29/2022 8:15:00 AM 9.48 49.064 0.917 7.77 19.63 9.05
10/29/2022 8:30:00 AM 9.43 48.974 0.917 7.77 21.12 9.05
10/29/2022 8:45:00 AM 9.38 48.884 0.917 7.77 18.95 9.15
10/29/2022 9:00:00 AM 9.36 48.848 0.917 7.76 19.25 9.18
10/29/2022 9:15:00 AM 9.33 48.794 0.918 7.76 18.31 9.25
10/29/2022 9:30:00 AM 9.3 48.74 0.918 7.75 18.03 9.19
10/29/2022 9:45:00 AM 9.28 48.704 0.918 7.74 18.11 9.36
10/29/2022 10:00:00 AM 9.27 48.686 0.918 7.74 18.88 9.44
10/29/2022 10:15:00 AM 9.27 48.686 0.918 7.73 18.86 9.53
10/29/2022 10:30:00 AM 9.29 48.722 0.918 7.72 19 9.66
10/29/2022 10:45:00 AM 9.35 48.83 0.918 7.72 18.66 9.78
10/29/2022 11:00:00 AM 9.42 48.956 0.919 7.72 18.01 10.01
10/29/2022 11:15:00 AM 9.56 49.208 0.918 7.72 18.27 10.1
10/29/2022 11:30:00 AM 9.79 49.622 0.918 7.69 17.71 10.27
10/29/2022 11:45:00 AM 9.95 49.91 0.917 7.67 17.88 10.3
10/29/2022 12:00:00 PM 10.14 50.252 0.918 7.66 18.52 10.49
10/29/2022 12:15:00 PM 10.32 50.576 0.918 7.66 17.85 10.25
10/29/2022 12:30:00 PM 10.52 50.936 0.918 7.68 20.16 10.58
10/29/2022 12:45:00 PM 10.62 51.116 0.919 7.7 17.12 11.03
10/29/2022 1:00:00 PM 10.72 51.296 0.92 7.72 17.49 11.06
10/29/2022 1:15:00 PM 10.83 51.494 0.92 7.74 16.93 11.23
10/29/2022 1:30:00 PM 10.89 51.602 0.921 7.75 17.36 11.26
10/29/2022 1:45:00 PM 10.95 51.71 0.922 7.75 17.07 11.19
10/29/2022 2:00:00 PM 11.03 51.854 0.922 7.77 17.82 11.36
10/29/2022 2:15:00 PM 11.09 51.962 0.923 7.78 18.25 11.33
10/29/2022 2:30:00 PM 11.15 52.07 0.924 7.79 16.87 11.43
10/29/2022 2:45:00 PM 11.21 52.178 0.925 7.8 17.22 11.5
10/29/2022 3:00:00 PM 11.25 52.25 0.926 7.81 17.12 11.51
10/29/2022 3:15:00 PM 11.27 52.286 0.927 7.82 17.06 11.46
10/29/2022 3:30:00 PM 11.3 52.34 0.928 7.83 17.27 11.47
10/29/2022 3:45:00 PM 11.31 52.358 0.928 7.83 18.3 11.08
10/29/2022 4:00:00 PM 11.32 52.376 0.929 7.83 16.99 11.29
10/29/2022 4:15:00 PM 11.33 52.394 0.93 7.84 17.3 11.36
10/29/2022 4:30:00 PM 11.33 52.394 0.931 7.85 17.09 11.29
10/29/2022 4:45:00 PM 11.32 52.376 0.932 7.86 16.93 11.21
10/29/2022 5:00:00 PM 11.31 52.358 0.933 7.86 17.07 11.12
10/29/2022 5:15:00 PM 11.31 52.358 0.934 7.87 16.89 11.05
10/29/2022 5:30:00 PM 11.31 52.358 0.934 7.87 16.8 10.9
10/29/2022 5:45:00 PM 11.3 52.34 0.934 7.88 17.22 10.86
10/29/2022 6:00:00 PM 11.28 52.304 0.933 7.89 17.27 10.83
10/29/2022 6:15:00 PM 11.27 52.286 0.941 7.9 16.93 10.74
10/29/2022 6:30:00 PM 11.25 52.25 0.937 7.91 17.72 10.61
10/29/2022 6:45:00 PM 11.24 52.232 0.94 7.91 19.47 10.43
10/29/2022 7:00:00 PM 11.21 52.178 0.941 7.92 18.85 10.47
10/29/2022 7:15:00 PM 11.19 52.142 0.942 7.92 18.08 10.37
10/29/2022 7:30:00 PM 11.18 52.124 0.943 7.93 17.29 10.25
10/29/2022 7:45:00 PM 11.14 52.052 0.944 7.93 18.56 10.19
10/29/2022 8:00:00 PM 11.12 52.016 0.945 7.93 18.33 10.04
10/29/2022 8:15:00 PM 11.09 51.962 0.946 7.93 18.26 9.96
10/29/2022 8:30:00 PM 11.04 51.872 0.947 7.92 18.66 9.86
10/29/2022 8:45:00 PM 11 51.8 0.948 7.92 17.17 9.86
10/29/2022 9:00:00 PM 10.95 51.71 0.949 7.92 17.52 9.78
10/29/2022 9:15:00 PM 10.88 51.584 0.95 7.92 17.73 9.68
10/29/2022 9:30:00 PM 10.84 51.512 0.951 7.91 17.64 9.63
10/29/2022 9:45:00 PM 10.76 51.368 0.952 7.91 16.99 9.62
10/29/2022 10:00:00 PM 10.72 51.296 0.953 7.9 17.37 9.53
10/29/2022 10:15:00 PM 10.66 51.188 0.954 7.9 17.48 9.48
10/29/2022 10:30:00 PM 10.61 51.098 0.955 7.9 17.55 9.45
10/29/2022 10:45:00 PM 10.56 51.008 0.955 7.9 17.17 9.43
10/29/2022 11:00:00 PM 10.5 50.9 0.956 7.89 17.8 9.35
10/29/2022 11:15:00 PM 10.44 50.792 0.957 7.88 17.18 9.24
10/29/2022 11:30:00 PM 10.38 50.684 0.958 7.88 17.61 9.27
10/29/2022 11:45:00 PM 10.31 50.558 0.959 7.88 20.23 9.3
10/30/2022 12:00:00 AM 10.26 50.468 0.96 7.87 17.59 9.22
10/30/2022 12:15:00 AM 10.22 50.396 0.96 7.87 17.91 9.22
10/30/2022 12:30:00 AM 10.16 50.288 0.961 7.87 17.86 9.16
10/30/2022 12:45:00 AM 10.1 50.18 0.961 7.86 18.1 9.16
10/30/2022 1:00:00 AM 10.05 50.09 0.962 7.86 18.69 9.13
10/30/2022 1:15:00 AM 9.99 49.982 0.963 7.85 17.86 9.16
10/30/2022 1:30:00 AM 9.93 49.874 0.963 7.85 18.45 9.17
10/30/2022 1:45:00 AM 9.87 49.766 0.964 7.85 18.13 9.19
10/30/2022 2:00:00 AM 9.82 49.676 0.964 7.84 18.65 9.19
10/30/2022 2:15:00 AM 9.75 49.55 0.965 7.84 23.73 9.07
10/30/2022 2:30:00 AM 9.69 49.442 0.965 7.84 17.52 9.24
10/30/2022 2:45:00 AM 9.67 49.406 0.965 7.84 20.32 9.17
10/30/2022 3:00:00 AM 9.58 49.244 0.966 7.83 20.38 9.19
10/30/2022 3:15:00 AM 9.54 49.172 0.967 7.83 18.6 9.19
10/30/2022 3:30:00 AM 9.48 49.064 0.967 7.82 18.61 9.2
10/30/2022 3:45:00 AM 9.45 49.01 0.965 7.81 18.58 9.19
10/30/2022 4:00:00 AM 9.4 48.92 0.964 7.81 19.62 9.26
10/30/2022 4:15:00 AM 9.34 48.812 0.967 7.8 18.51 9.21
10/30/2022 4:30:00 AM 9.3 48.74 0.966 7.8 18.34 9.23
10/30/2022 4:45:00 AM 9.24 48.632 0.968 7.8 18.09 9.23
10/30/2022 5:00:00 AM 9.2 48.56 0.968 7.79 18.57 9.21
10/30/2022 5:15:00 AM 9.18 48.524 0.968 7.78 18.26 9.25
10/30/2022 5:30:00 AM 9.15 48.47 0.968 7.77 18.66 9.25
10/30/2022 5:45:00 AM 9.12 48.416 0.968 7.76 18.49 9.29
10/30/2022 6:00:00 AM 9.1 48.38 0.968 7.76 19.76 9.29
10/30/2022 6:15:00 AM 9.09 48.362 0.968 7.75 20.69 9.25
10/30/2022 6:30:00 AM 9.06 48.308 0.968 7.74 18.49 9.29
10/30/2022 6:45:00 AM 9.03 48.254 0.968 7.73 18.98 9.31
10/30/2022 7:00:00 AM 9 48.2 0.968 7.72 19.15 9.32
10/30/2022 7:15:00 AM 9 48.2 0.968 7.72 18.24 9.33
10/30/2022 7:30:00 AM 8.98 48.164 0.968 7.72 17.93 9.35
10/30/2022 7:45:00 AM 8.96 48.128 0.967 7.72 17.6 9.39
10/30/2022 8:00:00 AM 8.95 48.11 0.967 7.71 17.89 9.4
10/30/2022 8:15:00 AM 8.92 48.056 0.968 7.71 18.42 9.4
10/30/2022 8:30:00 AM 8.93 48.074 0.967 7.71 17.6 9.49
10/30/2022 8:45:00 AM 8.93 48.074 0.967 7.7 18.13 9.43
10/30/2022 9:00:00 AM 8.93 48.074 0.966 7.7 20.76 9.62
10/30/2022 9:15:00 AM 8.93 48.074 0.966 7.7 17.62 9.71
10/30/2022 9:30:00 AM 8.94 48.092 0.965 7.7 18.24 9.83
10/30/2022 9:45:00 AM 8.94 48.092 0.965 7.71 18.3 9.9
10/30/2022 10:00:00 AM 8.95 48.11 0.964 7.7 18.65 10.06
10/30/2022 10:15:00 AM 8.97 48.146 0.964 7.7 18.08 10.11
10/30/2022 10:30:00 AM 9.03 48.254 0.963 7.69 18.58 10.29
10/30/2022 10:45:00 AM 9.11 48.398 0.962 7.7 18.46 10.47
10/30/2022 11:00:00 AM 9.2 48.56 0.962 7.71 19.13 10.62
10/30/2022 11:15:00 AM 9.31 48.758 0.961 7.71 18.61 10.76
10/30/2022 11:30:00 AM 9.46 49.028 0.96 7.71 18.47 10.95
10/30/2022 11:45:00 AM 9.62 49.316 0.959 7.71 18.64 11.17
10/30/2022 12:00:00 PM 9.82 49.676 0.958 7.71 18.69 11.3
10/30/2022 12:15:00 PM 10 50 0.957 7.72 18.99 11.5
10/30/2022 12:30:00 PM 10.07 50.126 0.958 7.74 19.19 11.53
10/30/2022 12:45:00 PM 10.09 50.162 0.958 7.75 18.03 11.65
10/30/2022 1:00:00 PM 10.13 50.234 0.957 7.76 17.75 11.78
10/30/2022 1:15:00 PM 10.22 50.396 0.956 7.78 18.07 11.89
10/30/2022 1:30:00 PM 10.33 50.594 0.955 7.8 18.66 12.02
10/30/2022 1:45:00 PM 10.43 50.774 0.954 7.81 18.25 12.17
10/30/2022 2:00:00 PM 10.51 50.918 0.954 7.83 19.56 12.21
10/30/2022 2:15:00 PM 10.59 51.062 0.953 7.85 19.29 12.33
10/30/2022 2:30:00 PM 10.68 51.224 0.953 7.85 18.54 12.41
10/30/2022 2:45:00 PM 10.79 51.422 0.952 7.87 18.82 12.46
10/30/2022 3:00:00 PM 10.84 51.512 0.953 7.88 17.73 12.51
10/30/2022 3:15:00 PM 10.88 51.584 0.952 7.89 17.24 12.52
10/30/2022 3:30:00 PM 10.93 51.674 0.952 7.9 17.52 12.51
10/30/2022 3:45:00 PM 10.97 51.746 0.951 7.91 17.55 12.52
10/30/2022 4:00:00 PM 11.01 51.818 0.951 7.92 17.94 12.47
10/30/2022 4:15:00 PM 11.03 51.854 0.951 7.93 22.84 12.41
10/30/2022 4:30:00 PM 11.03 51.854 0.951 7.93 17.51 12.34
10/30/2022 4:45:00 PM 11.03 51.854 0.951 7.94 16.93 12.22
10/30/2022 5:00:00 PM 11.02 51.836 0.951 7.94 17.59 12.09
10/30/2022 5:15:00 PM 11.03 51.854 0.951 7.95 17.54 11.97
10/30/2022 5:30:00 PM 11.05 51.89 0.951 7.95 17.17 11.88
10/30/2022 5:45:00 PM 11.06 51.908 0.951 7.96 17.35 11.79
10/30/2022 6:00:00 PM 11.07 51.926 0.951 7.96 17.41 11.7
10/30/2022 6:15:00 PM 11.08 51.944 0.951 7.97 17.33 11.54
10/30/2022 6:30:00 PM 11.09 51.962 0.951 7.97 17.14 11.41
10/30/2022 6:45:00 PM 11.1 51.98 0.951 7.97 17.29 11.25
10/30/2022 7:00:00 PM 11.11 51.998 0.951 7.98 17.7 11.13
10/30/2022 7:15:00 PM 11.11 51.998 0.951 7.98 17.36 11.03
10/30/2022 7:30:00 PM 11.11 51.998 0.952 7.98 17.9 10.92
10/30/2022 7:45:00 PM 11.12 52.016 0.952 7.98 17.59 10.82
10/30/2022 8:00:00 PM 11.12 52.016 0.953 7.97 17.42 10.74
10/30/2022 8:15:00 PM 11.12 52.016 0.953 7.97 18.19 10.63
10/30/2022 8:30:00 PM 11.11 51.998 0.953 7.97 17.49 10.51
10/30/2022 8:45:00 PM 11.1 51.98 0.953 7.97 17.88 10.43
10/30/2022 9:00:00 PM 11.09 51.962 0.954 7.96 18.2 10.31
10/30/2022 9:15:00 PM 11.07 51.926 0.954 7.96 17.19 10.17
10/30/2022 9:30:00 PM 11.05 51.89 0.954 7.95 17.54 10.11
10/30/2022 9:45:00 PM 11.03 51.854 0.955 7.95 17.57 9.98
10/30/2022 10:00:00 PM 10.99 51.782 0.955 7.94 18.1 9.86
10/30/2022 10:15:00 PM 10.96 51.728 0.956 7.94 19.87 9.78
10/30/2022 10:30:00 PM 10.91 51.638 0.956 7.93 18.23 9.73
10/30/2022 10:45:00 PM 10.88 51.584 0.956 7.93 17.72 9.66
10/30/2022 11:00:00 PM 10.85 51.53 0.957 7.92 17.56 9.59
10/30/2022 11:15:00 PM 10.82 51.476 0.957 7.92 17.79 9.52
10/30/2022 11:30:00 PM 10.8 51.44 0.958 7.91 18.05 9.47
10/30/2022 11:45:00 PM 10.76 51.368 0.958 7.91 17.72 9.45
10/31/2022 12:00:00 AM 10.73 51.314 0.958 7.9 18.36 9.36
10/31/2022 12:15:00 AM 10.69 51.242 0.959 7.9 17.84 9.3
10/31/2022 12:30:00 AM 10.65 51.17 0.959 7.89 17.43 9.31
10/31/2022 12:45:00 AM 10.62 51.116 0.959 7.89 18.03 9.26
10/31/2022 1:00:00 AM 10.58 51.044 0.959 7.89 18.5 9.21
10/31/2022 1:15:00 AM 10.54 50.972 0.96 7.88 18.43 9.19
10/31/2022 1:30:00 AM 10.51 50.918 0.96 7.88 18.38 9.18
10/31/2022 1:45:00 AM 10.48 50.864 0.96 7.87 20.45 9.15
10/31/2022 2:00:00 AM 10.44 50.792 0.961 7.87 18.1 9.13
10/31/2022 2:15:00 AM 10.41 50.738 0.961 7.86 18.6 9.09
10/31/2022 2:30:00 AM 10.4 50.72 0.961 7.86 18.79 9.08
10/31/2022 2:45:00 AM 10.37 50.666 0.961 7.85 19.5 9.05
10/31/2022 3:00:00 AM 10.35 50.63 0.962 7.84 19.13 9.02
10/31/2022 3:15:00 AM 10.34 50.612 0.962 7.83 18.96 8.98
10/31/2022 3:30:00 AM 10.32 50.576 0.962 7.82 18.71 8.98
10/31/2022 3:45:00 AM 10.29 50.522 0.962 7.82 18.78 8.96
10/31/2022 4:00:00 AM 10.26 50.468 0.963 7.81 18.93 8.95
10/31/2022 4:15:00 AM 10.23 50.414 0.963 7.81 19.75 8.96
10/31/2022 4:30:00 AM 10.21 50.378 0.963 7.8 19.24 8.94
10/31/2022 4:45:00 AM 10.18 50.324 0.963 7.79 19 8.93
10/31/2022 5:00:00 AM 10.17 50.306 0.964 7.78 19.05 8.93
10/31/2022 5:15:00 AM 10.15 50.27 0.963 7.77 19.04 8.92
10/31/2022 5:30:00 AM 10.13 50.234 0.964 7.77 18.98 8.93
10/31/2022 5:45:00 AM 10.12 50.216 0.964 7.77 20.12 8.95
10/31/2022 6:00:00 AM 10.1 50.18 0.964 7.77 20.05 8.89
10/31/2022 6:15:00 AM 10.07 50.126 0.964 7.76 20.81 8.93
10/31/2022 6:30:00 AM 10.04 50.072 0.964 7.76 19.66 8.91
10/31/2022 6:45:00 AM 10.02 50.036 0.964 7.75 19.48 8.92
10/31/2022 7:00:00 AM 9.98 49.964 0.964 7.76 19.38 8.97
10/31/2022 7:15:00 AM 9.92 49.856 0.965 7.76 19.28 8.94
10/31/2022 7:30:00 AM 9.91 49.838 0.964 7.75 19.34 8.97
10/31/2022 7:45:00 AM 9.87 49.766 0.964 7.75 19.32 8.97
10/31/2022 8:00:00 AM 9.85 49.73 0.964 7.75 19.12 8.95
10/31/2022 8:15:00 AM 9.83 49.694 0.964 7.75 19.66 9.02
10/31/2022 8:30:00 AM 9.83 49.694 0.963 7.75 19.66 9.02
10/31/2022 8:45:00 AM 9.84 49.712 0.963 7.75 19.84 9.17
10/31/2022 9:00:00 AM 9.86 49.748 0.963 7.75 19.59 9.27
10/31/2022 9:15:00 AM 9.87 49.766 0.963 7.75 19.74 9.47
10/31/2022 9:30:00 AM 9.9 49.82 0.962 7.75 19.85 9.57
10/31/2022 9:45:00 AM 9.93 49.874 0.962 7.75 19.95 9.63
10/31/2022 10:00:00 AM 9.95 49.91 0.961 7.75 19.42 9.68
10/31/2022 10:15:00 AM 9.98 49.964 0.961 7.75 20.02 9.75
10/31/2022 10:30:00 AM 10.01 50.018 0.961 7.75 19.72 9.85
10/31/2022 10:45:00 AM 10.06 50.108 0.96 7.75 19.61 9.89
10/31/2022 11:00:00 AM 10.14 50.252 0.96 7.74 20.59 10.16
10/31/2022 11:15:00 AM 10.23 50.414 0.959 7.75 21.05 10.37
10/31/2022 11:30:00 AM 10.34 50.612 0.958 7.76 20.88 10.61
10/31/2022 11:45:00 AM 10.42 50.756 0.958 7.76 20.42 10.76
10/31/2022 12:00:00 PM 10.56 51.008 0.957 7.76 20.55 10.91
10/31/2022 12:15:00 PM 10.68 51.224 0.956 7.77 20 11.08
10/31/2022 12:30:00 PM 10.78 51.404 0.956 7.78 20.17 11.15
10/31/2022 12:45:00 PM 10.85 51.53 0.956 7.8 20.76 11.43
10/31/2022 1:00:00 PM 10.86 51.548 0.956 7.82 20.93 11.4
10/31/2022 1:15:00 PM 10.87 51.566 0.955 7.83 20.43 11.39
10/31/2022 1:30:00 PM 10.9 51.62 0.955 7.83 20.47 11.32
10/31/2022 1:45:00 PM 10.96 51.728 0.954 7.84 20.44 11.4
10/31/2022 2:00:00 PM 11.06 51.908 0.953 7.85 20.22 11.56
10/31/2022 2:15:00 PM 11.14 52.052 0.952 7.87 20.69 11.75
10/31/2022 2:30:00 PM 11.25 52.25 0.951 7.89 21 11.92
10/31/2022 2:45:00 PM 11.26 52.268 0.952 7.9 20.6 11.94
10/31/2022 3:00:00 PM 11.3 52.34 0.952 7.91 20.96 11.9
10/31/2022 3:15:00 PM 11.34 52.412 0.951 7.92 20.79 11.82
10/31/2022 3:30:00 PM 11.38 52.484 0.951 7.93 20.46 11.79
10/31/2022 3:45:00 PM 11.42 52.556 0.951 7.93 24.01 11.65
10/31/2022 4:00:00 PM 11.46 52.628 0.95 7.94 21.53 11.64
10/31/2022 4:15:00 PM 11.5 52.7 0.95 7.94 22.69 11.58
10/31/2022 4:30:00 PM 11.54 52.772 0.949 7.95 20.14 11.49
10/31/2022 4:45:00 PM 11.57 52.826 0.948 7.95 22.13 11.48
10/31/2022 5:00:00 PM 11.6 52.88 0.951 7.96 22.1 11.43
10/31/2022 5:15:00 PM 11.62 52.916 0.949 7.96 19.57 11.36
10/31/2022 5:30:00 PM 11.63 52.934 0.947 7.96 20.78 11.21
10/31/2022 5:45:00 PM 11.64 52.952 0.948 7.96 20.57 11.07
10/31/2022 6:00:00 PM 11.65 52.97 0.948 7.95 20.85 10.87
10/31/2022 6:15:00 PM 11.66 52.988 0.948 7.95 21.05 10.74
10/31/2022 6:30:00 PM 11.67 53.006 0.948 7.95 21.34 10.59
10/31/2022 6:45:00 PM 11.68 53.024 0.948 7.94 21.16 10.51
10/31/2022 7:00:00 PM 11.69 53.042 0.948 7.94 20.67 10.41
10/31/2022 7:15:00 PM 11.7 53.06 0.949 7.94 21.6 10.3
10/31/2022 7:30:00 PM 11.71 53.078 0.949 7.94 21.06 10.21
10/31/2022 7:45:00 PM 11.72 53.096 0.949 7.94 20.53 10.04
10/31/2022 8:00:00 PM 11.73 53.114 0.949 7.93 20.85 9.97
10/31/2022 8:15:00 PM 11.74 53.132 0.949 7.92 20.73 9.83
10/31/2022 8:30:00 PM 11.74 53.132 0.949 7.91 19.95 9.72
10/31/2022 8:45:00 PM 11.75 53.15 0.95 7.91 20.51 9.6
10/31/2022 9:00:00 PM 11.76 53.168 0.95 7.91 20.05 9.52
10/31/2022 9:15:00 PM 11.77 53.186 0.951 7.9 20.31 9.46
10/31/2022 9:30:00 PM 11.78 53.204 0.951 7.89 20.33 9.35
10/31/2022 9:45:00 PM 11.79 53.222 0.952 7.89 20.39 9.26
10/31/2022 10:00:00 PM 11.8 53.24 0.952 7.88 20.44 9.21
10/31/2022 10:15:00 PM 11.82 53.276 0.953 7.88 20 9.13
10/31/2022 10:30:00 PM 11.84 53.312 0.953 7.87 22.94 9.03
10/31/2022 10:45:00 PM 11.85 53.33 0.954 7.87 21.63 8.94
10/31/2022 11:00:00 PM 11.87 53.366 0.955 7.86 20.38 8.87
10/31/2022 11:15:00 PM 11.88 53.384 0.956 7.85 20.81 8.79
10/31/2022 11:30:00 PM 11.89 53.402 0.957 7.85 20.35 8.75
10/31/2022 11:45:00 PM 11.91 53.438 0.957 7.84 21.18 8.7
11/1/2022 12:00:00 AM 11.93 53.474 0.957 7.84 20.17 8.63
11/1/2022 12:15:00 AM 11.95 53.51 0.958 7.83 20.16 8.55
11/1/2022 12:30:00 AM 11.97 53.546 0.959 7.83 23.19 8.57
11/1/2022 12:45:00 AM 11.99 53.582 0.96 7.82 20.69 8.51
11/1/2022 1:00:00 AM 12 53.6 0.96 7.82 20.43 8.43
11/1/2022 1:15:00 AM 12.02 53.636 0.958 7.81 20.23 8.37
11/1/2022 1:30:00 AM 12.04 53.672 0.962 7.8 23.39 8.3
11/1/2022 1:45:00 AM 12.07 53.726 0.958 7.8 20.16 8.29
11/1/2022 2:00:00 AM 12.08 53.744 0.946 7.8 20.3 8.29
11/1/2022 2:15:00 AM 12.09 53.762 0.961 7.8 21.33 8.31
11/1/2022 2:30:00 AM 12.11 53.798 0.962 7.79 21.06 8.25
11/1/2022 2:45:00 AM 12.12 53.816 0.967 7.79 20.68 8.24
11/1/2022 3:00:00 AM 12.14 53.852 0.965 7.79 22.59 8.18
11/1/2022 3:15:00 AM 12.14 53.852 0.967 7.78 20.37 8.21
11/1/2022 3:30:00 AM 12.15 53.87 0.968 7.78 23 8.14
11/1/2022 3:45:00 AM 12.16 53.888 0.96 7.77 20.26 8.1
11/1/2022 4:00:00 AM 12.17 53.906 0.96 7.77 20.91 8.05
11/1/2022 4:15:00 AM 12.18 53.924 0.962 7.77 21.94 8.07
11/1/2022 4:30:00 AM 12.19 53.942 0.974 7.76 21.06 8.04
11/1/2022 4:45:00 AM 12.19 53.942 0.974 7.76 20.71 8.05
11/1/2022 5:00:00 AM 12.19 53.942 0.973 7.76 20.8 8.02
11/1/2022 5:15:00 AM 12.19 53.942 0.976 7.75 21.06 7.97
11/1/2022 5:30:00 AM 12.2 53.96 0.978 7.74 21.66 7.98
11/1/2022 5:45:00 AM 12.2 53.96 0.976 7.74 20.72 7.98
11/1/2022 6:00:00 AM 12.2 53.96 0.98 7.74 20.91 7.95
11/1/2022 6:15:00 AM 12.19 53.942 0.977 7.74 20.63 7.96
11/1/2022 6:30:00 AM 12.19 53.942 0.982 7.73 20.83 7.9
11/1/2022 6:45:00 AM 12.19 53.942 0.985 7.73 23.31 7.92
11/1/2022 7:00:00 AM 12.18 53.924 0.982 7.72 21.14 7.94
11/1/2022 7:15:00 AM 12.18 53.924 0.985 7.72 22.14 7.92
11/1/2022 7:30:00 AM 12.18 53.924 0.987 7.72 21.38 7.92
11/1/2022 7:45:00 AM 12.17 53.906 0.988 7.72 20.65 7.89
11/1/2022 8:00:00 AM 12.16 53.888 0.989 7.72 22.01 7.79
11/1/2022 8:15:00 AM 12.15 53.87 0.991 7.72 21.88 7.9
11/1/2022 8:30:00 AM 12.15 53.87 0.991 7.71 20.91 7.98
11/1/2022 8:45:00 AM 12.15 53.87 0.992 7.72 21.37 7.98
11/1/2022 9:00:00 AM 12.16 53.888 0.993 7.71 20.96 8.11
11/1/2022 9:15:00 AM 12.17 53.906 0.993 7.71 21.37 8.14
11/1/2022 9:30:00 AM 12.19 53.942 0.994 7.71 18.83 8.23
11/1/2022 9:45:00 AM 12.21 53.978 0.992 7.71 19.69 8.31
11/1/2022 10:00:00 AM 12.23 54.014 0.994 7.71 20.75 8.42
11/1/2022 10:15:00 AM 12.25 54.05 0.999 7.71 20.49 8.53
11/1/2022 10:30:00 AM 12.28 54.104 0.999 7.72 20.51 8.63
11/1/2022 10:45:00 AM 12.32 54.176 0.997 7.73 20.67 8.75
11/1/2022 11:00:00 AM 12.39 54.302 0.995 7.74 20.88 8.98
11/1/2022 11:15:00 AM 12.46 54.428 0.991 7.75 20.79 9.21
11/1/2022 11:30:00 AM 12.53 54.554 0.992 7.76 20.61 9.4
11/1/2022 11:45:00 AM 12.59 54.662 0.999 7.77 20.81 9.62
11/1/2022 12:00:00 PM 12.65 54.77 0.998 7.77 20.74 9.73
11/1/2022 12:15:00 PM 12.81 55.058 0.999 7.77 20.85 9.85
11/1/2022 12:30:00 PM 12.95 55.31 1 7.79 21.54 10.04
11/1/2022 12:45:00 PM 13.05 55.49 1.002 7.81 21.39 10.33
11/1/2022 1:00:00 PM 13.08 55.544 1.002 7.82 20.73 10.44
11/1/2022 1:15:00 PM 13.14 55.652 1.002 7.84 21.06 10.56
11/1/2022 1:30:00 PM 13.23 55.814 1.001 7.85 21.16 10.69
11/1/2022 1:45:00 PM 13.34 56.012 1.003 7.87 21.22 10.79
11/1/2022 2:00:00 PM 13.43 56.174 1.002 7.88 21.58 10.92
11/1/2022 2:15:00 PM 13.49 56.282 1 7.89 21.42 10.95
11/1/2022 2:30:00 PM 13.54 56.372 0.999 7.91 21.76 11.1
11/1/2022 2:45:00 PM 13.61 56.498 1.001 7.91 20.97 11.16
11/1/2022 3:00:00 PM 13.72 56.696 1.002 7.95 23.39 11.28
11/1/2022 3:15:00 PM 13.76 56.768 1.003 7.95 22.04 11.36
11/1/2022 3:30:00 PM 13.8 56.84 1.003 7.97 21.13 11.42
11/1/2022 3:45:00 PM 13.85 56.93 1.003 7.97 21.23 11.42
11/1/2022 4:00:00 PM 13.85 56.93 1.004 7.97 22.68 11.39
11/1/2022 4:15:00 PM 13.87 56.966 1.004 7.98 21.74 11.26
11/1/2022 4:30:00 PM 13.91 57.038 1.004 7.99 21.13 11.14
11/1/2022 4:45:00 PM 13.94 57.092 1.004 7.99 22.01 11.21
11/1/2022 5:00:00 PM 13.97 57.146 1.004 8.01 21.98 11.18
11/1/2022 5:15:00 PM 13.98 57.164 1.005 8.01 22.84 11.06
11/1/2022 5:30:00 PM 13.99 57.182 1.005 8.01 21.74 10.9
11/1/2022 5:45:00 PM 14.01 57.218 1.006 8.01 23.15 10.79
11/1/2022 6:00:00 PM 14.02 57.236 1.006 8.01 24.7 10.68
11/1/2022 6:15:00 PM 14.01 57.218 1.007 8.01 23.74 10.48
11/1/2022 6:30:00 PM 13.99 57.182 1.007 8.01 22.8 10.34
11/1/2022 6:45:00 PM 13.97 57.146 1.008 8.01 24.39 10.16
11/1/2022 7:00:00 PM 13.94 57.092 1.008 8 24.04 10.03
11/1/2022 7:15:00 PM 13.92 57.056 1.009 8 25.06 9.87
11/1/2022 7:30:00 PM 13.9 57.02 1.009 8 23.08 9.8
11/1/2022 7:45:00 PM 13.87 56.966 1.01 8 27.61 9.63
11/1/2022 8:00:00 PM 13.84 56.912 1.01 8 23.1 9.57
11/1/2022 8:15:00 PM 13.82 56.876 1.011 7.99 22.61 9.43
11/1/2022 8:30:00 PM 13.77 56.786 1.011 7.99 22.54 9.22
11/1/2022 8:45:00 PM 13.74 56.732 1.011 7.98 22.11 8.98
11/1/2022 9:00:00 PM 13.69 56.642 1.012 7.97 22.59 8.89
11/1/2022 9:15:00 PM 13.65 56.57 1.012 7.97 24.79 8.81
11/1/2022 9:30:00 PM 13.61 56.498 1.012 7.96 21.87 8.72
11/1/2022 9:45:00 PM 13.57 56.426 1.013 7.96 22.07 8.69
11/1/2022 10:00:00 PM 13.53 56.354 1.013 7.95 23.45 8.59
11/1/2022 10:15:00 PM 13.49 56.282 1.013 7.95 22.65 8.57
11/1/2022 10:30:00 PM 13.45 56.21 1.016 7.94 22.4 8.47
11/1/2022 10:45:00 PM 13.41 56.138 1.013 7.93 22.77 8.32
11/1/2022 11:00:00 PM 13.37 56.066 1.013 7.92 22.94 8.28
11/1/2022 11:15:00 PM 13.33 55.994 1.012 7.92 22.85 8.2
11/1/2022 11:30:00 PM 13.29 55.922 1.016 7.91 23 8.14
11/1/2022 11:45:00 PM 13.26 55.868 1.013 7.9 22.95 8.01
11/2/2022 12:00:00 AM 13.22 55.796 1.015 7.89 24.73 8.01
11/2/2022 12:15:00 AM 13.19 55.742 1.016 7.88 24.51 7.98
11/2/2022 12:30:00 AM 13.15 55.67 1.017 7.88 24.57 7.94
11/2/2022 12:45:00 AM 13.11 55.598 1.017 7.87 24.53 7.93
11/2/2022 1:00:00 AM 13.07 55.526 1.018 7.87 23.9 7.97
11/2/2022 1:15:00 AM 13.03 55.454 1.018 7.86 24.42 7.92
11/2/2022 1:30:00 AM 13 55.4 1.019 7.85 23.62 7.87
11/2/2022 1:45:00 AM 12.95 55.31 1.019 7.85 24.41 7.8
11/2/2022 2:00:00 AM 12.91 55.238 1.02 7.84 24.2 7.82
11/2/2022 2:15:00 AM 12.86 55.148 1.02 7.84 23.94 7.8
11/2/2022 2:30:00 AM 12.82 55.076 1.021 7.84 25.62 7.8
11/2/2022 2:45:00 AM 12.78 55.004 1.021 7.83 25.77 7.78
11/2/2022 3:00:00 AM 12.74 54.932 1.021 7.83 23.83 7.79
11/2/2022 3:15:00 AM 12.7 54.86 1.021 7.82 24.05 7.73
11/2/2022 3:30:00 AM 12.65 54.77 1.021 7.82 23.92 7.76
11/2/2022 3:45:00 AM 12.61 54.698 1.021 7.81 26.43 7.75
11/2/2022 4:00:00 AM 12.56 54.608 1.021 7.81 23.87 7.73
11/2/2022 4:15:00 AM 12.51 54.518 1.02 7.8 24.2 7.75
11/2/2022 4:30:00 AM 12.46 54.428 1.02 7.8 23.83 7.74
11/2/2022 4:45:00 AM 12.41 54.338 1.02 7.8 25.25 7.77
11/2/2022 5:00:00 AM 12.36 54.248 1.021 7.79 25.71 7.69
11/2/2022 5:15:00 AM 12.31 54.158 1.021 7.79 24.99 7.71
11/2/2022 5:30:00 AM 12.25 54.05 1.021 7.78 24.14 7.73
11/2/2022 5:45:00 AM 12.2 53.96 1.021 7.78 24.55 7.72
11/2/2022 6:00:00 AM 12.15 53.87 1.021 7.78 24.26 7.78
11/2/2022 6:15:00 AM 12.1 53.78 1.021 7.77 24.6 7.81
11/2/2022 6:30:00 AM 12.05 53.69 1.02 7.77 24.14 7.78
11/2/2022 6:45:00 AM 12 53.6 1.02 7.77 25 7.74
11/2/2022 7:00:00 AM 11.94 53.492 1.021 7.76 25.75 7.8
11/2/2022 7:15:00 AM 11.88 53.384 1.021 7.76 25.43 7.81
11/2/2022 7:30:00 AM 11.84 53.312 1.02 7.76 25.66 7.78
11/2/2022 7:45:00 AM 11.78 53.204 1.019 7.75 25.46 7.92
11/2/2022 8:00:00 AM 11.74 53.132 1.025 7.75 25.42 7.91
11/2/2022 8:15:00 AM 11.7 53.06 1.024 7.75 25.53 7.89
11/2/2022 8:30:00 AM 11.66 52.988 1.025 7.75 25.24 7.92
11/2/2022 8:45:00 AM 11.62 52.916 1.023 7.75 25.2 7.95
11/2/2022 9:00:00 AM 11.58 52.844 1.017 7.75 24.69 8.07
11/2/2022 9:15:00 AM 11.55 52.79 1.017 7.75 24.7 8.14
11/2/2022 9:30:00 AM 11.54 52.772 1.017 7.74 24.95 8.27
11/2/2022 9:45:00 AM 11.52 52.736 1.017 7.74 24.72 8.35
11/2/2022 10:00:00 AM 11.52 52.736 1.018 7.74 26.05 8.49
11/2/2022 10:15:00 AM 11.54 52.772 1.019 7.74 24.95 8.6
11/2/2022 10:30:00 AM 11.56 52.808 1.02 7.74 25.57 8.69
11/2/2022 10:45:00 AM 11.61 52.898 1.019 7.75 54.18 8.85
11/2/2022 11:00:00 AM 11.7 53.06 1.019 7.76 25.03 9.02
11/2/2022 11:15:00 AM 11.83 53.294 1.018 7.77 24.82 9.3
11/2/2022 11:30:00 AM 12.03 53.654 1.018 7.77 24.3 9.64
11/2/2022 11:45:00 AM 12.23 54.014 1.017 7.78 25.67 9.85
11/2/2022 12:00:00 PM 12.4 54.32 1.016 7.79 26.15 10.09
11/2/2022 12:15:00 PM 12.56 54.608 1.017 7.79 26.05 10.27
11/2/2022 12:30:00 PM 12.72 54.896 1.017 7.8 25.12 10.52
11/2/2022 12:45:00 PM 12.82 55.076 1.016 7.82 24.72 10.66
11/2/2022 1:00:00 PM 12.93 55.274 1.016 7.83 25.3 10.81
11/2/2022 1:15:00 PM 13.02 55.436 1.016 7.85 24.82 10.97
11/2/2022 1:30:00 PM 13.1 55.58 1.015 7.87 24.59 11.09
11/2/2022 1:45:00 PM 13.16 55.688 1.015 7.88 24.17 11.13
11/2/2022 2:00:00 PM 13.21 55.778 1.015 7.9 24.7 11.26
11/2/2022 2:15:00 PM 13.26 55.868 1.014 7.92 24.83 11.34
11/2/2022 2:30:00 PM 13.32 55.976 1.014 7.93 26.73 11.41
11/2/2022 2:45:00 PM 13.37 56.066 1.013 7.94 27.75 11.43
11/2/2022 3:00:00 PM 13.42 56.156 1.012 7.95 27.41 11.45
11/2/2022 3:15:00 PM 13.44 56.192 1.012 7.96 26.74 11.52
11/2/2022 3:30:00 PM 13.48 56.264 1.012 7.98 26.91 11.53
11/2/2022 3:45:00 PM 13.51 56.318 1.01 7.99 27.91 11.56
11/2/2022 4:00:00 PM 13.55 56.39 1.01 8 28.3 11.59
11/2/2022 4:15:00 PM 13.57 56.426 1.009 8.01 25.16 11.66
11/2/2022 4:30:00 PM 13.58 56.444 1.008 8.01 26.04 11.6
11/2/2022 4:45:00 PM 13.6 56.48 1.007 8.02 26.14 11.5
11/2/2022 5:00:00 PM 13.62 56.516 1.006 8.03 26.12 11.46
11/2/2022 5:15:00 PM 13.63 56.534 1.006 8.03 25.72 11.39
11/2/2022 5:30:00 PM 13.64 56.552 1.006 8.04 25 11.28
11/2/2022 5:45:00 PM 13.66 56.588 1.005 8.04 25.45 11.14
11/2/2022 6:00:00 PM 13.66 56.588 1.004 8.05 25.42 10.99
11/2/2022 6:15:00 PM 13.66 56.588 1.004 8.05 26.09 10.86
11/2/2022 6:30:00 PM 13.65 56.57 1.003 8.05 26.02 10.75
11/2/2022 6:45:00 PM 13.64 56.552 1.003 8.06 25.63 10.58
11/2/2022 7:00:00 PM 13.63 56.534 1.002 8.05 25.54 10.32
11/2/2022 7:15:00 PM 13.62 56.516 1.002 8.05 27.45 10.3
11/2/2022 7:30:00 PM 13.61 56.498 1 8.05 25.37 10.19
11/2/2022 7:45:00 PM 13.59 56.462 1.001 8.04 24.54 10.05
11/2/2022 8:00:00 PM 13.56 56.408 1.001 8.04 25.14 9.96
11/2/2022 8:15:00 PM 13.52 56.336 1.001 8.04 24.6 9.78
11/2/2022 8:30:00 PM 13.48 56.264 1.001 8.03 25.35 9.49
11/2/2022 8:45:00 PM 13.43 56.174 1.001 8.03 24.55 9.41
11/2/2022 9:00:00 PM 13.38 56.084 1.001 8.03 25.95 9.32
11/2/2022 9:15:00 PM 13.33 55.994 1.001 8.02 24.98 9.09
11/2/2022 9:30:00 PM 13.28 55.904 1.001 8 25.37 9.07
11/2/2022 9:45:00 PM 13.24 55.832 1.001 7.99 24.82 8.96
11/2/2022 10:00:00 PM 13.2 55.76 1.001 7.99 25.29 8.82
11/2/2022 10:15:00 PM 13.16 55.688 1.001 7.98 26.06 8.72
11/2/2022 10:30:00 PM 13.12 55.616 1.001 7.97 25.07 8.67
11/2/2022 10:45:00 PM 13.08 55.544 1.001 7.96 25.42 8.55
11/2/2022 11:00:00 PM 13.03 55.454 1.001 7.96 26.48 8.49
11/2/2022 11:15:00 PM 12.99 55.382 1.001 7.95 25.72 8.41
11/2/2022 11:30:00 PM 12.96 55.328 1.001 7.94 25.3 8.09
11/2/2022 11:45:00 PM 12.9 55.22 1.001 7.93 25.49 8.18
11/3/2022 12:00:00 AM 12.85 55.13 1.001 7.92 25.56 8.07
11/3/2022 12:15:00 AM 12.8 55.04 1.001 7.91 25.83 8.19
11/3/2022 12:30:00 AM 12.75 54.95 1.001 7.91 26.87 8.13
11/3/2022 12:45:00 AM 12.71 54.878 1.001 7.9 25.71 8.08
11/3/2022 1:00:00 AM 12.66 54.788 1.001 7.89 26.83 8.06
11/3/2022 1:15:00 AM 12.63 54.734 1.001 7.89 26.34 8.06
11/3/2022 1:30:00 AM 12.57 54.626 1.002 7.88 27.25 8.07
11/3/2022 1:45:00 AM 12.52 54.536 1.001 7.88 26.96 8.01
11/3/2022 2:00:00 AM 12.48 54.464 1.003 7.87 27.22 8.04
11/3/2022 2:15:00 AM 12.42 54.356 1.001 7.87 27.41 8
11/3/2022 2:30:00 AM 12.38 54.284 1 7.86 26.08 7.95
11/3/2022 2:45:00 AM 12.33 54.194 1.002 7.85 28.38 8.02
11/3/2022 3:00:00 AM 12.28 54.104 1.003 7.85 26.65 8.01
11/3/2022 3:15:00 AM 12.23 54.014 1.003 7.84 27.37 7.97
11/3/2022 3:30:00 AM 12.18 53.924 1.003 7.84 27.26 7.98
11/3/2022 3:45:00 AM 12.11 53.798 1.004 7.84 28.25 7.99
11/3/2022 4:00:00 AM 12.06 53.708 1.004 7.83 27.54 7.93
11/3/2022 4:15:00 AM 12.01 53.618 1.004 7.83 27.81 7.91
11/3/2022 4:30:00 AM 11.95 53.51 1.004 7.82 27.86 7.92
11/3/2022 4:45:00 AM 11.89 53.402 1.005 7.82 27.65 7.9
11/3/2022 5:00:00 AM 11.84 53.312 1.005 7.82 26.59 7.91
11/3/2022 5:15:00 AM 11.77 53.186 1.005 7.82 28.56 7.91
11/3/2022 5:30:00 AM 11.71 53.078 1.006 7.81 27.43 7.97
11/3/2022 5:45:00 AM 11.65 52.97 1.006 7.81 28.88 7.91
11/3/2022 6:00:00 AM 11.6 52.88 1.006 7.8 26.63 7.97
11/3/2022 6:15:00 AM 11.54 52.772 1.007 7.8 27.34 7.97
11/3/2022 6:30:00 AM 11.47 52.646 1.007 7.8 27.73 8
11/3/2022 6:45:00 AM 11.42 52.556 1.007 7.79 27.64 8.01
11/3/2022 7:00:00 AM 11.38 52.484 1.007 7.79 29.84 8.06
11/3/2022 7:15:00 AM 11.33 52.394 1.007 7.79 29.11 8.02
11/3/2022 7:30:00 AM 11.28 52.304 1.007 7.78 31.37 7.9
11/3/2022 7:45:00 AM 11.22 52.196 1.008 7.78 29.18 8.08
11/3/2022 8:00:00 AM 11.16 52.088 1.008 7.77 27.91 8.13
11/3/2022 8:15:00 AM 11.12 52.016 1.008 7.77 30.11 8.16
11/3/2022 8:30:00 AM 11.08 51.944 1.008 7.77 28.06 8.2
11/3/2022 8:45:00 AM 11.04 51.872 1.008 7.76 27.14 8.29
11/3/2022 9:00:00 AM 10.99 51.782 1.008 7.76 29.23 8.37
11/3/2022 9:15:00 AM 10.94 51.692 1.008 7.76 29.09 8.43
11/3/2022 9:30:00 AM 10.91 51.638 1.008 7.76 29.18 8.48
11/3/2022 9:45:00 AM 10.88 51.584 1.007 7.76 27.45 8.57
11/3/2022 10:00:00 AM 10.86 51.548 1.007 7.76 27.62 8.53
11/3/2022 10:15:00 AM 10.85 51.53 1.007 7.76 27.42 8.75
11/3/2022 10:30:00 AM 10.87 51.566 1.006 7.76 28.3 8.88
11/3/2022 10:45:00 AM 10.9 51.62 1.006 7.76 27.57 9.01
11/3/2022 11:00:00 AM 10.97 51.746 1.005 7.76 28.26 9.12
11/3/2022 11:15:00 AM 11.1 51.98 1.003 7.77 27.7 9.38
11/3/2022 11:30:00 AM 11.32 52.376 1.002 7.77 27.61 9.72
11/3/2022 11:45:00 AM 11.52 52.736 1.002 7.77 28.37 9.92
11/3/2022 12:00:00 PM 11.7 53.06 1.001 7.77 28.08 8.21
11/3/2022 12:15:00 PM 11.91 53.438 1 7.76 29.6 10.25
11/3/2022 12:30:00 PM 12.1 53.78 0.999 7.75 27.96 10.56
11/3/2022 12:45:00 PM 12.2 53.96 1 7.75 27.63 10.94
11/3/2022 1:00:00 PM 12.32 54.176 0.999 7.77 30.73 11.11
11/3/2022 1:15:00 PM 12.42 54.356 0.998 7.78 26.48 11.18
11/3/2022 1:30:00 PM 12.5 54.5 0.997 7.8 29.3 11.27
11/3/2022 1:45:00 PM 12.58 54.644 0.997 7.83 27.95 11.49
11/3/2022 2:00:00 PM 12.64 54.752 0.996 7.84 28.38 11.04
11/3/2022 2:15:00 PM 12.71 54.878 0.995 7.86 27.69 11.51
11/3/2022 2:30:00 PM 12.78 55.004 0.995 7.89 28.3 11.57
11/3/2022 2:45:00 PM 12.85 55.13 0.993 7.9 27.93 11.32
11/3/2022 3:00:00 PM 12.9 55.22 0.993 7.92 29.23 11.49
11/3/2022 3:15:00 PM 12.93 55.274 0.992 7.94 27.55 11.57
11/3/2022 3:30:00 PM 12.96 55.328 0.991 7.95 29.74 11.59
11/3/2022 3:45:00 PM 12.97 55.346 0.99 7.96 29.98 11.07
11/3/2022 4:00:00 PM 12.99 55.382 0.99 7.97 29.84 11.67
11/3/2022 4:15:00 PM 13 55.4 0.989 7.98 27.43 11.82
11/3/2022 4:30:00 PM 13 55.4 0.987 7.98 27.51 11.75
11/3/2022 4:45:00 PM 13 55.4 0.986 7.98 27.76 11.65
11/3/2022 5:00:00 PM 13.01 55.418 0.985 7.99 28.68 11.44
11/3/2022 5:15:00 PM 13.01 55.418 0.983 7.99 29.75 11.29
11/3/2022 5:30:00 PM 13.01 55.418 0.983 7.99 28.42 11.22
11/3/2022 5:45:00 PM 13.01 55.418 0.982 8 28.06 11.08
11/3/2022 6:00:00 PM 13 55.4 0.981 8 28.43 10.94
11/3/2022 6:15:00 PM 13 55.4 0.98 8.01 28.05 10.85
11/3/2022 6:30:00 PM 12.99 55.382 0.979 8.02 27.79 10.77
11/3/2022 6:45:00 PM 12.98 55.364 0.978 8.02 29.5 10.64
11/3/2022 7:00:00 PM 12.97 55.346 0.977 8.02 30.84 10.48
11/3/2022 7:15:00 PM 12.97 55.346 0.976 8.02 27.76 10.41
11/3/2022 7:30:00 PM 12.96 55.328 0.974 8.02 27.81 10.29
11/3/2022 7:45:00 PM 12.94 55.292 0.975 8.03 27.44 10.17
11/3/2022 8:00:00 PM 12.91 55.238 0.974 8.03 31.18 10.07
11/3/2022 8:15:00 PM 12.89 55.202 0.971 8.03 33.72 10
11/3/2022 8:30:00 PM 12.86 55.148 0.969 8.02 28.2 9.92
11/3/2022 8:45:00 PM 12.82 55.076 0.968 8.02 27.85 9.75
11/3/2022 9:00:00 PM 12.77 54.986 0.967 8.01 28.47 9.59
11/3/2022 9:15:00 PM 12.73 54.914 0.966 8.01 27.81 9.49
11/3/2022 9:30:00 PM 12.69 54.842 0.965 8 28.27 9.42
11/3/2022 9:45:00 PM 12.65 54.77 0.963 7.99 27.85 9.25
11/3/2022 10:00:00 PM 12.6 54.68 0.962 7.98 27.88 9.14
11/3/2022 10:15:00 PM 12.56 54.608 0.961 7.98 28.12 9.11
11/3/2022 10:30:00 PM 12.52 54.536 0.959 7.96 27.74 9.01
11/3/2022 10:45:00 PM 12.47 54.446 0.958 7.95 27.98 8.9
11/3/2022 11:00:00 PM 12.43 54.374 0.957 7.94 27.89 8.82
11/3/2022 11:15:00 PM 12.38 54.284 0.955 7.94 27.96 8.76
11/3/2022 11:30:00 PM 12.34 54.212 0.953 7.93 27.72 8.66
11/3/2022 11:45:00 PM 12.3 54.14 0.952 7.92 27.75 8.55
11/4/2022 12:00:00 AM 12.26 54.068 0.95 7.91 29.62 8.45
11/4/2022 12:15:00 AM 12.22 53.996 0.949 7.91 28.2 8.4
11/4/2022 12:30:00 AM 12.17 53.906 0.947 7.9 28.04 8.43
11/4/2022 12:45:00 AM 12.13 53.834 0.945 7.89 28.17 8.43
11/4/2022 1:00:00 AM 12.1 53.78 0.944 7.89 28.34 8.39
11/4/2022 1:15:00 AM 12.07 53.726 0.943 7.88 28.45 8.28
11/4/2022 1:30:00 AM 12.05 53.69 0.942 7.87 28.29 8.24
11/4/2022 1:45:00 AM 12.01 53.618 0.941 7.87 28.39 8.21
11/4/2022 2:00:00 AM 11.98 53.564 0.939 7.86 28.02 8.2
11/4/2022 2:15:00 AM 11.94 53.492 0.937 7.85 28.47 8.2
11/4/2022 2:30:00 AM 11.9 53.42 0.935 7.85 28.34 8.17
11/4/2022 2:45:00 AM 11.86 53.348 0.934 7.84 28.71 8.16
11/4/2022 3:00:00 AM 11.82 53.276 0.934 7.84 29.02 8.14
11/4/2022 3:15:00 AM 11.78 53.204 0.933 7.84 28.6 8.12
11/4/2022 3:30:00 AM 11.75 53.15 0.931 7.83 28.56 8.12
11/4/2022 3:45:00 AM 11.7 53.06 0.931 7.83 28.7 8.16
11/4/2022 4:00:00 AM 11.67 53.006 0.93 7.82 30.21 8.14
11/4/2022 4:15:00 AM 11.63 52.934 0.929 7.82 29.47 8.14
11/4/2022 4:30:00 AM 11.58 52.844 0.928 7.81 29.07 8.1
11/4/2022 4:45:00 AM 11.53 52.754 0.927 7.81 28.95 8.15
11/4/2022 5:00:00 AM 11.49 52.682 0.926 7.81 28.71 8.13
11/4/2022 5:15:00 AM 11.44 52.592 0.926 7.8 29.28 8.14
11/4/2022 5:30:00 AM 11.4 52.52 0.925 7.8 28.74 8.14
11/4/2022 5:45:00 AM 11.36 52.448 0.924 7.8 28.42 8.12
11/4/2022 6:00:00 AM 11.31 52.358 0.924 7.79 29.08 8.12
11/4/2022 6:15:00 AM 11.27 52.286 0.924 7.78 29.48 8.11
11/4/2022 6:30:00 AM 11.22 52.196 0.924 7.78 28.67 8.11
11/4/2022 6:45:00 AM 11.16 52.088 0.923 7.78 29.38 8.13
11/4/2022 7:00:00 AM 11.11 51.998 0.923 7.78 29.14 8.17
11/4/2022 7:15:00 AM 11.07 51.926 0.922 7.77 28.9 8.21
11/4/2022 7:30:00 AM 11.02 51.836 0.922 7.77 28.68 8.16
11/4/2022 7:45:00 AM 10.97 51.746 0.922 7.77 29.23 8.2
11/4/2022 8:00:00 AM 10.95 51.71 0.921 7.76 28.78 8.24
11/4/2022 8:15:00 AM 10.93 51.674 0.921 7.75 29.17 8.27
11/4/2022 8:30:00 AM 10.92 51.656 0.921 7.75 30.53 8.33
11/4/2022 8:45:00 AM 10.91 51.638 0.92 7.75 30.08 8.44
11/4/2022 9:00:00 AM 10.92 51.656 0.92 7.74 29.58 8.46
11/4/2022 9:15:00 AM 10.93 51.674 0.92 7.74 28.64 8.32
11/4/2022 9:30:00 AM 10.95 51.71 0.919 7.74 29.37 8.68
11/4/2022 9:45:00 AM 10.98 51.764 0.919 7.75 29.34 8.99
11/4/2022 10:00:00 AM 11.01 51.818 0.919 7.75 30.84 9.14
11/4/2022 10:15:00 AM 11.06 51.908 0.919 7.75 29.7 9.21
11/4/2022 10:30:00 AM 11.1 51.98 0.918 7.75 30.27 9.33
11/4/2022 10:45:00 AM 11.15 52.07 0.918 7.76 28.94 9.5
11/4/2022 11:00:00 AM 11.21 52.178 0.918 7.77 29.35 9.63
11/4/2022 11:15:00 AM 11.28 52.304 0.918 7.76 29.27 9.99
11/4/2022 11:30:00 AM 11.42 52.556 0.917 7.76 28.95 10.21
11/4/2022 11:45:00 AM 11.59 52.862 0.916 7.77 28.73 10.42
11/4/2022 12:00:00 PM 11.8 53.24 0.915 7.77 28.95 10.79
11/4/2022 12:15:00 PM 12.01 53.618 0.916 7.78 28.65 10.93
11/4/2022 12:30:00 PM 12.17 53.906 0.916 7.8 35.09 11.29
11/4/2022 12:45:00 PM 12.32 54.176 0.916 7.8 29.19 11.39
11/4/2022 1:00:00 PM 12.46 54.428 0.915 7.83 29.13 11.59
11/4/2022 1:15:00 PM 12.56 54.608 0.916 7.85 29.84 11.78
11/4/2022 1:30:00 PM 12.66 54.788 0.915 7.87 29.18 11.99
11/4/2022 1:45:00 PM 12.77 54.986 0.916 7.89 30.32 12.09
11/4/2022 2:00:00 PM 12.86 55.148 0.916 7.91 29 12.11
11/4/2022 2:15:00 PM 12.97 55.346 0.915 7.93 30.86 12.26
11/4/2022 2:30:00 PM 13.07 55.526 0.915 7.95 29.19 12.37
11/4/2022 2:45:00 PM 13.13 55.634 0.916 7.96 29.72 12.45
11/4/2022 3:00:00 PM 13.2 55.76 0.916 7.98 31.39 12.49
11/4/2022 3:15:00 PM 13.25 55.85 0.916 7.99 29.55 12.51
11/4/2022 3:30:00 PM 13.28 55.904 0.916 8 29.83 12.54
11/4/2022 3:45:00 PM 13.32 55.976 0.917 8.01 30.38 12.51
11/4/2022 4:00:00 PM 13.34 56.012 0.917 8.03 29.62 12.47
11/4/2022 4:15:00 PM 13.36 56.048 0.917 8.03 29.68 12.41
11/4/2022 4:30:00 PM 13.37 56.066 0.918 8.04 30.37 12.31
11/4/2022 4:45:00 PM 13.38 56.084 0.918 8.04 29.21 12.16
11/4/2022 5:00:00 PM 13.39 56.102 0.919 8.04 29.66 12.02
11/4/2022 5:15:00 PM 13.4 56.12 0.919 8.04 29.55 11.82
11/4/2022 5:30:00 PM 13.41 56.138 0.92 8.05 30.11 11.72
11/4/2022 5:45:00 PM 13.42 56.156 0.92 8.05 30.02 11.59
11/4/2022 6:00:00 PM 13.44 56.192 0.921 8.06 30.23 11.39
11/4/2022 6:15:00 PM 13.45 56.21 0.921 8.06 32.11 11.25
11/4/2022 6:30:00 PM 13.45 56.21 0.922 8.06 32.98 11.14
11/4/2022 6:45:00 PM 13.46 56.228 0.922 8.06 29.63 10.95
11/4/2022 7:00:00 PM 13.48 56.264 0.923 8.07 31.57 10.84
11/4/2022 7:15:00 PM 13.49 56.282 0.924 8.07 31.99 10.68
11/4/2022 7:30:00 PM 13.5 56.3 0.925 8.07 30.01 10.56
11/4/2022 7:45:00 PM 13.51 56.318 0.926 8.06 31.95 10.42
11/4/2022 8:00:00 PM 13.51 56.318 0.927 8.06 31.78 10.28
11/4/2022 8:15:00 PM 13.51 56.318 0.928 8.06 32.79 10.11
11/4/2022 8:30:00 PM 13.5 56.3 0.929 8.06 34.18 9.94
11/4/2022 8:45:00 PM 13.48 56.264 0.93 8.05 32.82 9.77
11/4/2022 9:00:00 PM 13.46 56.228 0.932 8.04 31.73 9.65
11/4/2022 9:15:00 PM 13.43 56.174 0.933 8.03 31.6 9.54
11/4/2022 9:30:00 PM 13.41 56.138 0.934 8.03 30.16 9.38
11/4/2022 9:45:00 PM 13.37 56.066 0.935 8.02 30.5 9.27
11/4/2022 10:00:00 PM 13.34 56.012 0.937 8.01 30.48 9.07
11/4/2022 10:15:00 PM 13.3 55.94 0.938 8 30.3 8.87
11/4/2022 10:30:00 PM 13.28 55.904 0.939 7.99 31.24 8.72
11/4/2022 10:45:00 PM 13.24 55.832 0.94 7.98 30.49 8.52
11/4/2022 11:00:00 PM 13.21 55.778 0.942 7.97 30.7 8.56
11/4/2022 11:15:00 PM 13.19 55.742 0.943 7.96 30.42 8.56
11/4/2022 11:30:00 PM 13.16 55.688 0.944 7.95 30.33 8.32
11/4/2022 11:45:00 PM 13.14 55.652 0.945 7.94 32.67 8.35
11/5/2022 12:00:00 AM 13.11 55.598 0.946 7.93 30.24 8.31
11/5/2022 12:15:00 AM 13.08 55.544 0.947 7.92 30.35 8.22
11/5/2022 12:30:00 AM 13.05 55.49 0.948 7.92 32.52 8.17
11/5/2022 12:45:00 AM 13.04 55.472 0.949 7.91 29.77 8.07
11/5/2022 1:00:00 AM 13.02 55.436 0.951 7.9 30.61 8
11/5/2022 1:15:00 AM 13.01 55.418 0.951 7.89 32.92 7.97
11/5/2022 1:30:00 AM 13 55.4 0.953 7.88 30.55 7.95
11/5/2022 1:45:00 AM 13 55.4 0.953 7.87 30.44 7.94
11/5/2022 2:00:00 AM 13.01 55.418 0.954 7.86 30.66 7.87
11/5/2022 2:15:00 AM 13.02 55.436 0.956 7.85 30.65 7.88
11/5/2022 2:30:00 AM 13.03 55.454 0.957 7.84 33.11 7.82
11/5/2022 2:45:00 AM 13.03 55.454 0.959 7.84 33.28 7.77
11/5/2022 3:00:00 AM 13.01 55.418 0.96 7.83 30.95 7.75
11/5/2022 3:15:00 AM 13 55.4 0.961 7.83 33.99 7.71
11/5/2022 3:30:00 AM 13 55.4 0.962 7.82 33.5 7.68
11/5/2022 3:45:00 AM 13 55.4 0.963 7.82 31.4 7.69
11/5/2022 4:00:00 AM 13 55.4 0.964 7.81 32.95 7.65
11/5/2022 4:15:00 AM 13 55.4 0.965 7.8 33.52 7.6
11/5/2022 4:30:00 AM 13.01 55.418 0.967 7.8 33.14 7.61
11/5/2022 4:45:00 AM 13.01 55.418 0.968 7.79 32.64 7.6
11/5/2022 5:00:00 AM 13.02 55.436 0.969 7.79 33.4 7.53
11/5/2022 5:15:00 AM 13.03 55.454 0.97 7.78 33.7 7.57
11/5/2022 5:30:00 AM 13.03 55.454 0.971 7.78 33.15 7.55
11/5/2022 5:45:00 AM 13.04 55.472 0.972 7.77 33.38 7.54
11/5/2022 6:00:00 AM 13.05 55.49 0.973 7.77 34.18 7.52
11/5/2022 6:15:00 AM 13.06 55.508 0.974 7.77 36.27 7.49
11/5/2022 6:30:00 AM 13.06 55.508 0.975 7.77 33.85 7.48
11/5/2022 6:45:00 AM 13.07 55.526 0.976 7.76 33.99 7.46
11/5/2022 7:00:00 AM 13.08 55.544 0.977 7.75 33.88 7.45
11/5/2022 7:15:00 AM 13.09 55.562 0.978 7.75 33.43 7.46
11/5/2022 7:30:00 AM 13.11 55.598 0.979 7.75 35.18 7.46
11/5/2022 7:45:00 AM 13.12 55.616 0.98 7.75 34.02 7.56
11/5/2022 8:00:00 AM 13.13 55.634 0.981 7.74 33.3 7.58
11/5/2022 8:15:00 AM 13.14 55.652 0.982 7.74 33.03 7.43
11/5/2022 8:30:00 AM 13.16 55.688 0.981 7.74 33.21 7.37
11/5/2022 8:45:00 AM 13.18 55.724 0.982 7.74 34.05 7.46
11/5/2022 9:00:00 AM 13.19 55.742 0.983 7.74 33.03 7.58
11/5/2022 9:15:00 AM 13.2 55.76 0.983 7.75 34.16 7.6
11/5/2022 9:30:00 AM 13.22 55.796 0.984 7.75 33.64 7.88
11/5/2022 9:45:00 AM 13.24 55.832 0.984 7.76 34.75 7.96
11/5/2022 10:00:00 AM 13.29 55.922 0.984 7.76 33.79 8.03
11/5/2022 10:15:00 AM 13.33 55.994 0.984 7.76 32.55 8.19
11/5/2022 10:30:00 AM 13.4 56.12 0.985 7.77 32.57 8.32
11/5/2022 10:45:00 AM 13.5 56.3 0.984 7.78 32.76 8.65
11/5/2022 11:00:00 AM 13.63 56.534 0.983 7.8 33.21 8.93
11/5/2022 11:15:00 AM 13.81 56.858 0.984 7.81 33.03 9.34
11/5/2022 11:30:00 AM 13.98 57.164 0.984 7.81 32.32 9.59
11/5/2022 11:45:00 AM 14.18 57.524 0.983 7.83 34.62 9.93
11/5/2022 12:00:00 PM 14.39 57.902 0.982 7.85 33.44 10.23
11/5/2022 12:15:00 PM 14.57 58.226 0.983 7.87 32.83 10.46
11/5/2022 12:30:00 PM 14.71 58.478 0.983 7.88 33.43 10.65
11/5/2022 12:45:00 PM 14.78 58.604 0.984 7.9 31.18 10.4
11/5/2022 1:00:00 PM 14.87 58.766 0.983 7.91 30.1 10.78
11/5/2022 1:15:00 PM 14.98 58.964 0.983 7.94 32.03 10.99
11/5/2022 1:30:00 PM 15.12 59.216 0.981 7.95 33.49 11.16
11/5/2022 1:45:00 PM 15.26 59.468 0.981 7.98 31.78 11.42
11/5/2022 2:00:00 PM 15.39 59.702 0.981 8.01 28.58 11.66
11/5/2022 2:15:00 PM 15.44 59.792 0.98 8.02 28.47 11.73
11/5/2022 2:30:00 PM 15.51 59.918 0.98 8.04 27.73 11.82
11/5/2022 2:45:00 PM 15.55 59.99 0.98 8.04 27.41 11.88
11/5/2022 3:00:00 PM 15.62 60.116 0.979 8.06 28.04 11.86
11/5/2022 3:15:00 PM 15.65 60.17 0.979 8.06 27.75 11.89
11/5/2022 3:30:00 PM 15.68 60.224 0.979 8.07 27.89 11.79
11/5/2022 3:45:00 PM 15.73 60.314 0.979 8.07 27.93 11.69
11/5/2022 4:00:00 PM 15.77 60.386 0.979 8.09 27.43 11.73
11/5/2022 4:15:00 PM 15.83 60.494 0.979 8.1 27.88 11.79
11/5/2022 4:30:00 PM 15.88 60.584 0.978 8.12 29.54 11.82
11/5/2022 4:45:00 PM 15.92 60.656 0.977 8.12 27.99 11.77
11/5/2022 5:00:00 PM 15.94 60.692 0.977 8.12 27.3 11.64
11/5/2022 5:15:00 PM 15.95 60.71 0.976 8.13 28.02 11.43
11/5/2022 5:30:00 PM 15.96 60.728 0.976 8.12 29.77 11.04
11/5/2022 5:45:00 PM 15.98 60.764 0.976 8.12 31.54 10.95
11/5/2022 6:00:00 PM 15.98 60.764 0.976 8.11 32.2 10.68
11/5/2022 6:15:00 PM 15.98 60.764 0.976 8.11 31.43 10.46
11/5/2022 6:30:00 PM 16 60.8 0.976 8.1 34.66 10.3
11/5/2022 6:45:00 PM 16 60.8 0.976 8.1 30.72 10.16
11/5/2022 7:00:00 PM 16.01 60.818 0.976 8.1 31.19 9.94
11/5/2022 7:15:00 PM 16.02 60.836 0.976 8.1 30.89 9.77
11/5/2022 7:30:00 PM 16.02 60.836 0.976 8.09 29.64 9.62
11/5/2022 7:45:00 PM 16.02 60.836 0.976 8.09 30.06 9.44
11/5/2022 8:00:00 PM 16.02 60.836 0.977 8.08 30.31 9.28
11/5/2022 8:15:00 PM 16.02 60.836 0.977 8.07 30.85 9.11
11/5/2022 8:30:00 PM 16.01 60.818 0.977 8.06 26.88 8.93
11/5/2022 8:45:00 PM 15.99 60.782 0.977 8.05 27.78 8.76
11/5/2022 9:00:00 PM 15.98 60.764 0.978 8.05 28.34 8.6
11/5/2022 9:15:00 PM 15.96 60.728 0.978 8.03 28.28 8.39
11/5/2022 9:30:00 PM 15.94 60.692 0.978 8.02 31.14 8.27
11/5/2022 9:45:00 PM 15.92 60.656 0.979 8.01 28.38 8.15
11/5/2022 10:00:00 PM 15.9 60.62 0.979 8 28.14 7.97
11/5/2022 10:15:00 PM 15.88 60.584 0.979 7.99 28.75 7.84
11/5/2022 10:30:00 PM 15.86 60.548 0.979 7.98 31.09 7.76
11/5/2022 10:45:00 PM 15.84 60.512 0.979 7.97 28.89 7.59
11/5/2022 11:00:00 PM 15.83 60.494 0.98 7.96 28.93 7.5
11/5/2022 11:15:00 PM 15.83 60.494 0.98 7.95 29.03 7.38
11/5/2022 11:30:00 PM 15.82 60.476 0.98 7.94 28.13 7.26
11/5/2022 11:45:00 PM 15.82 60.476 0.98 7.93 28.99 7.16
11/6/2022 12:00:00 AM 15.81 60.458 0.98 7.92 28.33 7.04
11/6/2022 12:15:00 AM 15.79 60.422 0.981 7.91 28.77 6.96
11/6/2022 12:30:00 AM 15.78 60.404 0.981 7.9 27.41 6.88
11/6/2022 12:45:00 AM 15.78 60.404 0.981 7.89 27.64 6.84
11/6/2022 1:00:00 AM 15.77 60.386 0.982 7.89 27.92 6.75
11/6/2022 1:15:00 AM 15.76 60.368 0.982 7.88 28.33 6.72
11/6/2022 1:30:00 AM 15.75 60.35 0.982 7.88 28.48 6.66
11/6/2022 1:45:00 AM 15.75 60.35 0.982 7.87 27.71 6.6
11/6/2022 2:00:00 AM 15.74 60.332 0.983 7.86 28.04 6.54
11/6/2022 2:15:00 AM 15.73 60.314 0.983 7.86 28.3 6.52
11/6/2022 2:30:00 AM 15.72 60.296 0.984 7.86 28.34 6.48
11/6/2022 2:45:00 AM 15.71 60.278 0.984 7.85 28.7 6.46
11/6/2022 3:00:00 AM 15.7 60.26 0.985 7.85 28.13 6.44
11/6/2022 3:15:00 AM 15.7 60.26 0.985 7.84 27.68 6.38
11/6/2022 3:30:00 AM 15.67 60.206 0.988 7.82 28.49 6.25
11/6/2022 3:45:00 AM 15.67 60.206 0.989 7.81 28.42 6.2
11/6/2022 4:00:00 AM 15.67 60.206 0.99 7.81 28.06 6.21
11/6/2022 4:15:00 AM 15.67 60.206 0.99 7.8 30.01 6.21
11/6/2022 4:30:00 AM 15.65 60.17 0.991 7.8 30.24 6.16
11/6/2022 4:45:00 AM 15.65 60.17 0.992 7.79 32.35 6.17
11/6/2022 5:00:00 AM 15.64 60.152 0.993 7.79 30.66 6.17
11/6/2022 5:15:00 AM 15.64 60.152 0.994 7.79 35.94 6.15
11/6/2022 5:30:00 AM 15.63 60.134 0.995 7.78 32.29 6.17
11/6/2022 5:45:00 AM 15.62 60.116 0.995 7.78 31.12 6.16
11/6/2022 6:00:00 AM 15.61 60.098 0.996 7.78 32.11 6.21
11/6/2022 6:15:00 AM 15.59 60.062 0.997 7.78 31.48 6.12
11/6/2022 6:30:00 AM 15.58 60.044 0.998 7.78 30.93 6.19
11/6/2022 6:45:00 AM 15.56 60.008 0.999 7.77 31.85 6.12
11/6/2022 7:00:00 AM 15.56 60.008 0.998 7.77 31.12 6.15
11/6/2022 7:15:00 AM 15.55 59.99 0.999 7.77 31.35 6.17
11/6/2022 7:30:00 AM 15.54 59.972 0.999 7.77 31.35 6.25
11/6/2022 7:45:00 AM 15.54 59.972 1 7.77 32.08 6.16
11/6/2022 8:00:00 AM 15.55 59.99 1.001 7.77 32.43 6.46
11/6/2022 8:15:00 AM 15.55 59.99 1.002 7.78 31.42 6.53
11/6/2022 8:30:00 AM 15.55 59.99 1.002 7.78 31.14 6.59
11/6/2022 8:45:00 AM 15.57 60.026 1.002 7.78 32.72 6.46
11/6/2022 9:00:00 AM 15.58 60.044 1.002 7.79 32.07 6.61
11/6/2022 9:15:00 AM 15.59 60.062 1.004 7.79 31.88 6.76
11/6/2022 9:30:00 AM 15.59 60.062 1.004 7.8 31.46 6.81
11/6/2022 9:45:00 AM 15.62 60.116 1.005 7.79 31.86 6.95
11/6/2022 10:00:00 AM 15.66 60.188 1.005 7.8 31.33 7.13
11/6/2022 10:15:00 AM 15.72 60.296 1.005 7.81 30.44 7.34
11/6/2022 10:30:00 AM 15.77 60.386 1.005 7.82 31.35 7.56
11/6/2022 10:45:00 AM 15.85 60.53 1.005 7.83 31.55 7.85
11/6/2022 11:00:00 AM 15.89 60.602 1.006 7.84 31.24 8.2
11/6/2022 11:15:00 AM 15.9 60.62 1.006 7.85 30.91 8.21
11/6/2022 11:30:00 AM 15.94 60.692 1.006 7.86 30.67 8.2
11/6/2022 11:45:00 AM 15.98 60.764 1.007 7.86 32.29 8.37
11/6/2022 12:00:00 PM 16.02 60.836 1.007 7.87 31.25 8.46
11/6/2022 12:15:00 PM 16.09 60.962 1.007 7.9 32.3 8.69
11/6/2022 12:30:00 PM 16.12 61.016 1.007 7.9 33.24 8.38
11/6/2022 12:45:00 PM 16.16 61.088 1.007 7.91 39.68 8.44
11/6/2022 1:00:00 PM 16.19 61.142 1.008 7.92 31.75 8.52
11/6/2022 1:15:00 PM 16.24 61.232 1.008 7.92 32.42 8.22
11/6/2022 1:30:00 PM 16.29 61.322 1.008 7.94 42.75 8.94
11/6/2022 1:45:00 PM 16.33 61.394 1.007 7.95 34.28 8.69
11/6/2022 2:00:00 PM 16.38 61.484 1.007 7.96 31.94 8.73
11/6/2022 2:15:00 PM 16.42 61.556 1.007 7.97 54 8.95
11/6/2022 2:30:00 PM 16.46 61.628 1.006 7.99 33.77 9.13
11/6/2022 2:45:00 PM 16.49 61.682 1.007 7.99 40.04 9.38
11/6/2022 3:00:00 PM 16.5 61.7 1.007 8 39.95 9.04
11/6/2022 3:15:00 PM 16.53 61.754 1.006 8 34.72 9.38
11/6/2022 3:30:00 PM 16.57 61.826 1.007 8 31.59 9.36
11/6/2022 3:45:00 PM 16.59 61.862 1.007 8.01 32.19 9.5
11/6/2022 4:00:00 PM 16.6 61.88 1.007 8.01 34.78 9.53
11/6/2022 4:15:00 PM 16.62 61.916 1.006 8.03 32.79 9.64
11/6/2022 4:30:00 PM 16.63 61.934 1.006 8.03 32.32 9.58
11/6/2022 4:45:00 PM 16.64 61.952 1.007 8.04 32.71 9.51
11/6/2022 5:00:00 PM 16.64 61.952 1.007 8.03 31.88 9.31
11/6/2022 5:15:00 PM 16.64 61.952 1.007 8.03 31.55 9.12
11/6/2022 5:30:00 PM 16.63 61.934 1.007 8.02 31.17 9.06
11/6/2022 5:45:00 PM 16.63 61.934 1.007 8.02 30.55 8.98
11/6/2022 6:00:00 PM 16.62 61.916 1.007 8.01 32.54 8.87
11/6/2022 6:15:00 PM 16.62 61.916 1.007 8.01 35.26 8.74
11/6/2022 6:30:00 PM 16.61 61.898 1.007 8.01 35.85 8.6
11/6/2022 6:45:00 PM 16.59 61.862 1.007 8 32.24 8.47
11/6/2022 7:00:00 PM 16.57 61.826 1.007 8 31.43 8.37
11/6/2022 7:15:00 PM 16.55 61.79 1.007 7.99 32.17 8.22
11/6/2022 7:30:00 PM 16.53 61.754 1.007 7.98 31.85 8.06
11/6/2022 7:45:00 PM 16.53 61.754 1.008 7.97 33.86 7.95
11/6/2022 8:00:00 PM 16.53 61.754 1.008 7.96 31.8 7.83
11/6/2022 8:15:00 PM 16.54 61.772 1.008 7.95 32.04 7.71
11/6/2022 8:30:00 PM 16.55 61.79 1.008 7.95 30.79 7.56
11/6/2022 8:45:00 PM 16.54 61.772 1.008 7.94 30.85 7.47
11/6/2022 9:00:00 PM 16.54 61.772 1.009 7.93 31.19 7.35
11/6/2022 9:15:00 PM 16.52 61.736 1.009 7.92 31.61 7.25
11/6/2022 9:30:00 PM 16.49 61.682 1.009 7.92 31.61 7.18
11/6/2022 9:45:00 PM 16.46 61.628 1.01 7.91 32.11 7.08
11/6/2022 10:00:00 PM 16.44 61.592 1.01 7.9 31.81 7.01
11/6/2022 10:15:00 PM 16.42 61.556 1.01 7.9 31.69 6.92
11/6/2022 10:30:00 PM 16.41 61.538 1.01 7.89 30.83 6.88
11/6/2022 10:45:00 PM 16.4 61.52 1.011 7.88 32.87 6.81
11/6/2022 11:00:00 PM 16.39 61.502 1.011 7.88 31.3 6.74
11/6/2022 11:15:00 PM 16.38 61.484 1.011 7.87 31.75 6.68
11/6/2022 11:30:00 PM 16.36 61.448 1.012 7.86 30.66 6.67
11/6/2022 11:45:00 PM 16.35 61.43 1.012 7.86 31.32 6.6
11/7/2022 12:00:00 AM 16.35 61.43 1.012 7.85 32.17 6.58
11/7/2022 12:15:00 AM 16.33 61.394 1.013 7.85 30.86 6.51
11/7/2022 12:30:00 AM 16.32 61.376 1.013 7.85 30.82 6.48
11/7/2022 12:45:00 AM 16.31 61.358 1.013 7.84 30.59 6.47
11/7/2022 1:00:00 AM 16.29 61.322 1.014 7.84 30.88 6.45
11/7/2022 1:15:00 AM 16.28 61.304 1.014 7.84 30.43 6.45
11/7/2022 1:30:00 AM 16.27 61.286 1.015 7.84 30.82 6.45
11/7/2022 1:45:00 AM 16.26 61.268 1.015 7.83 31 6.43
11/7/2022 2:00:00 AM 16.25 61.25 1.016 7.83 30.78 6.41
11/7/2022 2:15:00 AM 16.22 61.196 1.016 7.83 31.48 6.36
11/7/2022 2:30:00 AM 16.21 61.178 1.017 7.83 31.26 6.37
11/7/2022 2:45:00 AM 16.19 61.142 1.018 7.83 31.58 6.38
11/7/2022 3:00:00 AM 16.17 61.106 1.018 7.82 31.09 6.38
11/7/2022 3:15:00 AM 16.15 61.07 1.019 7.82 30.52 6.36
11/7/2022 3:30:00 AM 16.12 61.016 1.019 7.82 30.98 6.37
11/7/2022 3:45:00 AM 16.1 60.98 1.02 7.82 31.7 6.34
11/7/2022 4:00:00 AM 16.07 60.926 1.021 7.82 31.62 6.32
11/7/2022 4:15:00 AM 16.04 60.872 1.022 7.82 31.47 6.33
11/7/2022 4:30:00 AM 16.03 60.854 1.022 7.82 30.73 6.31
11/7/2022 4:45:00 AM 16.02 60.836 1.023 7.82 31.64 6.32
11/7/2022 5:00:00 AM 16.02 60.836 1.024 7.81 30.99 6.31
11/7/2022 5:15:00 AM 16.01 60.818 1.024 7.81 31.18 6.34
11/7/2022 5:30:00 AM 15.99 60.782 1.025 7.81 30.71 6.27
11/7/2022 5:45:00 AM 15.95 60.71 1.026 7.81 32.39 6.3
11/7/2022 6:00:00 AM 15.92 60.656 1.027 7.8 31.92 6.3
11/7/2022 6:15:00 AM 15.88 60.584 1.028 7.8 31.63 6.32
11/7/2022 6:30:00 AM 15.82 60.476 1.029 7.8 36.13 6.24
11/7/2022 6:45:00 AM 15.79 60.422 1.03 7.8 31.12 6.18
11/7/2022 7:00:00 AM 15.75 60.35 1.032 7.79 30.43 6.26
11/7/2022 7:15:00 AM 15.73 60.314 1.033 7.79 31.12 6.28
11/7/2022 7:30:00 AM 15.71 60.278 1.033 7.79 31.37 6.32
11/7/2022 7:45:00 AM 15.69 60.242 1.034 7.79 31.29 6.24
11/7/2022 8:00:00 AM 15.69 60.242 1.035 7.79 32.34 6.3
11/7/2022 8:15:00 AM 15.68 60.224 1.036 7.79 30.26 6.29
11/7/2022 8:30:00 AM 15.65 60.17 1.037 7.79 32.78 6.48
11/7/2022 8:45:00 AM 15.63 60.134 1.038 7.79 33.47 6.59
11/7/2022 9:00:00 AM 15.61 60.098 1.038 7.79 31.27 6.49
11/7/2022 9:15:00 AM 15.62 60.116 1.039 7.79 31.22 6.65
11/7/2022 9:30:00 AM 15.64 60.152 1.039 7.8 30.37 6.91
11/7/2022 9:45:00 AM 15.69 60.242 1.039 7.81 30.29 7.07
11/7/2022 10:00:00 AM 15.78 60.404 1.039 7.82 32.46 7.38
11/7/2022 10:15:00 AM 15.95 60.71 1.038 7.82 31.06 7.62
11/7/2022 10:30:00 AM 16.08 60.944 1.04 7.84 31.15 8.19
11/7/2022 10:45:00 AM 16.24 61.232 1.04 7.87 31.59 8.7
11/7/2022 11:00:00 AM 16.41 61.538 1.04 7.88 31.76 8.99
11/7/2022 11:15:00 AM 16.58 61.844 1.04 7.89 31.9 9.2
11/7/2022 11:30:00 AM 16.67 62.006 1.041 7.92 29.95 9.55
11/7/2022 11:45:00 AM 16.76 62.168 1.042 7.94 30.84 10.03
11/7/2022 12:00:00 PM 16.78 62.204 1.043 7.96 31.67 10.04
11/7/2022 12:15:00 PM 16.83 62.294 1.043 7.97 32.19 9.99
11/7/2022 12:30:00 PM 16.89 62.402 1.043 7.98 56.17 10.15
11/7/2022 12:45:00 PM 16.93 62.474 1.043 7.98 31.79 10.51
11/7/2022 1:00:00 PM 16.96 62.528 1.044 7.99 38.98 10.53
11/7/2022 1:15:00 PM 16.98 62.564 1.044 8 37.89 10.53
11/7/2022 1:30:00 PM 17 62.6 1.044 8.02 36.91 10.6
11/7/2022 1:45:00 PM 17.05 62.69 1.044 8.04 39.91 10.68
11/7/2022 2:00:00 PM 17.06 62.708 1.044 8.05 35.03 10.86
11/7/2022 2:15:00 PM 17.05 62.69 1.044 8.06 34.48 10.92
11/7/2022 2:30:00 PM 17.05 62.69 1.044 8.07 34.64 10.9
11/7/2022 2:45:00 PM 17.03 62.654 1.045 8.07 35.32 10.85
11/7/2022 3:00:00 PM 17 62.6 1.045 8.07 36.86 10.77
11/7/2022 3:15:00 PM 16.97 62.546 1.045 8.07 35.78 10.64
11/7/2022 3:30:00 PM 16.92 62.456 1.045 8.07 31.45 10.55
11/7/2022 3:45:00 PM 16.88 62.384 1.045 8.08 33.14 10.39
11/7/2022 4:00:00 PM 16.85 62.33 1.045 8.09 33.68 10.25
11/7/2022 4:15:00 PM 16.82 62.276 1.046 8.09 33.43 10.07
11/7/2022 4:30:00 PM 16.79 62.222 1.046 8.09 34.9 9.88
11/7/2022 4:45:00 PM 16.77 62.186 1.046 8.09 34.34 9.87
11/7/2022 5:00:00 PM 16.74 62.132 1.046 8.09 34.19 9.73
11/7/2022 5:15:00 PM 16.69 62.042 1.046 8.09 34.35 9.63
11/7/2022 5:30:00 PM 16.65 61.97 1.046 8.08 35.04 9.46
11/7/2022 5:45:00 PM 16.61 61.898 1.045 8.09 34.88 9.28
11/7/2022 6:00:00 PM 16.57 61.826 1.045 8.09 34.71 9.19
11/7/2022 6:15:00 PM 16.51 61.718 1.045 8.09 34.42 9.09
11/7/2022 6:30:00 PM 16.48 61.664 1.045 8.08 34.49 8.89
11/7/2022 6:45:00 PM 16.43 61.574 1.045 8.08 37 8.78
11/7/2022 7:00:00 PM 16.36 61.448 1.045 8.07 35.07 8.66
11/7/2022 7:15:00 PM 16.31 61.358 1.046 8.07 34.79 8.55
11/7/2022 7:30:00 PM 16.25 61.25 1.046 8.06 35.05 8.42
11/7/2022 7:45:00 PM 16.18 61.124 1.046 8.05 35.7 8.29
11/7/2022 8:00:00 PM 16.12 61.016 1.047 8.05 35.18 8.15
11/7/2022 8:15:00 PM 16.02 60.836 1.047 8.04 35.44 7.99
11/7/2022 8:30:00 PM 15.96 60.728 1.047 8.03 34.58 7.88
11/7/2022 8:45:00 PM 15.87 60.566 1.047 8.02 33.91 7.74
11/7/2022 9:00:00 PM 15.79 60.422 1.048 8.01 33.1 7.65
11/7/2022 9:15:00 PM 15.7 60.26 1.048 8 33.39 7.53
11/7/2022 9:30:00 PM 15.63 60.134 1.048 7.99 33.81 7.43
11/7/2022 9:45:00 PM 15.56 60.008 1.049 7.98 33.04 7.37
11/7/2022 10:00:00 PM 15.47 59.846 1.049 7.97 33.55 7.25
11/7/2022 10:15:00 PM 15.39 59.702 1.049 7.96 33.97 7.18
11/7/2022 10:30:00 PM 15.3 59.54 1.049 7.94 34.07 7.18
11/7/2022 10:45:00 PM 15.23 59.414 1.05 7.94 33.12 7.06
11/7/2022 11:00:00 PM 15.16 59.288 1.049 7.93 34.26 7.01
11/7/2022 11:15:00 PM 15.09 59.162 1.049 7.92 32.65 7
11/7/2022 11:30:00 PM 15.02 59.036 1.049 7.91 34.09 7
11/7/2022 11:45:00 PM 14.94 58.892 1.049 7.9 34.72 6.98
11/8/2022 12:00:00 AM 14.88 58.784 1.049 7.9 33.21 6.9
11/8/2022 12:15:00 AM 14.82 58.676 1.05 7.89 33.08 6.84
11/8/2022 12:30:00 AM 14.75 58.55 1.05 7.89 33.94 6.85
11/8/2022 12:45:00 AM 14.67 58.406 1.05 7.88 33.87 6.79
11/8/2022 1:00:00 AM 14.61 58.298 1.05 7.88 34.39 6.8
11/8/2022 1:15:00 AM 14.55 58.19 1.05 7.87 35.21 6.87
11/8/2022 1:30:00 AM 14.46 58.028 1.05 7.87 34.6 6.9
11/8/2022 1:45:00 AM 14.41 57.938 1.05 7.86 35.18 6.85
11/8/2022 2:00:00 AM 14.34 57.812 1.051 7.86 34.96 6.85
11/8/2022 2:15:00 AM 14.26 57.668 1.051 7.86 34.95 6.88
11/8/2022 2:30:00 AM 14.21 57.578 1.051 7.85 35.26 6.88
11/8/2022 2:45:00 AM 14.1 57.38 1.052 7.85 34.73 6.88
11/8/2022 3:00:00 AM 14.05 57.29 1.051 7.85 34.48 6.9
11/8/2022 3:15:00 AM 13.99 57.182 1.051 7.85 34.7 6.95
11/8/2022 3:30:00 AM 13.92 57.056 1.051 7.85 36.54 6.92
11/8/2022 3:45:00 AM 13.86 56.948 1.052 7.84 35.04 6.94
11/8/2022 4:00:00 AM 13.8 56.84 1.052 7.84 35.13 6.94
11/8/2022 4:15:00 AM 13.71 56.678 1.052 7.84 35.08 7
11/8/2022 4:30:00 AM 13.64 56.552 1.052 7.83 37.04 7
11/8/2022 4:45:00 AM 13.55 56.39 1.053 7.83 38.58 6.98
11/8/2022 5:00:00 AM 13.48 56.264 1.053 7.83 36.25 6.98
11/8/2022 5:15:00 AM 13.39 56.102 1.053 7.83 35.32 7.01
11/8/2022 5:30:00 AM 13.31 55.958 1.054 7.82 35.99 6.97
11/8/2022 5:45:00 AM 13.23 55.814 1.054 7.82 36.1 7.07
11/8/2022 6:00:00 AM 13.18 55.724 1.054 7.82 33.75 7
11/8/2022 6:15:00 AM 13.1 55.58 1.054 7.82 33.62 7.02
11/8/2022 6:30:00 AM 12.98 55.364 1.055 7.82 37.06 7
11/8/2022 6:45:00 AM 12.93 55.274 1.055 7.82 33.74 6.9
11/8/2022 7:00:00 AM 12.85 55.13 1.055 7.82 33.9 7.01
11/8/2022 7:15:00 AM 12.8 55.04 1.056 7.82 32.96 7
11/8/2022 7:30:00 AM 12.72 54.896 1.056 7.82 35.93 7.1
11/8/2022 7:45:00 AM 12.68 54.824 1.056 7.82 34.07 7.2
11/8/2022 8:00:00 AM 12.64 54.752 1.056 7.82 33.76 7.37
11/8/2022 8:15:00 AM 12.59 54.662 1.057 7.82 34.17 7.49
11/8/2022 8:30:00 AM 12.54 54.572 1.056 7.82 35.7 7.56
11/8/2022 8:45:00 AM 12.52 54.536 1.056 7.82 59.81 7.59
11/8/2022 9:00:00 AM 12.47 54.446 1.056 7.83 34.53 7.91
11/8/2022 9:15:00 AM 12.42 54.356 1.057 7.82 32.96 8.05
11/8/2022 9:30:00 AM 12.43 54.374 1.056 7.83 35.07 8.35
11/8/2022 9:45:00 AM 12.43 54.374 1.056 7.84 33.37 8.58
11/8/2022 10:00:00 AM 12.49 54.482 1.055 7.84 32.85 8.87
11/8/2022 10:15:00 AM 12.59 54.662 1.054 7.85 32.59 9.19
11/8/2022 10:30:00 AM 12.7 54.86 1.054 7.86 32.33 9.64
11/8/2022 10:45:00 AM 12.9 55.22 1.053 7.87 32.84 9.86
11/8/2022 11:00:00 AM 13.03 55.454 1.053 7.21 32.95 10.23
11/8/2022 11:15:00 AM 13.19 55.742 1.053 7.63 33.56 10.54
11/8/2022 11:30:00 AM 13.28 55.904 1.053 7.73 33.8 10.7
11/8/2022 11:45:00 AM 13.34 56.012 1.054 7.8 33.27 11.04
11/8/2022 12:00:00 PM 13.38 56.084 1.054 7.86 32.28 11.19
11/8/2022 12:15:00 PM 13.44 56.192 1.053 7.89 31.75 11.42
11/8/2022 12:30:00 PM 13.5 56.3 1.053 7.92 32.76 11.75
11/8/2022 12:45:00 PM 13.52 56.336 1.053 7.94 32.51 11.73
11/8/2022 1:00:00 PM 13.56 56.408 1.052 7.97 32.83 11.92
11/8/2022 1:15:00 PM 13.54 56.372 1.053 7.99 32.87 11.98
11/8/2022 1:30:00 PM 13.58 56.444 1.052 8.01 33.35 12.16
11/8/2022 1:45:00 PM 13.58 56.444 1.051 8.03 33.8 12.21
11/8/2022 2:00:00 PM 13.61 56.498 1.051 8.05 32.26 12.34
11/8/2022 2:15:00 PM 13.61 56.498 1.051 8.06 32.14 12.38
11/8/2022 2:30:00 PM 13.61 56.498 1.05 8.07 31.32 12.41
11/8/2022 2:45:00 PM 13.58 56.444 1.05 8.08 33.81 12.4
11/8/2022 3:00:00 PM 13.54 56.372 1.05 8.09 32.1 12.33
11/8/2022 3:15:00 PM 13.5 56.3 1.05 8.09 32.1 12.22
11/8/2022 3:30:00 PM 13.45 56.21 1.05 8.09 31.67 12.1
11/8/2022 3:45:00 PM 13.39 56.102 1.049 8.09 33.86 11.99
11/8/2022 4:00:00 PM 13.35 56.03 1.049 8.09 32.35 11.83
11/8/2022 4:15:00 PM 13.32 55.976 1.049 8.09 32.2 11.76
11/8/2022 4:30:00 PM 13.3 55.94 1.049 8.1 41.94 11.63
11/8/2022 4:45:00 PM 13.26 55.868 1.048 8.1 36.89 11.46
11/8/2022 5:00:00 PM 13.24 55.832 1.048 8.11 33.32 11.35
11/8/2022 5:15:00 PM 13.22 55.796 1.047 8.11 34.77 11.19
11/8/2022 5:30:00 PM 13.17 55.706 1.047 8.11 34.57 11.06
11/8/2022 5:45:00 PM 13.13 55.634 1.047 8.11 34.71 10.92
11/8/2022 6:00:00 PM 13.11 55.598 1.046 8.11 34.06 10.77
11/8/2022 6:15:00 PM 13.08 55.544 1.046 8.11 34.22 10.65
11/8/2022 6:30:00 PM 13.04 55.472 1.046 8.11 34 10.55
11/8/2022 6:45:00 PM 13.01 55.418 1.045 8.11 32.83 10.42
11/8/2022 7:00:00 PM 12.97 55.346 1.045 8.11 32.82 10.3
11/8/2022 7:15:00 PM 12.92 55.256 1.045 8.1 34.76 10.17
11/8/2022 7:30:00 PM 12.86 55.148 1.045 8.1 34.37 10.01
11/8/2022 7:45:00 PM 12.81 55.058 1.045 8.09 34.6 9.89
11/8/2022 8:00:00 PM 12.75 54.95 1.045 8.08 33.44 9.73
11/8/2022 8:15:00 PM 12.7 54.86 1.043 8.07 34.31 9.6
11/8/2022 8:30:00 PM 12.6 54.68 1.05 8.07 32.57 9.45
11/8/2022 8:45:00 PM 12.55 54.59 1.043 8.06 32.48 9.34
11/8/2022 9:00:00 PM 12.47 54.446 1.046 8.05 34.15 9.25
11/8/2022 9:15:00 PM 12.4 54.32 1.046 8.03 33.42 9.12
11/8/2022 9:30:00 PM 12.33 54.194 1.046 8.03 33.43 9.01
11/8/2022 9:45:00 PM 12.27 54.086 1.046 8.02 33.69 8.93
11/8/2022 10:00:00 PM 12.2 53.96 1.046 8.01 32.64 8.82
11/8/2022 10:15:00 PM 12.13 53.834 1.042 8.01 33.15 8.78
11/8/2022 10:30:00 PM 12.05 53.69 1.042 8 32.77 8.72
11/8/2022 10:45:00 PM 11.98 53.564 1.045 8 33.06 8.68
11/8/2022 11:00:00 PM 11.91 53.438 1.045 7.99 33.15 8.61
11/8/2022 11:15:00 PM 11.84 53.312 1.045 7.98 33.16 8.53
11/8/2022 11:30:00 PM 11.77 53.186 1.045 7.98 32.89 8.47
11/8/2022 11:45:00 PM 11.71 53.078 1.045 7.97 33.26 8.46
11/9/2022 12:00:00 AM 11.64 52.952 1.045 7.97 33.24 8.42
11/9/2022 12:15:00 AM 11.58 52.844 1.045 7.96 33.54 8.36
11/9/2022 12:30:00 AM 11.52 52.736 1.045 7.96 33.67 8.37
11/9/2022 12:45:00 AM 11.46 52.628 1.045 7.95 33.93 8.34
11/9/2022 1:00:00 AM 11.41 52.538 1.045 7.94 33.53 8.3
11/9/2022 1:15:00 AM 11.32 52.376 1.045 7.94 33.25 8.3
11/9/2022 1:30:00 AM 11.27 52.286 1.044 7.94 33.73 8.32
11/9/2022 1:45:00 AM 11.2 52.16 1.044 7.93 33.95 8.31
11/9/2022 2:00:00 AM 11.13 52.034 1.044 7.93 33.8 8.3
11/9/2022 2:15:00 AM 11.08 51.944 1.041 7.93 34.02 8.3
11/9/2022 2:30:00 AM 11.03 51.854 1.042 7.92 34.2 8.28
11/9/2022 2:45:00 AM 10.96 51.728 1.041 7.92 34.01 8.28
11/9/2022 3:00:00 AM 10.89 51.602 1.041 7.92 35.67 8.29
11/9/2022 3:15:00 AM 10.84 51.512 1.044 7.91 34.15 8.28
11/9/2022 3:30:00 AM 10.76 51.368 1.044 7.91 33.94 8.29
11/9/2022 3:45:00 AM 10.67 51.206 1.045 7.91 34.77 8.29
11/9/2022 4:00:00 AM 10.61 51.098 1.045 7.91 34.53 8.29
11/9/2022 4:15:00 AM 10.57 51.026 1.045 7.91 34.54 8.3
11/9/2022 4:30:00 AM 10.5 50.9 1.045 7.91 33.52 8.28
11/9/2022 4:45:00 AM 10.44 50.792 1.045 7.9 33.62 8.3
11/9/2022 5:00:00 AM 10.34 50.612 1.045 7.89 33.4 8.33
11/9/2022 5:15:00 AM 10.29 50.522 1.044 7.89 34.08 8.31
11/9/2022 5:30:00 AM 10.24 50.432 1.044 7.89 33.44 8.36
11/9/2022 5:45:00 AM 10.17 50.306 1.044 7.89 34.09 8.37
11/9/2022 6:00:00 AM 10.11 50.198 1.044 7.89 34.15 8.38
11/9/2022 6:15:00 AM 10.05 50.09 1.045 7.88 34.41 8.38
11/9/2022 6:30:00 AM 9.96 49.928 1.046 7.87 37.19 8.42
11/9/2022 6:45:00 AM 9.91 49.838 1.044 7.87 37.29 8.25
11/9/2022 7:00:00 AM 9.87 49.766 1.044 7.87 36.23 8.46
11/9/2022 7:15:00 AM 9.81 49.658 1.045 7.86 34.61 8.5
11/9/2022 7:30:00 AM 9.74 49.532 1.045 7.86 34.93 8.55
11/9/2022 7:45:00 AM 9.67 49.406 1.045 7.85 34.38 8.62
11/9/2022 8:00:00 AM 9.62 49.316 1.045 7.85 34.64 8.69
11/9/2022 8:15:00 AM 9.57 49.226 1.045 7.83 34.05 8.77
11/9/2022 8:30:00 AM 9.56 49.208 1.045 7.82 33.88 8.86
11/9/2022 8:45:00 AM 9.51 49.118 1.045 7.81 33.72 8.97
11/9/2022 9:00:00 AM 9.49 49.082 1.045 7.8 33.5 9.09
11/9/2022 9:15:00 AM 9.51 49.118 1.044 7.8 34.56 9.15
11/9/2022 9:30:00 AM 9.52 49.136 1.044 7.79 33.5 9.27
11/9/2022 9:45:00 AM 9.52 49.136 1.044 7.79 33.94 9.41
11/9/2022 10:00:00 AM 9.61 49.298 1.043 7.78 33.57 9.64
11/9/2022 10:15:00 AM 9.71 49.478 1.042 7.73 33.28 9.95
11/9/2022 10:30:00 AM 9.86 49.748 1.04 7.63 34.39 10.24
11/9/2022 10:45:00 AM 10.01 50.018 1.04 7.63 33.41 10.53
11/9/2022 11:00:00 AM 10.23 50.414 1.039 7.54 34.36 10.92
11/9/2022 11:15:00 AM 10.37 50.666 1.038 7.33 32.67 11.2
11/9/2022 11:30:00 AM 10.55 50.99 1.038 7.29 34.77 11.79
11/9/2022 11:45:00 AM 10.64 51.152 1.037 7.47 33.06 11.94
11/9/2022 12:00:00 PM 10.69 51.242 1.037 7.58 32.51 12.01
11/9/2022 12:15:00 PM 10.81 51.458 1.036 7.67 33.04 12.21
11/9/2022 12:30:00 PM 10.89 51.602 1.036 7.72 32.43 12.36
11/9/2022 12:45:00 PM 10.94 51.692 1.035 7.77 32.75 12.56
11/9/2022 1:00:00 PM 11 51.8 1.034 7.83 42.45 12.74
11/9/2022 1:15:00 PM 11.04 51.872 1.035 7.86 32.81 12.78
11/9/2022 1:30:00 PM 11.09 51.962 1.034 7.89 34.58 13.05
11/9/2022 1:45:00 PM 11.14 52.052 1.033 7.91 33.26 13.06
11/9/2022 2:00:00 PM 11.17 52.106 1.032 7.93 33.1 13.23
11/9/2022 2:15:00 PM 11.2 52.16 1.031 7.95 33.6 13.32
11/9/2022 2:30:00 PM 11.21 52.178 1.031 7.97 32.9 13.31
11/9/2022 2:45:00 PM 11.22 52.196 1.03 7.98 34.07 13.31
11/9/2022 3:00:00 PM 11.21 52.178 1.029 8 35.22 13.35
11/9/2022 3:15:00 PM 11.21 52.178 1.028 8 33.84 13.31
11/9/2022 3:30:00 PM 11.19 52.142 1.028 8.01 34.4 13.24
11/9/2022 3:45:00 PM 11.18 52.124 1.025 8.01 34.73 13.04
11/9/2022 4:00:00 PM 11.18 52.124 1.023 8.02 33.76 12.99
11/9/2022 4:15:00 PM 11.17 52.106 1.021 8.02 33.35 12.85
11/9/2022 4:30:00 PM 11.17 52.106 1.025 8.03 33.38 12.81
11/9/2022 4:45:00 PM 11.17 52.106 1.025 8.05 33.12 12.65
11/9/2022 5:00:00 PM 11.15 52.07 1.023 8.06 34.47 12.56
11/9/2022 5:15:00 PM 11.13 52.034 1.022 8.07 33.5 12.38
11/9/2022 5:30:00 PM 11.12 52.016 1.019 8.07 34.7 12.24
11/9/2022 5:45:00 PM 11.09 51.962 1.025 8.08 33.3 12.13
11/9/2022 6:00:00 PM 11.08 51.944 1.02 8.09 33.3 12.04
11/9/2022 6:15:00 PM 11.07 51.926 1.02 8.09 33.17 11.91
11/9/2022 6:30:00 PM 11.06 51.908 1.02 8.09 33.96 11.78
11/9/2022 6:45:00 PM 11.05 51.89 1.019 8.1 33.28 11.67
11/9/2022 7:00:00 PM 11.03 51.854 1.019 8.09 34.46 11.48
11/9/2022 7:15:00 PM 10.99 51.782 1.018 8.09 33.65 11.34
11/9/2022 7:30:00 PM 10.97 51.746 1.018 8.09 33.75 11.17
11/9/2022 7:45:00 PM 10.94 51.692 1.017 8.08 34.08 11.05
11/9/2022 8:00:00 PM 10.9 51.62 1.017 8.08 33.86 10.87
11/9/2022 8:15:00 PM 10.85 51.53 1.017 8.07 33.66 10.7
11/9/2022 8:30:00 PM 10.8 51.44 1.017 8.06 33.45 10.59
11/9/2022 8:45:00 PM 10.76 51.368 1.016 8.06 34.3 10.42
11/9/2022 9:00:00 PM 10.7 51.26 1.016 8.05 34.25 10.28
11/9/2022 9:15:00 PM 10.65 51.17 1.016 8.04 34.29 10.16
11/9/2022 9:30:00 PM 10.59 51.062 1.016 8.03 34.4 9.79
11/9/2022 9:45:00 PM 10.5 50.9 1.016 8.02 37.81 9.9
11/9/2022 10:00:00 PM 10.46 50.828 1.015 8.01 34.43 9.76
11/9/2022 10:15:00 PM 10.42 50.756 1.015 8 34.7 9.62
11/9/2022 10:30:00 PM 10.37 50.666 1.014 7.99 34.4 9.56
11/9/2022 10:45:00 PM 10.32 50.576 1.013 7.98 35.35 9.48
11/9/2022 11:00:00 PM 10.29 50.522 1.012 7.97 35.71 9.49
11/9/2022 11:15:00 PM 10.24 50.432 1.012 7.96 35.71 9.41
11/9/2022 11:30:00 PM 10.2 50.36 1.011 7.96 36.08 9.33
11/9/2022 11:45:00 PM 10.14 50.252 1.01 7.95 37.02 9.27
11/10/2022 12:00:00 AM 10.1 50.18 1.01 7.95 35.76 9.22
11/10/2022 12:15:00 AM 10.06 50.108 1.009 7.94 37.38 9.18
11/10/2022 12:30:00 AM 10.03 50.054 1.009 7.93 36.07 9.11
11/10/2022 12:45:00 AM 10.01 50.018 1.008 7.93 36.32 9.08
11/10/2022 1:00:00 AM 9.96 49.928 1.007 7.92 37.55 9.05
11/10/2022 1:15:00 AM 9.93 49.874 1.007 7.91 36.53 9.05
11/10/2022 1:30:00 AM 9.89 49.802 1.006 7.91 36.14 9.03
11/10/2022 1:45:00 AM 9.86 49.748 1.006 7.91 35.98 8.98
11/10/2022 2:00:00 AM 9.82 49.676 1.005 7.9 41.25 8.98
11/10/2022 2:15:00 AM 9.8 49.64 1.005 7.9 36.5 8.91
11/10/2022 2:30:00 AM 9.76 49.568 1.004 7.89 36.22 8.99
11/10/2022 2:45:00 AM 9.72 49.496 1.004 7.88 36.24 8.89
11/10/2022 3:00:00 AM 9.68 49.424 1.003 7.88 36.82 8.9
11/10/2022 3:15:00 AM 9.66 49.388 1.003 7.88 36.04 8.91
11/10/2022 3:30:00 AM 9.62 49.316 1.002 7.87 37 8.86
11/10/2022 3:45:00 AM 9.58 49.244 1.002 7.87 36.72 8.87
11/10/2022 4:00:00 AM 9.54 49.172 1.002 7.86 36.69 8.85
11/10/2022 4:15:00 AM 9.5 49.1 1.001 7.86 36.14 8.84
11/10/2022 4:30:00 AM 9.47 49.046 1 7.86 40.04 8.83
11/10/2022 4:45:00 AM 9.42 48.956 1 7.85 38.25 8.79
11/10/2022 5:00:00 AM 9.38 48.884 0.999 7.85 35.72 8.85
11/10/2022 5:15:00 AM 9.35 48.83 0.998 7.84 35.75 8.85
11/10/2022 5:30:00 AM 9.31 48.758 0.997 7.84 36.12 8.89
11/10/2022 5:45:00 AM 9.26 48.668 0.998 7.83 38.33 8.86
11/10/2022 6:00:00 AM 9.23 48.614 0.998 7.83 36.43 8.84
11/10/2022 6:15:00 AM 9.19 48.542 0.998 7.83 36.78 8.89
11/10/2022 6:30:00 AM 9.13 48.434 0.998 7.82 37.21 8.96
11/10/2022 6:45:00 AM 9.11 48.398 0.997 7.82 35.75 8.96
11/10/2022 7:00:00 AM 9.07 48.326 0.997 7.82 36.57 8.94
11/10/2022 7:15:00 AM 9 48.2 0.997 7.81 36.48 9.02
11/10/2022 7:30:00 AM 8.98 48.164 0.996 7.81 36.32 9.05
11/10/2022 7:45:00 AM 8.97 48.146 0.996 7.81 36.07 9.13
11/10/2022 8:00:00 AM 8.96 48.128